<?xml version="1.0" encoding="UTF-8" standalone="no" ?>
<gpx xmlns="http://www.topografix.com/GPX/1/1" xmlns:xsi="http://www.w3.org/2001/XMLSchema-instance" xsi:schemaLocation="http://www.topografix.com/GPX/1/1 http://www.topografix.com/GPX/1/1/gpx.xsd" version="1.1" creator="VisuGPX - https://www.visugpx.com">
  <metadata>
    <name>Activité Randonnée TwoNav</name>
    <desc><![CDATA[2023-03-05_131403.trk]]></desc>
  </metadata>
  <trk>
    <name><![CDATA[Activité Randonnée TwoNav_1]]></name>
    <trkseg>
      <trkpt lat="48.17992" lon="6.50351">
        <ele>415.1</ele>
        <time>2023-03-05T12:14:03Z</time>
      </trkpt>
      <trkpt lat="48.17999" lon="6.50357">
        <ele>415.5</ele>
        <time>2023-03-05T12:14:04Z</time>
      </trkpt>
      <trkpt lat="48.18005" lon="6.50361">
        <ele>415.7</ele>
        <time>2023-03-05T12:14:12Z</time>
      </trkpt>
      <trkpt lat="48.18011" lon="6.50366">
        <ele>416</ele>
        <time>2023-03-05T12:14:20Z</time>
      </trkpt>
      <trkpt lat="48.18016" lon="6.50371">
        <ele>416.3</ele>
        <time>2023-03-05T12:14:26Z</time>
      </trkpt>
      <trkpt lat="48.18022" lon="6.50376">
        <ele>416.6</ele>
        <time>2023-03-05T12:14:34Z</time>
      </trkpt>
      <trkpt lat="48.18028" lon="6.50381">
        <ele>416.7</ele>
        <time>2023-03-05T12:14:51Z</time>
      </trkpt>
      <trkpt lat="48.18034" lon="6.50385">
        <ele>416.8</ele>
        <time>2023-03-05T12:14:51Z</time>
      </trkpt>
      <trkpt lat="48.18034" lon="6.50386">
        <ele>416.8</ele>
        <time>2023-03-05T12:15:02Z</time>
      </trkpt>
      <trkpt lat="48.18033" lon="6.50386">
        <ele>416.8</ele>
        <time>2023-03-05T12:15:06Z</time>
      </trkpt>
      <trkpt lat="48.18033" lon="6.50385">
        <ele>416.8</ele>
        <time>2023-03-05T12:15:15Z</time>
      </trkpt>
      <trkpt lat="48.18034" lon="6.50385">
        <ele>416.8</ele>
        <time>2023-03-05T12:15:18Z</time>
      </trkpt>
      <trkpt lat="48.18034" lon="6.50385">
        <ele>416.8</ele>
        <time>2023-03-05T12:15:20Z</time>
      </trkpt>
      <trkpt lat="48.18044" lon="6.50388">
        <ele>416.9</ele>
        <time>2023-03-05T12:15:33Z</time>
      </trkpt>
      <trkpt lat="48.1805" lon="6.50399">
        <ele>417</ele>
        <time>2023-03-05T12:15:39Z</time>
      </trkpt>
      <trkpt lat="48.18058" lon="6.50408">
        <ele>417.1</ele>
        <time>2023-03-05T12:15:46Z</time>
      </trkpt>
      <trkpt lat="48.18066" lon="6.50416">
        <ele>417.1</ele>
        <time>2023-03-05T12:15:54Z</time>
      </trkpt>
      <trkpt lat="48.18075" lon="6.50424">
        <ele>417.1</ele>
        <time>2023-03-05T12:16:01Z</time>
      </trkpt>
      <trkpt lat="48.18083" lon="6.5043">
        <ele>417.1</ele>
        <time>2023-03-05T12:16:08Z</time>
      </trkpt>
      <trkpt lat="48.18092" lon="6.50438">
        <ele>417</ele>
        <time>2023-03-05T12:16:15Z</time>
      </trkpt>
      <trkpt lat="48.18099" lon="6.50446">
        <ele>417</ele>
        <time>2023-03-05T12:16:24Z</time>
      </trkpt>
      <trkpt lat="48.18106" lon="6.50455">
        <ele>417</ele>
        <time>2023-03-05T12:16:31Z</time>
      </trkpt>
      <trkpt lat="48.18115" lon="6.50463">
        <ele>417</ele>
        <time>2023-03-05T12:16:39Z</time>
      </trkpt>
      <trkpt lat="48.18123" lon="6.5047">
        <ele>416.9</ele>
        <time>2023-03-05T12:16:45Z</time>
      </trkpt>
      <trkpt lat="48.18131" lon="6.50477">
        <ele>416.9</ele>
        <time>2023-03-05T12:16:51Z</time>
      </trkpt>
      <trkpt lat="48.18139" lon="6.50484">
        <ele>416.8</ele>
        <time>2023-03-05T12:16:57Z</time>
      </trkpt>
      <trkpt lat="48.18147" lon="6.50491">
        <ele>416.6</ele>
        <time>2023-03-05T12:17:04Z</time>
      </trkpt>
      <trkpt lat="48.18157" lon="6.50496">
        <ele>416.2</ele>
        <time>2023-03-05T12:17:13Z</time>
      </trkpt>
      <trkpt lat="48.18166" lon="6.50498">
        <ele>415.9</ele>
        <time>2023-03-05T12:17:21Z</time>
      </trkpt>
      <trkpt lat="48.18176" lon="6.50503">
        <ele>415.5</ele>
        <time>2023-03-05T12:17:28Z</time>
      </trkpt>
      <trkpt lat="48.18185" lon="6.50508">
        <ele>415.2</ele>
        <time>2023-03-05T12:17:35Z</time>
      </trkpt>
      <trkpt lat="48.18194" lon="6.50513">
        <ele>414.8</ele>
        <time>2023-03-05T12:17:42Z</time>
      </trkpt>
      <trkpt lat="48.18203" lon="6.50521">
        <ele>414.6</ele>
        <time>2023-03-05T12:17:50Z</time>
      </trkpt>
      <trkpt lat="48.18212" lon="6.50525">
        <ele>414.3</ele>
        <time>2023-03-05T12:18:00Z</time>
      </trkpt>
      <trkpt lat="48.1822" lon="6.50529">
        <ele>414</ele>
        <time>2023-03-05T12:18:09Z</time>
      </trkpt>
      <trkpt lat="48.18228" lon="6.50538">
        <ele>413.7</ele>
        <time>2023-03-05T12:18:18Z</time>
      </trkpt>
      <trkpt lat="48.18237" lon="6.50545">
        <ele>413.5</ele>
        <time>2023-03-05T12:18:27Z</time>
      </trkpt>
      <trkpt lat="48.18242" lon="6.50546">
        <ele>413.3</ele>
        <time>2023-03-05T12:18:33Z</time>
      </trkpt>
      <trkpt lat="48.18242" lon="6.50546">
        <ele>413.3</ele>
        <time>2023-03-05T12:18:41Z</time>
      </trkpt>
      <trkpt lat="48.18242" lon="6.50546">
        <ele>413.3</ele>
        <time>2023-03-05T12:18:42Z</time>
      </trkpt>
      <trkpt lat="48.18243" lon="6.50545">
        <ele>413.3</ele>
        <time>2023-03-05T12:19:07Z</time>
      </trkpt>
      <trkpt lat="48.18243" lon="6.50545">
        <ele>413.3</ele>
        <time>2023-03-05T12:19:08Z</time>
      </trkpt>
      <trkpt lat="48.18243" lon="6.50544">
        <ele>413.3</ele>
        <time>2023-03-05T12:19:14Z</time>
      </trkpt>
      <trkpt lat="48.18251" lon="6.50538">
        <ele>413.1</ele>
        <time>2023-03-05T12:19:20Z</time>
      </trkpt>
      <trkpt lat="48.18251" lon="6.50538">
        <ele>413.1</ele>
        <time>2023-03-05T12:19:21Z</time>
      </trkpt>
      <trkpt lat="48.18251" lon="6.50538">
        <ele>413.1</ele>
        <time>2023-03-05T12:19:39Z</time>
      </trkpt>
      <trkpt lat="48.18251" lon="6.50538">
        <ele>413.1</ele>
        <time>2023-03-05T12:19:40Z</time>
      </trkpt>
      <trkpt lat="48.1825" lon="6.50537">
        <ele>413.1</ele>
        <time>2023-03-05T12:19:47Z</time>
      </trkpt>
      <trkpt lat="48.1825" lon="6.50537">
        <ele>413.1</ele>
        <time>2023-03-05T12:19:48Z</time>
      </trkpt>
      <trkpt lat="48.1825" lon="6.50537">
        <ele>413.1</ele>
        <time>2023-03-05T12:19:50Z</time>
      </trkpt>
      <trkpt lat="48.1825" lon="6.50537">
        <ele>413.1</ele>
        <time>2023-03-05T12:19:51Z</time>
      </trkpt>
      <trkpt lat="48.1825" lon="6.50537">
        <ele>413</ele>
        <time>2023-03-05T12:19:56Z</time>
      </trkpt>
      <trkpt lat="48.1825" lon="6.50537">
        <ele>413</ele>
        <time>2023-03-05T12:19:57Z</time>
      </trkpt>
      <trkpt lat="48.1825" lon="6.50537">
        <ele>413</ele>
        <time>2023-03-05T12:20:09Z</time>
      </trkpt>
      <trkpt lat="48.18251" lon="6.50534">
        <ele>413</ele>
        <time>2023-03-05T12:20:18Z</time>
      </trkpt>
      <trkpt lat="48.18251" lon="6.50534">
        <ele>413</ele>
        <time>2023-03-05T12:20:23Z</time>
      </trkpt>
      <trkpt lat="48.18251" lon="6.50534">
        <ele>413</ele>
        <time>2023-03-05T12:20:24Z</time>
      </trkpt>
      <trkpt lat="48.18251" lon="6.50534">
        <ele>413</ele>
        <time>2023-03-05T12:20:33Z</time>
      </trkpt>
      <trkpt lat="48.18251" lon="6.50534">
        <ele>413</ele>
        <time>2023-03-05T12:20:34Z</time>
      </trkpt>
      <trkpt lat="48.18251" lon="6.50534">
        <ele>413</ele>
        <time>2023-03-05T12:20:46Z</time>
      </trkpt>
      <trkpt lat="48.18251" lon="6.50534">
        <ele>413</ele>
        <time>2023-03-05T12:20:47Z</time>
      </trkpt>
      <trkpt lat="48.18251" lon="6.50534">
        <ele>413</ele>
        <time>2023-03-05T12:21:25Z</time>
      </trkpt>
      <trkpt lat="48.18252" lon="6.50533">
        <ele>412.9</ele>
        <time>2023-03-05T12:21:28Z</time>
      </trkpt>
      <trkpt lat="48.18251" lon="6.50533">
        <ele>412.9</ele>
        <time>2023-03-05T12:21:39Z</time>
      </trkpt>
      <trkpt lat="48.18251" lon="6.50533">
        <ele>412.9</ele>
        <time>2023-03-05T12:21:40Z</time>
      </trkpt>
      <trkpt lat="48.18251" lon="6.50533">
        <ele>412.9</ele>
        <time>2023-03-05T12:22:02Z</time>
      </trkpt>
      <trkpt lat="48.18251" lon="6.50532">
        <ele>412.9</ele>
        <time>2023-03-05T12:22:04Z</time>
      </trkpt>
      <trkpt lat="48.18251" lon="6.50532">
        <ele>412.9</ele>
        <time>2023-03-05T12:22:06Z</time>
      </trkpt>
      <trkpt lat="48.18251" lon="6.50532">
        <ele>412.9</ele>
        <time>2023-03-05T12:22:07Z</time>
      </trkpt>
      <trkpt lat="48.18251" lon="6.50532">
        <ele>412.9</ele>
        <time>2023-03-05T12:22:31Z</time>
      </trkpt>
      <trkpt lat="48.18251" lon="6.50532">
        <ele>412.9</ele>
        <time>2023-03-05T12:22:33Z</time>
      </trkpt>
      <trkpt lat="48.18252" lon="6.50532">
        <ele>412.9</ele>
        <time>2023-03-05T12:22:34Z</time>
      </trkpt>
      <trkpt lat="48.18261" lon="6.50537">
        <ele>412.5</ele>
        <time>2023-03-05T12:22:45Z</time>
      </trkpt>
      <trkpt lat="48.1827" lon="6.50545">
        <ele>412.1</ele>
        <time>2023-03-05T12:22:53Z</time>
      </trkpt>
      <trkpt lat="48.18271" lon="6.50547">
        <ele>412.1</ele>
        <time>2023-03-05T12:22:57Z</time>
      </trkpt>
      <trkpt lat="48.18271" lon="6.50547">
        <ele>412</ele>
        <time>2023-03-05T12:23:01Z</time>
      </trkpt>
      <trkpt lat="48.18274" lon="6.50552">
        <ele>411.9</ele>
        <time>2023-03-05T12:23:09Z</time>
      </trkpt>
      <trkpt lat="48.18274" lon="6.50552">
        <ele>411.9</ele>
        <time>2023-03-05T12:23:30Z</time>
      </trkpt>
      <trkpt lat="48.18274" lon="6.50552">
        <ele>411.9</ele>
        <time>2023-03-05T12:23:31Z</time>
      </trkpt>
      <trkpt lat="48.18274" lon="6.50552">
        <ele>411.9</ele>
        <time>2023-03-05T12:23:32Z</time>
      </trkpt>
      <trkpt lat="48.18284" lon="6.50556">
        <ele>411.5</ele>
        <time>2023-03-05T12:23:46Z</time>
      </trkpt>
      <trkpt lat="48.18287" lon="6.50561">
        <ele>411.3</ele>
        <time>2023-03-05T12:23:52Z</time>
      </trkpt>
      <trkpt lat="48.18287" lon="6.50561">
        <ele>411.3</ele>
        <time>2023-03-05T12:24:05Z</time>
      </trkpt>
      <trkpt lat="48.18287" lon="6.50561">
        <ele>411.3</ele>
        <time>2023-03-05T12:24:06Z</time>
      </trkpt>
      <trkpt lat="48.18288" lon="6.50561">
        <ele>411.3</ele>
        <time>2023-03-05T12:24:49Z</time>
      </trkpt>
      <trkpt lat="48.18288" lon="6.50561">
        <ele>411.3</ele>
        <time>2023-03-05T12:24:50Z</time>
      </trkpt>
      <trkpt lat="48.18287" lon="6.50562">
        <ele>411.3</ele>
        <time>2023-03-05T12:25:00Z</time>
      </trkpt>
      <trkpt lat="48.18287" lon="6.50562">
        <ele>411.3</ele>
        <time>2023-03-05T12:25:01Z</time>
      </trkpt>
      <trkpt lat="48.18288" lon="6.50562">
        <ele>411.3</ele>
        <time>2023-03-05T12:25:07Z</time>
      </trkpt>
      <trkpt lat="48.18288" lon="6.50562">
        <ele>411.3</ele>
        <time>2023-03-05T12:25:08Z</time>
      </trkpt>
      <trkpt lat="48.18288" lon="6.50562">
        <ele>411.2</ele>
        <time>2023-03-05T12:25:34Z</time>
      </trkpt>
      <trkpt lat="48.1829" lon="6.50565">
        <ele>411.1</ele>
        <time>2023-03-05T12:25:44Z</time>
      </trkpt>
      <trkpt lat="48.1829" lon="6.50565">
        <ele>411.1</ele>
        <time>2023-03-05T12:25:53Z</time>
      </trkpt>
      <trkpt lat="48.1829" lon="6.50565">
        <ele>411.1</ele>
        <time>2023-03-05T12:25:54Z</time>
      </trkpt>
      <trkpt lat="48.18291" lon="6.50565">
        <ele>411.1</ele>
        <time>2023-03-05T12:26:08Z</time>
      </trkpt>
      <trkpt lat="48.18294" lon="6.50569">
        <ele>410.9</ele>
        <time>2023-03-05T12:26:21Z</time>
      </trkpt>
      <trkpt lat="48.18294" lon="6.50569">
        <ele>410.9</ele>
        <time>2023-03-05T12:26:42Z</time>
      </trkpt>
      <trkpt lat="48.18296" lon="6.50572">
        <ele>410.8</ele>
        <time>2023-03-05T12:26:49Z</time>
      </trkpt>
      <trkpt lat="48.18296" lon="6.50572">
        <ele>410.8</ele>
        <time>2023-03-05T12:26:55Z</time>
      </trkpt>
      <trkpt lat="48.18296" lon="6.50572">
        <ele>410.8</ele>
        <time>2023-03-05T12:26:56Z</time>
      </trkpt>
      <trkpt lat="48.18296" lon="6.50572">
        <ele>410.8</ele>
        <time>2023-03-05T12:27:22Z</time>
      </trkpt>
      <trkpt lat="48.18296" lon="6.50572">
        <ele>410.8</ele>
        <time>2023-03-05T12:27:23Z</time>
      </trkpt>
      <trkpt lat="48.18296" lon="6.50572">
        <ele>410.8</ele>
        <time>2023-03-05T12:27:32Z</time>
      </trkpt>
      <trkpt lat="48.18296" lon="6.50572">
        <ele>410.8</ele>
        <time>2023-03-05T12:27:33Z</time>
      </trkpt>
      <trkpt lat="48.18296" lon="6.50572">
        <ele>410.8</ele>
        <time>2023-03-05T12:27:40Z</time>
      </trkpt>
      <trkpt lat="48.18296" lon="6.50572">
        <ele>410.8</ele>
        <time>2023-03-05T12:27:41Z</time>
      </trkpt>
      <trkpt lat="48.18297" lon="6.50572">
        <ele>410.8</ele>
        <time>2023-03-05T12:27:49Z</time>
      </trkpt>
      <trkpt lat="48.18297" lon="6.50572">
        <ele>410.8</ele>
        <time>2023-03-05T12:27:50Z</time>
      </trkpt>
      <trkpt lat="48.18297" lon="6.50572">
        <ele>410.7</ele>
        <time>2023-03-05T12:27:57Z</time>
      </trkpt>
      <trkpt lat="48.18297" lon="6.50572">
        <ele>410.7</ele>
        <time>2023-03-05T12:27:58Z</time>
      </trkpt>
      <trkpt lat="48.18297" lon="6.50572">
        <ele>410.7</ele>
        <time>2023-03-05T12:28:10Z</time>
      </trkpt>
      <trkpt lat="48.18297" lon="6.50572">
        <ele>410.7</ele>
        <time>2023-03-05T12:28:11Z</time>
      </trkpt>
      <trkpt lat="48.18297" lon="6.50572">
        <ele>410.7</ele>
        <time>2023-03-05T12:28:26Z</time>
      </trkpt>
      <trkpt lat="48.18297" lon="6.50573">
        <ele>410.7</ele>
        <time>2023-03-05T12:28:27Z</time>
      </trkpt>
      <trkpt lat="48.18297" lon="6.50573">
        <ele>410.7</ele>
        <time>2023-03-05T12:28:28Z</time>
      </trkpt>
      <trkpt lat="48.18297" lon="6.50573">
        <ele>410.7</ele>
        <time>2023-03-05T12:28:31Z</time>
      </trkpt>
      <trkpt lat="48.18297" lon="6.50573">
        <ele>410.7</ele>
        <time>2023-03-05T12:28:39Z</time>
      </trkpt>
      <trkpt lat="48.18297" lon="6.50573">
        <ele>410.7</ele>
        <time>2023-03-05T12:28:40Z</time>
      </trkpt>
      <trkpt lat="48.18297" lon="6.50573">
        <ele>410.7</ele>
        <time>2023-03-05T12:29:03Z</time>
      </trkpt>
      <trkpt lat="48.18297" lon="6.50573">
        <ele>410.7</ele>
        <time>2023-03-05T12:29:04Z</time>
      </trkpt>
      <trkpt lat="48.18298" lon="6.50574">
        <ele>410.7</ele>
        <time>2023-03-05T12:29:06Z</time>
      </trkpt>
      <trkpt lat="48.18298" lon="6.50575">
        <ele>410.6</ele>
        <time>2023-03-05T12:29:10Z</time>
      </trkpt>
      <trkpt lat="48.18298" lon="6.50575">
        <ele>410.6</ele>
        <time>2023-03-05T12:29:23Z</time>
      </trkpt>
      <trkpt lat="48.18298" lon="6.50576">
        <ele>410.6</ele>
        <time>2023-03-05T12:29:25Z</time>
      </trkpt>
      <trkpt lat="48.18298" lon="6.50576">
        <ele>410.6</ele>
        <time>2023-03-05T12:29:47Z</time>
      </trkpt>
      <trkpt lat="48.18298" lon="6.50576">
        <ele>410.6</ele>
        <time>2023-03-05T12:29:48Z</time>
      </trkpt>
      <trkpt lat="48.18298" lon="6.50576">
        <ele>410.6</ele>
        <time>2023-03-05T12:30:22Z</time>
      </trkpt>
      <trkpt lat="48.183" lon="6.50578">
        <ele>410.5</ele>
        <time>2023-03-05T12:30:27Z</time>
      </trkpt>
      <trkpt lat="48.183" lon="6.50578">
        <ele>410.5</ele>
        <time>2023-03-05T12:30:29Z</time>
      </trkpt>
      <trkpt lat="48.183" lon="6.50578">
        <ele>410.5</ele>
        <time>2023-03-05T12:30:30Z</time>
      </trkpt>
      <trkpt lat="48.18301" lon="6.50578">
        <ele>410.4</ele>
        <time>2023-03-05T12:30:31Z</time>
      </trkpt>
      <trkpt lat="48.18308" lon="6.50586">
        <ele>409.9</ele>
        <time>2023-03-05T12:30:40Z</time>
      </trkpt>
      <trkpt lat="48.18311" lon="6.50591">
        <ele>409.7</ele>
        <time>2023-03-05T12:30:48Z</time>
      </trkpt>
      <trkpt lat="48.18312" lon="6.50592">
        <ele>409.6</ele>
        <time>2023-03-05T12:30:50Z</time>
      </trkpt>
      <trkpt lat="48.18318" lon="6.50603">
        <ele>408.9</ele>
        <time>2023-03-05T12:31:01Z</time>
      </trkpt>
      <trkpt lat="48.18327" lon="6.50609">
        <ele>408.3</ele>
        <time>2023-03-05T12:31:13Z</time>
      </trkpt>
      <trkpt lat="48.18335" lon="6.50614">
        <ele>407.5</ele>
        <time>2023-03-05T12:31:21Z</time>
      </trkpt>
      <trkpt lat="48.18342" lon="6.50624">
        <ele>406.8</ele>
        <time>2023-03-05T12:31:32Z</time>
      </trkpt>
      <trkpt lat="48.18347" lon="6.50625">
        <ele>406.4</ele>
        <time>2023-03-05T12:31:39Z</time>
      </trkpt>
      <trkpt lat="48.18347" lon="6.50625">
        <ele>406.4</ele>
        <time>2023-03-05T12:31:40Z</time>
      </trkpt>
      <trkpt lat="48.18353" lon="6.50636">
        <ele>405.6</ele>
        <time>2023-03-05T12:31:51Z</time>
      </trkpt>
      <trkpt lat="48.18355" lon="6.50651">
        <ele>405</ele>
        <time>2023-03-05T12:31:59Z</time>
      </trkpt>
      <trkpt lat="48.18357" lon="6.50664">
        <ele>404.4</ele>
        <time>2023-03-05T12:32:09Z</time>
      </trkpt>
      <trkpt lat="48.18361" lon="6.50677">
        <ele>403.7</ele>
        <time>2023-03-05T12:32:19Z</time>
      </trkpt>
      <trkpt lat="48.18364" lon="6.5069">
        <ele>403</ele>
        <time>2023-03-05T12:32:29Z</time>
      </trkpt>
      <trkpt lat="48.18367" lon="6.50693">
        <ele>402.7</ele>
        <time>2023-03-05T12:32:38Z</time>
      </trkpt>
      <trkpt lat="48.18367" lon="6.50693">
        <ele>402.7</ele>
        <time>2023-03-05T12:32:52Z</time>
      </trkpt>
      <trkpt lat="48.18371" lon="6.50707">
        <ele>401.8</ele>
        <time>2023-03-05T12:33:07Z</time>
      </trkpt>
      <trkpt lat="48.18374" lon="6.5072">
        <ele>401.2</ele>
        <time>2023-03-05T12:33:16Z</time>
      </trkpt>
      <trkpt lat="48.18379" lon="6.50733">
        <ele>400.6</ele>
        <time>2023-03-05T12:33:25Z</time>
      </trkpt>
      <trkpt lat="48.1838" lon="6.50735">
        <ele>400.5</ele>
        <time>2023-03-05T12:33:31Z</time>
      </trkpt>
      <trkpt lat="48.18381" lon="6.50735">
        <ele>400.5</ele>
        <time>2023-03-05T12:33:41Z</time>
      </trkpt>
      <trkpt lat="48.18387" lon="6.50746">
        <ele>400</ele>
        <time>2023-03-05T12:33:52Z</time>
      </trkpt>
      <trkpt lat="48.18396" lon="6.50752">
        <ele>399.5</ele>
        <time>2023-03-05T12:34:01Z</time>
      </trkpt>
      <trkpt lat="48.18396" lon="6.50752">
        <ele>399.5</ele>
        <time>2023-03-05T12:34:04Z</time>
      </trkpt>
      <trkpt lat="48.18397" lon="6.50752">
        <ele>399.5</ele>
        <time>2023-03-05T12:34:37Z</time>
      </trkpt>
      <trkpt lat="48.18404" lon="6.50761">
        <ele>399.1</ele>
        <time>2023-03-05T12:34:46Z</time>
      </trkpt>
      <trkpt lat="48.18411" lon="6.5077">
        <ele>398.9</ele>
        <time>2023-03-05T12:34:53Z</time>
      </trkpt>
      <trkpt lat="48.18418" lon="6.50781">
        <ele>398.8</ele>
        <time>2023-03-05T12:35:02Z</time>
      </trkpt>
      <trkpt lat="48.18424" lon="6.50793">
        <ele>398.7</ele>
        <time>2023-03-05T12:35:12Z</time>
      </trkpt>
      <trkpt lat="48.18431" lon="6.50803">
        <ele>398.6</ele>
        <time>2023-03-05T12:35:20Z</time>
      </trkpt>
      <trkpt lat="48.18438" lon="6.50811">
        <ele>398.5</ele>
        <time>2023-03-05T12:35:31Z</time>
      </trkpt>
      <trkpt lat="48.18445" lon="6.5082">
        <ele>398.3</ele>
        <time>2023-03-05T12:35:40Z</time>
      </trkpt>
      <trkpt lat="48.18451" lon="6.50832">
        <ele>398.1</ele>
        <time>2023-03-05T12:35:49Z</time>
      </trkpt>
      <trkpt lat="48.18459" lon="6.50839">
        <ele>397.8</ele>
        <time>2023-03-05T12:35:57Z</time>
      </trkpt>
      <trkpt lat="48.18466" lon="6.50848">
        <ele>397.6</ele>
        <time>2023-03-05T12:36:07Z</time>
      </trkpt>
      <trkpt lat="48.18472" lon="6.5086">
        <ele>397.3</ele>
        <time>2023-03-05T12:36:17Z</time>
      </trkpt>
      <trkpt lat="48.1848" lon="6.50868">
        <ele>397.1</ele>
        <time>2023-03-05T12:36:22Z</time>
      </trkpt>
      <trkpt lat="48.18486" lon="6.50878">
        <ele>396.9</ele>
        <time>2023-03-05T12:36:32Z</time>
      </trkpt>
      <trkpt lat="48.1849" lon="6.50891">
        <ele>396.6</ele>
        <time>2023-03-05T12:36:42Z</time>
      </trkpt>
      <trkpt lat="48.18499" lon="6.509">
        <ele>396.2</ele>
        <time>2023-03-05T12:36:50Z</time>
      </trkpt>
      <trkpt lat="48.18505" lon="6.50911">
        <ele>395.8</ele>
        <time>2023-03-05T12:36:58Z</time>
      </trkpt>
      <trkpt lat="48.18512" lon="6.5092">
        <ele>395.4</ele>
        <time>2023-03-05T12:37:07Z</time>
      </trkpt>
      <trkpt lat="48.18517" lon="6.50932">
        <ele>395.2</ele>
        <time>2023-03-05T12:37:17Z</time>
      </trkpt>
      <trkpt lat="48.18523" lon="6.50943">
        <ele>395.1</ele>
        <time>2023-03-05T12:37:26Z</time>
      </trkpt>
      <trkpt lat="48.18529" lon="6.50954">
        <ele>395.4</ele>
        <time>2023-03-05T12:37:36Z</time>
      </trkpt>
      <trkpt lat="48.1853" lon="6.50967">
        <ele>396</ele>
        <time>2023-03-05T12:37:46Z</time>
      </trkpt>
      <trkpt lat="48.18534" lon="6.50982">
        <ele>397.1</ele>
        <time>2023-03-05T12:37:54Z</time>
      </trkpt>
      <trkpt lat="48.18538" lon="6.50995">
        <ele>398.3</ele>
        <time>2023-03-05T12:38:04Z</time>
      </trkpt>
      <trkpt lat="48.18535" lon="6.51009">
        <ele>399.6</ele>
        <time>2023-03-05T12:38:15Z</time>
      </trkpt>
      <trkpt lat="48.18531" lon="6.51022">
        <ele>400.8</ele>
        <time>2023-03-05T12:38:27Z</time>
      </trkpt>
      <trkpt lat="48.18525" lon="6.51032">
        <ele>401.9</ele>
        <time>2023-03-05T12:38:36Z</time>
      </trkpt>
      <trkpt lat="48.18517" lon="6.51043">
        <ele>403</ele>
        <time>2023-03-05T12:38:46Z</time>
      </trkpt>
      <trkpt lat="48.18511" lon="6.51054">
        <ele>404.1</ele>
        <time>2023-03-05T12:38:57Z</time>
      </trkpt>
      <trkpt lat="48.18509" lon="6.51068">
        <ele>405.4</ele>
        <time>2023-03-05T12:39:05Z</time>
      </trkpt>
      <trkpt lat="48.18502" lon="6.51079">
        <ele>406.7</ele>
        <time>2023-03-05T12:39:15Z</time>
      </trkpt>
      <trkpt lat="48.18493" lon="6.51082">
        <ele>407.9</ele>
        <time>2023-03-05T12:39:26Z</time>
      </trkpt>
      <trkpt lat="48.18484" lon="6.51085">
        <ele>409.2</ele>
        <time>2023-03-05T12:39:37Z</time>
      </trkpt>
      <trkpt lat="48.18475" lon="6.51086">
        <ele>410.4</ele>
        <time>2023-03-05T12:39:45Z</time>
      </trkpt>
      <trkpt lat="48.18466" lon="6.51089">
        <ele>411.8</ele>
        <time>2023-03-05T12:39:53Z</time>
      </trkpt>
      <trkpt lat="48.18458" lon="6.51095">
        <ele>413.2</ele>
        <time>2023-03-05T12:40:02Z</time>
      </trkpt>
      <trkpt lat="48.18451" lon="6.51105">
        <ele>414.3</ele>
        <time>2023-03-05T12:40:11Z</time>
      </trkpt>
      <trkpt lat="48.18451" lon="6.51119">
        <ele>415.1</ele>
        <time>2023-03-05T12:40:21Z</time>
      </trkpt>
      <trkpt lat="48.18445" lon="6.51129">
        <ele>415.7</ele>
        <time>2023-03-05T12:40:29Z</time>
      </trkpt>
      <trkpt lat="48.18447" lon="6.51143">
        <ele>415.9</ele>
        <time>2023-03-05T12:40:37Z</time>
      </trkpt>
      <trkpt lat="48.18451" lon="6.51157">
        <ele>415.8</ele>
        <time>2023-03-05T12:40:47Z</time>
      </trkpt>
      <trkpt lat="48.18454" lon="6.51169">
        <ele>415.4</ele>
        <time>2023-03-05T12:40:55Z</time>
      </trkpt>
      <trkpt lat="48.18458" lon="6.51184">
        <ele>414.7</ele>
        <time>2023-03-05T12:41:04Z</time>
      </trkpt>
      <trkpt lat="48.18456" lon="6.51198">
        <ele>414.2</ele>
        <time>2023-03-05T12:41:15Z</time>
      </trkpt>
      <trkpt lat="48.18454" lon="6.51206">
        <ele>413.8</ele>
        <time>2023-03-05T12:41:24Z</time>
      </trkpt>
      <trkpt lat="48.18454" lon="6.51207">
        <ele>413.8</ele>
        <time>2023-03-05T12:41:27Z</time>
      </trkpt>
      <trkpt lat="48.18454" lon="6.51207">
        <ele>413.8</ele>
        <time>2023-03-05T12:41:28Z</time>
      </trkpt>
      <trkpt lat="48.18454" lon="6.51207">
        <ele>413.8</ele>
        <time>2023-03-05T12:41:37Z</time>
      </trkpt>
      <trkpt lat="48.18451" lon="6.51212">
        <ele>413.5</ele>
        <time>2023-03-05T12:41:46Z</time>
      </trkpt>
      <trkpt lat="48.18451" lon="6.51212">
        <ele>413.5</ele>
        <time>2023-03-05T12:41:47Z</time>
      </trkpt>
      <trkpt lat="48.18446" lon="6.51224">
        <ele>412.7</ele>
        <time>2023-03-05T12:41:58Z</time>
      </trkpt>
      <trkpt lat="48.18445" lon="6.51228">
        <ele>412.5</ele>
        <time>2023-03-05T12:42:02Z</time>
      </trkpt>
      <trkpt lat="48.18446" lon="6.51228">
        <ele>412.5</ele>
        <time>2023-03-05T12:42:05Z</time>
      </trkpt>
      <trkpt lat="48.18445" lon="6.51238">
        <ele>411.7</ele>
        <time>2023-03-05T12:42:15Z</time>
      </trkpt>
      <trkpt lat="48.18445" lon="6.51238">
        <ele>411.7</ele>
        <time>2023-03-05T12:42:17Z</time>
      </trkpt>
      <trkpt lat="48.18445" lon="6.51238">
        <ele>411.7</ele>
        <time>2023-03-05T12:42:18Z</time>
      </trkpt>
      <trkpt lat="48.18445" lon="6.51238">
        <ele>411.7</ele>
        <time>2023-03-05T12:43:03Z</time>
      </trkpt>
      <trkpt lat="48.18445" lon="6.51238">
        <ele>411.7</ele>
        <time>2023-03-05T12:43:04Z</time>
      </trkpt>
      <trkpt lat="48.18444" lon="6.51239">
        <ele>411.6</ele>
        <time>2023-03-05T12:43:10Z</time>
      </trkpt>
      <trkpt lat="48.18444" lon="6.51239">
        <ele>411.5</ele>
        <time>2023-03-05T12:43:12Z</time>
      </trkpt>
      <trkpt lat="48.18444" lon="6.5124">
        <ele>411.5</ele>
        <time>2023-03-05T12:43:16Z</time>
      </trkpt>
      <trkpt lat="48.18444" lon="6.5124">
        <ele>411.5</ele>
        <time>2023-03-05T12:43:17Z</time>
      </trkpt>
      <trkpt lat="48.18444" lon="6.5124">
        <ele>411.5</ele>
        <time>2023-03-05T12:43:36Z</time>
      </trkpt>
      <trkpt lat="48.18444" lon="6.5124">
        <ele>411.5</ele>
        <time>2023-03-05T12:43:37Z</time>
      </trkpt>
      <trkpt lat="48.18444" lon="6.5124">
        <ele>411.4</ele>
        <time>2023-03-05T12:43:59Z</time>
      </trkpt>
      <trkpt lat="48.18445" lon="6.51243">
        <ele>411.1</ele>
        <time>2023-03-05T12:44:05Z</time>
      </trkpt>
      <trkpt lat="48.18445" lon="6.51244">
        <ele>411</ele>
        <time>2023-03-05T12:44:07Z</time>
      </trkpt>
      <trkpt lat="48.18445" lon="6.51257">
        <ele>409.5</ele>
        <time>2023-03-05T12:44:17Z</time>
      </trkpt>
      <trkpt lat="48.18445" lon="6.51258">
        <ele>409.5</ele>
        <time>2023-03-05T12:44:20Z</time>
      </trkpt>
      <trkpt lat="48.18446" lon="6.51258">
        <ele>409.4</ele>
        <time>2023-03-05T12:44:22Z</time>
      </trkpt>
      <trkpt lat="48.18446" lon="6.51258">
        <ele>409.4</ele>
        <time>2023-03-05T12:44:23Z</time>
      </trkpt>
      <trkpt lat="48.18446" lon="6.51258">
        <ele>409.4</ele>
        <time>2023-03-05T12:44:39Z</time>
      </trkpt>
      <trkpt lat="48.18446" lon="6.51258">
        <ele>409.3</ele>
        <time>2023-03-05T12:44:41Z</time>
      </trkpt>
      <trkpt lat="48.18446" lon="6.51258">
        <ele>409.3</ele>
        <time>2023-03-05T12:44:52Z</time>
      </trkpt>
      <trkpt lat="48.18446" lon="6.51258">
        <ele>409.3</ele>
        <time>2023-03-05T12:44:53Z</time>
      </trkpt>
      <trkpt lat="48.18446" lon="6.51258">
        <ele>409.2</ele>
        <time>2023-03-05T12:45:19Z</time>
      </trkpt>
      <trkpt lat="48.18446" lon="6.5126">
        <ele>409</ele>
        <time>2023-03-05T12:45:22Z</time>
      </trkpt>
      <trkpt lat="48.18445" lon="6.51261">
        <ele>408.9</ele>
        <time>2023-03-05T12:45:31Z</time>
      </trkpt>
      <trkpt lat="48.18447" lon="6.51274">
        <ele>406.9</ele>
        <time>2023-03-05T12:45:42Z</time>
      </trkpt>
      <trkpt lat="48.18445" lon="6.51288">
        <ele>405</ele>
        <time>2023-03-05T12:45:56Z</time>
      </trkpt>
      <trkpt lat="48.18444" lon="6.51291">
        <ele>404.4</ele>
        <time>2023-03-05T12:46:02Z</time>
      </trkpt>
      <trkpt lat="48.18443" lon="6.51292">
        <ele>404.3</ele>
        <time>2023-03-05T12:46:11Z</time>
      </trkpt>
      <trkpt lat="48.18443" lon="6.51292">
        <ele>404.3</ele>
        <time>2023-03-05T12:46:12Z</time>
      </trkpt>
      <trkpt lat="48.18443" lon="6.51293">
        <ele>404.1</ele>
        <time>2023-03-05T12:47:09Z</time>
      </trkpt>
      <trkpt lat="48.18443" lon="6.51294">
        <ele>403.9</ele>
        <time>2023-03-05T12:47:13Z</time>
      </trkpt>
      <trkpt lat="48.18443" lon="6.51295">
        <ele>403.9</ele>
        <time>2023-03-05T12:47:14Z</time>
      </trkpt>
      <trkpt lat="48.18443" lon="6.51297">
        <ele>403.6</ele>
        <time>2023-03-05T12:47:18Z</time>
      </trkpt>
      <trkpt lat="48.18443" lon="6.51298">
        <ele>403.5</ele>
        <time>2023-03-05T12:48:19Z</time>
      </trkpt>
      <trkpt lat="48.18443" lon="6.51298">
        <ele>403.4</ele>
        <time>2023-03-05T12:48:21Z</time>
      </trkpt>
      <trkpt lat="48.18444" lon="6.51298">
        <ele>403.4</ele>
        <time>2023-03-05T12:48:47Z</time>
      </trkpt>
      <trkpt lat="48.18444" lon="6.51298">
        <ele>403.4</ele>
        <time>2023-03-05T12:48:48Z</time>
      </trkpt>
      <trkpt lat="48.18444" lon="6.51298">
        <ele>403.3</ele>
        <time>2023-03-05T12:49:25Z</time>
      </trkpt>
      <trkpt lat="48.18444" lon="6.51298">
        <ele>403.3</ele>
        <time>2023-03-05T12:49:26Z</time>
      </trkpt>
      <trkpt lat="48.18444" lon="6.51298">
        <ele>403.3</ele>
        <time>2023-03-05T12:49:34Z</time>
      </trkpt>
      <trkpt lat="48.18444" lon="6.51298">
        <ele>403.3</ele>
        <time>2023-03-05T12:49:35Z</time>
      </trkpt>
      <trkpt lat="48.18444" lon="6.51299">
        <ele>403.2</ele>
        <time>2023-03-05T12:50:13Z</time>
      </trkpt>
      <trkpt lat="48.18445" lon="6.51313">
        <ele>401.7</ele>
        <time>2023-03-05T12:50:25Z</time>
      </trkpt>
      <trkpt lat="48.18443" lon="6.51327">
        <ele>400.7</ele>
        <time>2023-03-05T12:50:37Z</time>
      </trkpt>
      <trkpt lat="48.18441" lon="6.5134">
        <ele>400</ele>
        <time>2023-03-05T12:50:46Z</time>
      </trkpt>
      <trkpt lat="48.18439" lon="6.51354">
        <ele>399.6</ele>
        <time>2023-03-05T12:50:54Z</time>
      </trkpt>
      <trkpt lat="48.18438" lon="6.51368">
        <ele>399.5</ele>
        <time>2023-03-05T12:51:04Z</time>
      </trkpt>
      <trkpt lat="48.18434" lon="6.51381">
        <ele>399.6</ele>
        <time>2023-03-05T12:51:13Z</time>
      </trkpt>
      <trkpt lat="48.18434" lon="6.51395">
        <ele>400</ele>
        <time>2023-03-05T12:51:23Z</time>
      </trkpt>
      <trkpt lat="48.18429" lon="6.51407">
        <ele>400.7</ele>
        <time>2023-03-05T12:51:34Z</time>
      </trkpt>
      <trkpt lat="48.18426" lon="6.5142">
        <ele>401.7</ele>
        <time>2023-03-05T12:51:42Z</time>
      </trkpt>
      <trkpt lat="48.18426" lon="6.51434">
        <ele>403</ele>
        <time>2023-03-05T12:51:51Z</time>
      </trkpt>
      <trkpt lat="48.18432" lon="6.51446">
        <ele>404.4</ele>
        <time>2023-03-05T12:51:57Z</time>
      </trkpt>
      <trkpt lat="48.18436" lon="6.51458">
        <ele>405.5</ele>
        <time>2023-03-05T12:52:03Z</time>
      </trkpt>
      <trkpt lat="48.18438" lon="6.51474">
        <ele>406.4</ele>
        <time>2023-03-05T12:52:10Z</time>
      </trkpt>
      <trkpt lat="48.18442" lon="6.51488">
        <ele>407.1</ele>
        <time>2023-03-05T12:52:17Z</time>
      </trkpt>
      <trkpt lat="48.18444" lon="6.51503">
        <ele>407.4</ele>
        <time>2023-03-05T12:52:24Z</time>
      </trkpt>
      <trkpt lat="48.18449" lon="6.51514">
        <ele>407.5</ele>
        <time>2023-03-05T12:52:32Z</time>
      </trkpt>
      <trkpt lat="48.18456" lon="6.51523">
        <ele>407.5</ele>
        <time>2023-03-05T12:52:41Z</time>
      </trkpt>
      <trkpt lat="48.18465" lon="6.51528">
        <ele>407.3</ele>
        <time>2023-03-05T12:52:47Z</time>
      </trkpt>
      <trkpt lat="48.18473" lon="6.51534">
        <ele>407.1</ele>
        <time>2023-03-05T12:52:57Z</time>
      </trkpt>
      <trkpt lat="48.18481" lon="6.51541">
        <ele>406.6</ele>
        <time>2023-03-05T12:53:05Z</time>
      </trkpt>
      <trkpt lat="48.1849" lon="6.51541">
        <ele>406</ele>
        <time>2023-03-05T12:53:12Z</time>
      </trkpt>
      <trkpt lat="48.185" lon="6.51537">
        <ele>405.2</ele>
        <time>2023-03-05T12:53:20Z</time>
      </trkpt>
      <trkpt lat="48.18509" lon="6.51539">
        <ele>404.3</ele>
        <time>2023-03-05T12:53:28Z</time>
      </trkpt>
      <trkpt lat="48.18518" lon="6.51545">
        <ele>403.5</ele>
        <time>2023-03-05T12:53:34Z</time>
      </trkpt>
      <trkpt lat="48.18525" lon="6.51554">
        <ele>402.5</ele>
        <time>2023-03-05T12:53:42Z</time>
      </trkpt>
      <trkpt lat="48.18533" lon="6.51562">
        <ele>401.4</ele>
        <time>2023-03-05T12:53:50Z</time>
      </trkpt>
      <trkpt lat="48.18542" lon="6.51566">
        <ele>400.2</ele>
        <time>2023-03-05T12:54:01Z</time>
      </trkpt>
      <trkpt lat="48.1855" lon="6.51573">
        <ele>399</ele>
        <time>2023-03-05T12:54:07Z</time>
      </trkpt>
      <trkpt lat="48.18557" lon="6.51583">
        <ele>397.7</ele>
        <time>2023-03-05T12:54:15Z</time>
      </trkpt>
      <trkpt lat="48.18565" lon="6.51589">
        <ele>396.4</ele>
        <time>2023-03-05T12:54:22Z</time>
      </trkpt>
      <trkpt lat="48.18573" lon="6.51596">
        <ele>395.1</ele>
        <time>2023-03-05T12:54:28Z</time>
      </trkpt>
      <trkpt lat="48.18582" lon="6.516">
        <ele>394</ele>
        <time>2023-03-05T12:54:38Z</time>
      </trkpt>
      <trkpt lat="48.18592" lon="6.51603">
        <ele>393.1</ele>
        <time>2023-03-05T12:54:46Z</time>
      </trkpt>
      <trkpt lat="48.186" lon="6.5161">
        <ele>392.6</ele>
        <time>2023-03-05T12:54:56Z</time>
      </trkpt>
      <trkpt lat="48.18609" lon="6.51616">
        <ele>392.5</ele>
        <time>2023-03-05T12:55:06Z</time>
      </trkpt>
      <trkpt lat="48.18619" lon="6.51617">
        <ele>392.6</ele>
        <time>2023-03-05T12:55:20Z</time>
      </trkpt>
      <trkpt lat="48.1863" lon="6.51618">
        <ele>392.9</ele>
        <time>2023-03-05T12:55:26Z</time>
      </trkpt>
      <trkpt lat="48.18639" lon="6.51616">
        <ele>393.2</ele>
        <time>2023-03-05T12:55:35Z</time>
      </trkpt>
      <trkpt lat="48.18649" lon="6.51618">
        <ele>393.5</ele>
        <time>2023-03-05T12:55:42Z</time>
      </trkpt>
      <trkpt lat="48.18656" lon="6.51628">
        <ele>394.1</ele>
        <time>2023-03-05T12:55:52Z</time>
      </trkpt>
      <trkpt lat="48.18665" lon="6.51634">
        <ele>394.6</ele>
        <time>2023-03-05T12:56:00Z</time>
      </trkpt>
      <trkpt lat="48.18674" lon="6.51639">
        <ele>395.2</ele>
        <time>2023-03-05T12:56:11Z</time>
      </trkpt>
      <trkpt lat="48.18678" lon="6.51651">
        <ele>396</ele>
        <time>2023-03-05T12:56:17Z</time>
      </trkpt>
      <trkpt lat="48.18684" lon="6.51664">
        <ele>397.1</ele>
        <time>2023-03-05T12:56:26Z</time>
      </trkpt>
      <trkpt lat="48.1869" lon="6.51675">
        <ele>398.4</ele>
        <time>2023-03-05T12:56:35Z</time>
      </trkpt>
      <trkpt lat="48.18684" lon="6.51685">
        <ele>399.7</ele>
        <time>2023-03-05T12:56:46Z</time>
      </trkpt>
      <trkpt lat="48.18689" lon="6.51697">
        <ele>401</ele>
        <time>2023-03-05T12:57:02Z</time>
      </trkpt>
      <trkpt lat="48.18688" lon="6.51693">
        <ele>401</ele>
        <time>2023-03-05T12:57:12Z</time>
      </trkpt>
      <trkpt lat="48.18689" lon="6.51693">
        <ele>401</ele>
        <time>2023-03-05T12:57:13Z</time>
      </trkpt>
      <trkpt lat="48.18698" lon="6.5169">
        <ele>400.6</ele>
        <time>2023-03-05T12:57:25Z</time>
      </trkpt>
      <trkpt lat="48.18707" lon="6.51687">
        <ele>400.2</ele>
        <time>2023-03-05T12:57:34Z</time>
      </trkpt>
      <trkpt lat="48.18712" lon="6.51674">
        <ele>399.7</ele>
        <time>2023-03-05T12:57:44Z</time>
      </trkpt>
      <trkpt lat="48.18712" lon="6.51659">
        <ele>399.3</ele>
        <time>2023-03-05T12:57:53Z</time>
      </trkpt>
      <trkpt lat="48.18716" lon="6.51647">
        <ele>399</ele>
        <time>2023-03-05T12:58:00Z</time>
      </trkpt>
      <trkpt lat="48.18723" lon="6.51634">
        <ele>398.6</ele>
        <time>2023-03-05T12:58:07Z</time>
      </trkpt>
      <trkpt lat="48.18726" lon="6.51621">
        <ele>398.3</ele>
        <time>2023-03-05T12:58:16Z</time>
      </trkpt>
      <trkpt lat="48.18735" lon="6.51612">
        <ele>398</ele>
        <time>2023-03-05T12:58:24Z</time>
      </trkpt>
      <trkpt lat="48.18741" lon="6.51602">
        <ele>397.6</ele>
        <time>2023-03-05T12:58:33Z</time>
      </trkpt>
      <trkpt lat="48.18749" lon="6.51595">
        <ele>397</ele>
        <time>2023-03-05T12:58:42Z</time>
      </trkpt>
      <trkpt lat="48.18756" lon="6.51584">
        <ele>396.2</ele>
        <time>2023-03-05T12:58:51Z</time>
      </trkpt>
      <trkpt lat="48.1876" lon="6.51571">
        <ele>395.4</ele>
        <time>2023-03-05T12:59:02Z</time>
      </trkpt>
      <trkpt lat="48.18767" lon="6.51562">
        <ele>394.6</ele>
        <time>2023-03-05T12:59:09Z</time>
      </trkpt>
      <trkpt lat="48.18775" lon="6.51554">
        <ele>393.9</ele>
        <time>2023-03-05T12:59:20Z</time>
      </trkpt>
      <trkpt lat="48.18784" lon="6.51548">
        <ele>393.4</ele>
        <time>2023-03-05T12:59:29Z</time>
      </trkpt>
      <trkpt lat="48.18791" lon="6.51538">
        <ele>392.8</ele>
        <time>2023-03-05T12:59:41Z</time>
      </trkpt>
      <trkpt lat="48.188" lon="6.51532">
        <ele>392.2</ele>
        <time>2023-03-05T12:59:50Z</time>
      </trkpt>
      <trkpt lat="48.18805" lon="6.5152">
        <ele>391.7</ele>
        <time>2023-03-05T12:59:57Z</time>
      </trkpt>
      <trkpt lat="48.18814" lon="6.51513">
        <ele>391</ele>
        <time>2023-03-05T13:00:04Z</time>
      </trkpt>
      <trkpt lat="48.18822" lon="6.51505">
        <ele>390.4</ele>
        <time>2023-03-05T13:00:13Z</time>
      </trkpt>
      <trkpt lat="48.18829" lon="6.51495">
        <ele>389.7</ele>
        <time>2023-03-05T13:00:21Z</time>
      </trkpt>
      <trkpt lat="48.18835" lon="6.51483">
        <ele>389.1</ele>
        <time>2023-03-05T13:00:32Z</time>
      </trkpt>
      <trkpt lat="48.18843" lon="6.51478">
        <ele>388.5</ele>
        <time>2023-03-05T13:00:39Z</time>
      </trkpt>
      <trkpt lat="48.18852" lon="6.51471">
        <ele>387.9</ele>
        <time>2023-03-05T13:00:47Z</time>
      </trkpt>
      <trkpt lat="48.1886" lon="6.51465">
        <ele>387.2</ele>
        <time>2023-03-05T13:00:56Z</time>
      </trkpt>
      <trkpt lat="48.18867" lon="6.51455">
        <ele>386.6</ele>
        <time>2023-03-05T13:01:07Z</time>
      </trkpt>
      <trkpt lat="48.18876" lon="6.51456">
        <ele>386</ele>
        <time>2023-03-05T13:01:13Z</time>
      </trkpt>
      <trkpt lat="48.18885" lon="6.51457">
        <ele>385.5</ele>
        <time>2023-03-05T13:01:19Z</time>
      </trkpt>
      <trkpt lat="48.18894" lon="6.51453">
        <ele>384.9</ele>
        <time>2023-03-05T13:01:29Z</time>
      </trkpt>
      <trkpt lat="48.18903" lon="6.51447">
        <ele>384.5</ele>
        <time>2023-03-05T13:01:41Z</time>
      </trkpt>
      <trkpt lat="48.18913" lon="6.51443">
        <ele>384.2</ele>
        <time>2023-03-05T13:01:49Z</time>
      </trkpt>
      <trkpt lat="48.18922" lon="6.51439">
        <ele>384</ele>
        <time>2023-03-05T13:02:00Z</time>
      </trkpt>
      <trkpt lat="48.18932" lon="6.51441">
        <ele>383.7</ele>
        <time>2023-03-05T13:02:07Z</time>
      </trkpt>
      <trkpt lat="48.1894" lon="6.51434">
        <ele>383.5</ele>
        <time>2023-03-05T13:02:17Z</time>
      </trkpt>
      <trkpt lat="48.18949" lon="6.51429">
        <ele>383.2</ele>
        <time>2023-03-05T13:02:23Z</time>
      </trkpt>
      <trkpt lat="48.18956" lon="6.51418">
        <ele>383</ele>
        <time>2023-03-05T13:02:31Z</time>
      </trkpt>
      <trkpt lat="48.18963" lon="6.5141">
        <ele>382.8</ele>
        <time>2023-03-05T13:02:40Z</time>
      </trkpt>
      <trkpt lat="48.18971" lon="6.51401">
        <ele>382.7</ele>
        <time>2023-03-05T13:02:46Z</time>
      </trkpt>
      <trkpt lat="48.18978" lon="6.51391">
        <ele>382.5</ele>
        <time>2023-03-05T13:02:54Z</time>
      </trkpt>
      <trkpt lat="48.18985" lon="6.51381">
        <ele>382.4</ele>
        <time>2023-03-05T13:03:03Z</time>
      </trkpt>
      <trkpt lat="48.18991" lon="6.51371">
        <ele>382.3</ele>
        <time>2023-03-05T13:03:12Z</time>
      </trkpt>
      <trkpt lat="48.18995" lon="6.51359">
        <ele>382.3</ele>
        <time>2023-03-05T13:03:23Z</time>
      </trkpt>
      <trkpt lat="48.19001" lon="6.51348">
        <ele>382.3</ele>
        <time>2023-03-05T13:03:30Z</time>
      </trkpt>
      <trkpt lat="48.19009" lon="6.51341">
        <ele>382.3</ele>
        <time>2023-03-05T13:03:36Z</time>
      </trkpt>
      <trkpt lat="48.19017" lon="6.51334">
        <ele>382.3</ele>
        <time>2023-03-05T13:03:42Z</time>
      </trkpt>
      <trkpt lat="48.19025" lon="6.51326">
        <ele>382.3</ele>
        <time>2023-03-05T13:03:52Z</time>
      </trkpt>
      <trkpt lat="48.19033" lon="6.51318">
        <ele>382.3</ele>
        <time>2023-03-05T13:04:01Z</time>
      </trkpt>
      <trkpt lat="48.19042" lon="6.51316">
        <ele>382.4</ele>
        <time>2023-03-05T13:04:08Z</time>
      </trkpt>
      <trkpt lat="48.19052" lon="6.51318">
        <ele>382.5</ele>
        <time>2023-03-05T13:04:20Z</time>
      </trkpt>
      <trkpt lat="48.19061" lon="6.5132">
        <ele>382.5</ele>
        <time>2023-03-05T13:04:28Z</time>
      </trkpt>
      <trkpt lat="48.1907" lon="6.51323">
        <ele>382.5</ele>
        <time>2023-03-05T13:04:36Z</time>
      </trkpt>
      <trkpt lat="48.1908" lon="6.51325">
        <ele>382.5</ele>
        <time>2023-03-05T13:04:44Z</time>
      </trkpt>
      <trkpt lat="48.19089" lon="6.51329">
        <ele>382.3</ele>
        <time>2023-03-05T13:04:51Z</time>
      </trkpt>
      <trkpt lat="48.19099" lon="6.51331">
        <ele>382.2</ele>
        <time>2023-03-05T13:05:00Z</time>
      </trkpt>
      <trkpt lat="48.19108" lon="6.51331">
        <ele>382</ele>
        <time>2023-03-05T13:05:07Z</time>
      </trkpt>
      <trkpt lat="48.19118" lon="6.51334">
        <ele>382</ele>
        <time>2023-03-05T13:05:16Z</time>
      </trkpt>
      <trkpt lat="48.19127" lon="6.51339">
        <ele>381.9</ele>
        <time>2023-03-05T13:05:24Z</time>
      </trkpt>
      <trkpt lat="48.19128" lon="6.51353">
        <ele>381.6</ele>
        <time>2023-03-05T13:05:36Z</time>
      </trkpt>
      <trkpt lat="48.19123" lon="6.51365">
        <ele>381.5</ele>
        <time>2023-03-05T13:05:46Z</time>
      </trkpt>
      <trkpt lat="48.1912" lon="6.51378">
        <ele>381.5</ele>
        <time>2023-03-05T13:05:55Z</time>
      </trkpt>
      <trkpt lat="48.19115" lon="6.5139">
        <ele>381.5</ele>
        <time>2023-03-05T13:06:03Z</time>
      </trkpt>
      <trkpt lat="48.19115" lon="6.51404">
        <ele>381.6</ele>
        <time>2023-03-05T13:06:12Z</time>
      </trkpt>
      <trkpt lat="48.19112" lon="6.51417">
        <ele>381.8</ele>
        <time>2023-03-05T13:06:20Z</time>
      </trkpt>
      <trkpt lat="48.19112" lon="6.51418">
        <ele>381.8</ele>
        <time>2023-03-05T13:06:23Z</time>
      </trkpt>
      <trkpt lat="48.19112" lon="6.51418">
        <ele>381.8</ele>
        <time>2023-03-05T13:06:24Z</time>
      </trkpt>
      <trkpt lat="48.19112" lon="6.51418">
        <ele>381.8</ele>
        <time>2023-03-05T13:06:26Z</time>
      </trkpt>
      <trkpt lat="48.19112" lon="6.51418">
        <ele>381.8</ele>
        <time>2023-03-05T13:06:27Z</time>
      </trkpt>
      <trkpt lat="48.19109" lon="6.51432">
        <ele>381.9</ele>
        <time>2023-03-05T13:06:41Z</time>
      </trkpt>
      <trkpt lat="48.19104" lon="6.51446">
        <ele>382.1</ele>
        <time>2023-03-05T13:06:51Z</time>
      </trkpt>
      <trkpt lat="48.19102" lon="6.51459">
        <ele>382.4</ele>
        <time>2023-03-05T13:06:59Z</time>
      </trkpt>
      <trkpt lat="48.19102" lon="6.51474">
        <ele>382.7</ele>
        <time>2023-03-05T13:07:08Z</time>
      </trkpt>
      <trkpt lat="48.19098" lon="6.51486">
        <ele>383</ele>
        <time>2023-03-05T13:07:15Z</time>
      </trkpt>
      <trkpt lat="48.19096" lon="6.515">
        <ele>383.3</ele>
        <time>2023-03-05T13:07:23Z</time>
      </trkpt>
      <trkpt lat="48.19094" lon="6.51514">
        <ele>383.6</ele>
        <time>2023-03-05T13:07:33Z</time>
      </trkpt>
      <trkpt lat="48.19093" lon="6.51527">
        <ele>383.9</ele>
        <time>2023-03-05T13:07:41Z</time>
      </trkpt>
      <trkpt lat="48.1909" lon="6.51541">
        <ele>384.4</ele>
        <time>2023-03-05T13:07:50Z</time>
      </trkpt>
      <trkpt lat="48.19087" lon="6.51554">
        <ele>384.9</ele>
        <time>2023-03-05T13:07:57Z</time>
      </trkpt>
      <trkpt lat="48.19086" lon="6.51569">
        <ele>385.5</ele>
        <time>2023-03-05T13:08:06Z</time>
      </trkpt>
      <trkpt lat="48.19084" lon="6.51582">
        <ele>386.2</ele>
        <time>2023-03-05T13:08:13Z</time>
      </trkpt>
      <trkpt lat="48.19082" lon="6.51596">
        <ele>387</ele>
        <time>2023-03-05T13:08:21Z</time>
      </trkpt>
      <trkpt lat="48.19078" lon="6.51608">
        <ele>387.9</ele>
        <time>2023-03-05T13:08:29Z</time>
      </trkpt>
      <trkpt lat="48.19078" lon="6.51623">
        <ele>388.7</ele>
        <time>2023-03-05T13:08:38Z</time>
      </trkpt>
      <trkpt lat="48.19078" lon="6.51637">
        <ele>389.4</ele>
        <time>2023-03-05T13:08:45Z</time>
      </trkpt>
      <trkpt lat="48.19076" lon="6.51651">
        <ele>390</ele>
        <time>2023-03-05T13:08:53Z</time>
      </trkpt>
      <trkpt lat="48.19076" lon="6.51664">
        <ele>390.5</ele>
        <time>2023-03-05T13:09:02Z</time>
      </trkpt>
      <trkpt lat="48.19076" lon="6.51679">
        <ele>391</ele>
        <time>2023-03-05T13:09:09Z</time>
      </trkpt>
      <trkpt lat="48.19079" lon="6.51693">
        <ele>391.5</ele>
        <time>2023-03-05T13:09:18Z</time>
      </trkpt>
      <trkpt lat="48.19077" lon="6.51708">
        <ele>392.4</ele>
        <time>2023-03-05T13:09:28Z</time>
      </trkpt>
      <trkpt lat="48.19074" lon="6.51721">
        <ele>393.3</ele>
        <time>2023-03-05T13:09:34Z</time>
      </trkpt>
      <trkpt lat="48.19073" lon="6.51736">
        <ele>394.2</ele>
        <time>2023-03-05T13:09:43Z</time>
      </trkpt>
      <trkpt lat="48.19073" lon="6.5175">
        <ele>394.9</ele>
        <time>2023-03-05T13:09:51Z</time>
      </trkpt>
      <trkpt lat="48.19077" lon="6.51764">
        <ele>395.6</ele>
        <time>2023-03-05T13:09:59Z</time>
      </trkpt>
      <trkpt lat="48.19076" lon="6.51778">
        <ele>395.8</ele>
        <time>2023-03-05T13:10:10Z</time>
      </trkpt>
      <trkpt lat="48.1908" lon="6.51791">
        <ele>395.9</ele>
        <time>2023-03-05T13:10:18Z</time>
      </trkpt>
      <trkpt lat="48.1908" lon="6.51806">
        <ele>395.7</ele>
        <time>2023-03-05T13:10:26Z</time>
      </trkpt>
      <trkpt lat="48.19083" lon="6.5182">
        <ele>395.4</ele>
        <time>2023-03-05T13:10:34Z</time>
      </trkpt>
      <trkpt lat="48.19088" lon="6.51833">
        <ele>395</ele>
        <time>2023-03-05T13:10:42Z</time>
      </trkpt>
      <trkpt lat="48.19093" lon="6.51845">
        <ele>394.4</ele>
        <time>2023-03-05T13:10:50Z</time>
      </trkpt>
      <trkpt lat="48.191" lon="6.51856">
        <ele>393.8</ele>
        <time>2023-03-05T13:11:00Z</time>
      </trkpt>
      <trkpt lat="48.19104" lon="6.51869">
        <ele>393.1</ele>
        <time>2023-03-05T13:11:09Z</time>
      </trkpt>
      <trkpt lat="48.19107" lon="6.51883">
        <ele>392.4</ele>
        <time>2023-03-05T13:11:19Z</time>
      </trkpt>
      <trkpt lat="48.19107" lon="6.51897">
        <ele>391.8</ele>
        <time>2023-03-05T13:11:27Z</time>
      </trkpt>
      <trkpt lat="48.19104" lon="6.51911">
        <ele>391</ele>
        <time>2023-03-05T13:11:38Z</time>
      </trkpt>
      <trkpt lat="48.19096" lon="6.51918">
        <ele>390.8</ele>
        <time>2023-03-05T13:11:48Z</time>
      </trkpt>
      <trkpt lat="48.19088" lon="6.51924">
        <ele>390.5</ele>
        <time>2023-03-05T13:11:57Z</time>
      </trkpt>
      <trkpt lat="48.19082" lon="6.51936">
        <ele>390.1</ele>
        <time>2023-03-05T13:12:05Z</time>
      </trkpt>
      <trkpt lat="48.1908" lon="6.51949">
        <ele>389.5</ele>
        <time>2023-03-05T13:12:13Z</time>
      </trkpt>
      <trkpt lat="48.19084" lon="6.51962">
        <ele>388.8</ele>
        <time>2023-03-05T13:12:23Z</time>
      </trkpt>
      <trkpt lat="48.19088" lon="6.51975">
        <ele>387.9</ele>
        <time>2023-03-05T13:12:32Z</time>
      </trkpt>
      <trkpt lat="48.19095" lon="6.51985">
        <ele>387</ele>
        <time>2023-03-05T13:12:38Z</time>
      </trkpt>
      <trkpt lat="48.19101" lon="6.51995">
        <ele>386.1</ele>
        <time>2023-03-05T13:12:45Z</time>
      </trkpt>
      <trkpt lat="48.19106" lon="6.52007">
        <ele>385.1</ele>
        <time>2023-03-05T13:12:53Z</time>
      </trkpt>
      <trkpt lat="48.19113" lon="6.52018">
        <ele>384.2</ele>
        <time>2023-03-05T13:13:03Z</time>
      </trkpt>
      <trkpt lat="48.19119" lon="6.52028">
        <ele>383.4</ele>
        <time>2023-03-05T13:13:12Z</time>
      </trkpt>
      <trkpt lat="48.19126" lon="6.52039">
        <ele>382.5</ele>
        <time>2023-03-05T13:13:21Z</time>
      </trkpt>
      <trkpt lat="48.19135" lon="6.52044">
        <ele>381.6</ele>
        <time>2023-03-05T13:13:33Z</time>
      </trkpt>
      <trkpt lat="48.19144" lon="6.5205">
        <ele>380.8</ele>
        <time>2023-03-05T13:13:40Z</time>
      </trkpt>
      <trkpt lat="48.19152" lon="6.52058">
        <ele>380.2</ele>
        <time>2023-03-05T13:13:49Z</time>
      </trkpt>
      <trkpt lat="48.19161" lon="6.52062">
        <ele>379.8</ele>
        <time>2023-03-05T13:13:59Z</time>
      </trkpt>
      <trkpt lat="48.19169" lon="6.5207">
        <ele>379.4</ele>
        <time>2023-03-05T13:14:08Z</time>
      </trkpt>
      <trkpt lat="48.19178" lon="6.52073">
        <ele>379.2</ele>
        <time>2023-03-05T13:14:17Z</time>
      </trkpt>
      <trkpt lat="48.19187" lon="6.52078">
        <ele>379.3</ele>
        <time>2023-03-05T13:14:26Z</time>
      </trkpt>
      <trkpt lat="48.19188" lon="6.52084">
        <ele>379.3</ele>
        <time>2023-03-05T13:14:54Z</time>
      </trkpt>
      <trkpt lat="48.19189" lon="6.52083">
        <ele>379.3</ele>
        <time>2023-03-05T13:14:55Z</time>
      </trkpt>
      <trkpt lat="48.19189" lon="6.52084">
        <ele>379.3</ele>
        <time>2023-03-05T13:14:58Z</time>
      </trkpt>
      <trkpt lat="48.19189" lon="6.52083">
        <ele>379.2</ele>
        <time>2023-03-05T13:14:59Z</time>
      </trkpt>
      <trkpt lat="48.19186" lon="6.5207">
        <ele>379.2</ele>
        <time>2023-03-05T13:15:09Z</time>
      </trkpt>
      <trkpt lat="48.19178" lon="6.52062">
        <ele>379.2</ele>
        <time>2023-03-05T13:15:18Z</time>
      </trkpt>
      <trkpt lat="48.19169" lon="6.52058">
        <ele>379.3</ele>
        <time>2023-03-05T13:15:28Z</time>
      </trkpt>
      <trkpt lat="48.1916" lon="6.52051">
        <ele>379.5</ele>
        <time>2023-03-05T13:15:38Z</time>
      </trkpt>
      <trkpt lat="48.19151" lon="6.52046">
        <ele>379.7</ele>
        <time>2023-03-05T13:15:44Z</time>
      </trkpt>
      <trkpt lat="48.19144" lon="6.52043">
        <ele>379.9</ele>
        <time>2023-03-05T13:15:53Z</time>
      </trkpt>
      <trkpt lat="48.19144" lon="6.52043">
        <ele>379.9</ele>
        <time>2023-03-05T13:15:56Z</time>
      </trkpt>
      <trkpt lat="48.19144" lon="6.52043">
        <ele>379.9</ele>
        <time>2023-03-05T13:15:57Z</time>
      </trkpt>
      <trkpt lat="48.19144" lon="6.52043">
        <ele>379.9</ele>
        <time>2023-03-05T13:15:58Z</time>
      </trkpt>
      <trkpt lat="48.19151" lon="6.52055">
        <ele>380.3</ele>
        <time>2023-03-05T13:16:11Z</time>
      </trkpt>
      <trkpt lat="48.1916" lon="6.52062">
        <ele>379.8</ele>
        <time>2023-03-05T13:16:21Z</time>
      </trkpt>
      <trkpt lat="48.19169" lon="6.52067">
        <ele>379.4</ele>
        <time>2023-03-05T13:16:31Z</time>
      </trkpt>
      <trkpt lat="48.19178" lon="6.52072">
        <ele>379.2</ele>
        <time>2023-03-05T13:16:42Z</time>
      </trkpt>
      <trkpt lat="48.19187" lon="6.52077">
        <ele>379.2</ele>
        <time>2023-03-05T13:16:48Z</time>
      </trkpt>
      <trkpt lat="48.19191" lon="6.5209">
        <ele>379.4</ele>
        <time>2023-03-05T13:16:58Z</time>
      </trkpt>
      <trkpt lat="48.19193" lon="6.52104">
        <ele>380.1</ele>
        <time>2023-03-05T13:17:05Z</time>
      </trkpt>
      <trkpt lat="48.19197" lon="6.52118">
        <ele>380.5</ele>
        <time>2023-03-05T13:17:13Z</time>
      </trkpt>
      <trkpt lat="48.192" lon="6.52131">
        <ele>381</ele>
        <time>2023-03-05T13:17:20Z</time>
      </trkpt>
      <trkpt lat="48.19198" lon="6.52145">
        <ele>381.4</ele>
        <time>2023-03-05T13:17:28Z</time>
      </trkpt>
      <trkpt lat="48.19198" lon="6.52159">
        <ele>382</ele>
        <time>2023-03-05T13:17:35Z</time>
      </trkpt>
      <trkpt lat="48.19195" lon="6.52163">
        <ele>383.1</ele>
        <time>2023-03-05T13:17:49Z</time>
      </trkpt>
      <trkpt lat="48.19194" lon="6.52163">
        <ele>383.1</ele>
        <time>2023-03-05T13:17:50Z</time>
      </trkpt>
      <trkpt lat="48.19184" lon="6.52165">
        <ele>383.9</ele>
        <time>2023-03-05T13:17:59Z</time>
      </trkpt>
      <trkpt lat="48.19175" lon="6.52161">
        <ele>384.7</ele>
        <time>2023-03-05T13:18:09Z</time>
      </trkpt>
      <trkpt lat="48.19166" lon="6.52161">
        <ele>385.7</ele>
        <time>2023-03-05T13:18:18Z</time>
      </trkpt>
      <trkpt lat="48.19157" lon="6.52164">
        <ele>386.9</ele>
        <time>2023-03-05T13:18:29Z</time>
      </trkpt>
      <trkpt lat="48.19149" lon="6.52168">
        <ele>388.3</ele>
        <time>2023-03-05T13:18:40Z</time>
      </trkpt>
      <trkpt lat="48.19139" lon="6.52171">
        <ele>390.1</ele>
        <time>2023-03-05T13:18:48Z</time>
      </trkpt>
      <trkpt lat="48.19132" lon="6.52177">
        <ele>391.5</ele>
        <time>2023-03-05T13:18:59Z</time>
      </trkpt>
      <trkpt lat="48.19132" lon="6.52178">
        <ele>391.6</ele>
        <time>2023-03-05T13:19:00Z</time>
      </trkpt>
      <trkpt lat="48.19123" lon="6.52183">
        <ele>393.2</ele>
        <time>2023-03-05T13:19:11Z</time>
      </trkpt>
      <trkpt lat="48.19114" lon="6.52185">
        <ele>394.8</ele>
        <time>2023-03-05T13:19:19Z</time>
      </trkpt>
      <trkpt lat="48.19104" lon="6.52184">
        <ele>396.4</ele>
        <time>2023-03-05T13:19:25Z</time>
      </trkpt>
      <trkpt lat="48.19095" lon="6.52183">
        <ele>397.8</ele>
        <time>2023-03-05T13:19:30Z</time>
      </trkpt>
      <trkpt lat="48.19086" lon="6.52186">
        <ele>399.3</ele>
        <time>2023-03-05T13:19:39Z</time>
      </trkpt>
      <trkpt lat="48.19077" lon="6.52184">
        <ele>400.7</ele>
        <time>2023-03-05T13:19:48Z</time>
      </trkpt>
      <trkpt lat="48.19067" lon="6.52189">
        <ele>402.3</ele>
        <time>2023-03-05T13:19:56Z</time>
      </trkpt>
      <trkpt lat="48.19058" lon="6.52193">
        <ele>403.8</ele>
        <time>2023-03-05T13:20:09Z</time>
      </trkpt>
      <trkpt lat="48.19059" lon="6.52207">
        <ele>404.7</ele>
        <time>2023-03-05T13:20:16Z</time>
      </trkpt>
      <trkpt lat="48.19058" lon="6.52222">
        <ele>405</ele>
        <time>2023-03-05T13:20:24Z</time>
      </trkpt>
      <trkpt lat="48.19056" lon="6.52237">
        <ele>405.2</ele>
        <time>2023-03-05T13:20:32Z</time>
      </trkpt>
      <trkpt lat="48.19053" lon="6.5225">
        <ele>405.4</ele>
        <time>2023-03-05T13:20:40Z</time>
      </trkpt>
      <trkpt lat="48.19046" lon="6.5226">
        <ele>405.6</ele>
        <time>2023-03-05T13:20:47Z</time>
      </trkpt>
      <trkpt lat="48.19043" lon="6.52273">
        <ele>405.8</ele>
        <time>2023-03-05T13:20:55Z</time>
      </trkpt>
      <trkpt lat="48.19038" lon="6.52285">
        <ele>406.1</ele>
        <time>2023-03-05T13:21:03Z</time>
      </trkpt>
      <trkpt lat="48.19033" lon="6.52299">
        <ele>406.2</ele>
        <time>2023-03-05T13:21:12Z</time>
      </trkpt>
      <trkpt lat="48.19025" lon="6.52306">
        <ele>406.4</ele>
        <time>2023-03-05T13:21:19Z</time>
      </trkpt>
      <trkpt lat="48.1902" lon="6.5232">
        <ele>406.6</ele>
        <time>2023-03-05T13:21:26Z</time>
      </trkpt>
      <trkpt lat="48.19019" lon="6.52334">
        <ele>407.1</ele>
        <time>2023-03-05T13:21:35Z</time>
      </trkpt>
      <trkpt lat="48.19014" lon="6.52347">
        <ele>407.8</ele>
        <time>2023-03-05T13:21:45Z</time>
      </trkpt>
      <trkpt lat="48.19009" lon="6.52358">
        <ele>408.5</ele>
        <time>2023-03-05T13:21:54Z</time>
      </trkpt>
      <trkpt lat="48.19002" lon="6.52369">
        <ele>409.3</ele>
        <time>2023-03-05T13:22:02Z</time>
      </trkpt>
      <trkpt lat="48.18997" lon="6.5238">
        <ele>410</ele>
        <time>2023-03-05T13:22:11Z</time>
      </trkpt>
      <trkpt lat="48.18987" lon="6.52386">
        <ele>410.7</ele>
        <time>2023-03-05T13:22:19Z</time>
      </trkpt>
      <trkpt lat="48.18978" lon="6.52394">
        <ele>411</ele>
        <time>2023-03-05T13:22:25Z</time>
      </trkpt>
      <trkpt lat="48.18968" lon="6.52398">
        <ele>411.2</ele>
        <time>2023-03-05T13:22:36Z</time>
      </trkpt>
      <trkpt lat="48.18958" lon="6.52398">
        <ele>411.2</ele>
        <time>2023-03-05T13:22:48Z</time>
      </trkpt>
      <trkpt lat="48.18949" lon="6.52398">
        <ele>411.2</ele>
        <time>2023-03-05T13:22:54Z</time>
      </trkpt>
      <trkpt lat="48.1894" lon="6.52396">
        <ele>411.3</ele>
        <time>2023-03-05T13:23:00Z</time>
      </trkpt>
      <trkpt lat="48.18931" lon="6.52395">
        <ele>411.6</ele>
        <time>2023-03-05T13:23:06Z</time>
      </trkpt>
      <trkpt lat="48.18921" lon="6.52395">
        <ele>411.9</ele>
        <time>2023-03-05T13:23:16Z</time>
      </trkpt>
      <trkpt lat="48.18913" lon="6.52388">
        <ele>412.4</ele>
        <time>2023-03-05T13:23:25Z</time>
      </trkpt>
      <trkpt lat="48.18904" lon="6.52383">
        <ele>412.9</ele>
        <time>2023-03-05T13:23:34Z</time>
      </trkpt>
      <trkpt lat="48.18895" lon="6.52376">
        <ele>413.4</ele>
        <time>2023-03-05T13:23:43Z</time>
      </trkpt>
      <trkpt lat="48.18886" lon="6.5237">
        <ele>414</ele>
        <time>2023-03-05T13:23:49Z</time>
      </trkpt>
      <trkpt lat="48.18877" lon="6.52365">
        <ele>414.5</ele>
        <time>2023-03-05T13:23:56Z</time>
      </trkpt>
      <trkpt lat="48.18869" lon="6.52359">
        <ele>415</ele>
        <time>2023-03-05T13:24:03Z</time>
      </trkpt>
      <trkpt lat="48.1886" lon="6.52353">
        <ele>415.5</ele>
        <time>2023-03-05T13:24:09Z</time>
      </trkpt>
      <trkpt lat="48.18853" lon="6.52343">
        <ele>415.9</ele>
        <time>2023-03-05T13:24:20Z</time>
      </trkpt>
      <trkpt lat="48.18844" lon="6.52339">
        <ele>416.2</ele>
        <time>2023-03-05T13:24:27Z</time>
      </trkpt>
      <trkpt lat="48.18836" lon="6.52334">
        <ele>416.4</ele>
        <time>2023-03-05T13:24:33Z</time>
      </trkpt>
      <trkpt lat="48.18827" lon="6.52328">
        <ele>416.6</ele>
        <time>2023-03-05T13:24:41Z</time>
      </trkpt>
      <trkpt lat="48.18818" lon="6.52323">
        <ele>416.7</ele>
        <time>2023-03-05T13:24:47Z</time>
      </trkpt>
      <trkpt lat="48.18809" lon="6.52316">
        <ele>416.6</ele>
        <time>2023-03-05T13:24:59Z</time>
      </trkpt>
      <trkpt lat="48.188" lon="6.5231">
        <ele>416.3</ele>
        <time>2023-03-05T13:25:06Z</time>
      </trkpt>
      <trkpt lat="48.18792" lon="6.523">
        <ele>415.8</ele>
        <time>2023-03-05T13:25:13Z</time>
      </trkpt>
      <trkpt lat="48.18784" lon="6.52293">
        <ele>415.5</ele>
        <time>2023-03-05T13:25:19Z</time>
      </trkpt>
      <trkpt lat="48.18775" lon="6.52286">
        <ele>415.1</ele>
        <time>2023-03-05T13:25:26Z</time>
      </trkpt>
      <trkpt lat="48.18766" lon="6.52285">
        <ele>414.8</ele>
        <time>2023-03-05T13:25:33Z</time>
      </trkpt>
      <trkpt lat="48.18758" lon="6.52277">
        <ele>414.5</ele>
        <time>2023-03-05T13:25:41Z</time>
      </trkpt>
      <trkpt lat="48.18749" lon="6.52274">
        <ele>414.2</ele>
        <time>2023-03-05T13:25:48Z</time>
      </trkpt>
      <trkpt lat="48.18739" lon="6.52274">
        <ele>413.9</ele>
        <time>2023-03-05T13:26:20Z</time>
      </trkpt>
      <trkpt lat="48.1873" lon="6.52272">
        <ele>413.5</ele>
        <time>2023-03-05T13:26:27Z</time>
      </trkpt>
      <trkpt lat="48.1872" lon="6.52272">
        <ele>413.1</ele>
        <time>2023-03-05T13:26:34Z</time>
      </trkpt>
      <trkpt lat="48.1871" lon="6.52269">
        <ele>412.6</ele>
        <time>2023-03-05T13:26:39Z</time>
      </trkpt>
      <trkpt lat="48.18701" lon="6.52261">
        <ele>412</ele>
        <time>2023-03-05T13:26:44Z</time>
      </trkpt>
      <trkpt lat="48.18691" lon="6.52258">
        <ele>411.5</ele>
        <time>2023-03-05T13:26:49Z</time>
      </trkpt>
      <trkpt lat="48.1868" lon="6.5226">
        <ele>411</ele>
        <time>2023-03-05T13:26:54Z</time>
      </trkpt>
      <trkpt lat="48.1867" lon="6.52263">
        <ele>410.4</ele>
        <time>2023-03-05T13:26:59Z</time>
      </trkpt>
      <trkpt lat="48.18661" lon="6.5227">
        <ele>409.8</ele>
        <time>2023-03-05T13:27:09Z</time>
      </trkpt>
      <trkpt lat="48.18653" lon="6.52274">
        <ele>409.2</ele>
        <time>2023-03-05T13:27:15Z</time>
      </trkpt>
      <trkpt lat="48.18644" lon="6.5228">
        <ele>408.6</ele>
        <time>2023-03-05T13:27:22Z</time>
      </trkpt>
      <trkpt lat="48.18635" lon="6.52287">
        <ele>408.1</ele>
        <time>2023-03-05T13:27:28Z</time>
      </trkpt>
      <trkpt lat="48.18628" lon="6.52294">
        <ele>407.6</ele>
        <time>2023-03-05T13:27:36Z</time>
      </trkpt>
      <trkpt lat="48.1862" lon="6.52302">
        <ele>407.1</ele>
        <time>2023-03-05T13:27:42Z</time>
      </trkpt>
      <trkpt lat="48.18611" lon="6.52308">
        <ele>406.7</ele>
        <time>2023-03-05T13:27:47Z</time>
      </trkpt>
      <trkpt lat="48.18601" lon="6.52309">
        <ele>406.4</ele>
        <time>2023-03-05T13:27:53Z</time>
      </trkpt>
      <trkpt lat="48.18591" lon="6.52311">
        <ele>406.3</ele>
        <time>2023-03-05T13:28:04Z</time>
      </trkpt>
      <trkpt lat="48.18582" lon="6.52313">
        <ele>406.3</ele>
        <time>2023-03-05T13:28:10Z</time>
      </trkpt>
      <trkpt lat="48.18572" lon="6.52312">
        <ele>406.2</ele>
        <time>2023-03-05T13:28:16Z</time>
      </trkpt>
      <trkpt lat="48.18562" lon="6.52312">
        <ele>406.1</ele>
        <time>2023-03-05T13:28:24Z</time>
      </trkpt>
      <trkpt lat="48.18552" lon="6.52318">
        <ele>405.9</ele>
        <time>2023-03-05T13:28:33Z</time>
      </trkpt>
      <trkpt lat="48.18544" lon="6.52323">
        <ele>405.7</ele>
        <time>2023-03-05T13:28:39Z</time>
      </trkpt>
      <trkpt lat="48.18535" lon="6.52328">
        <ele>405.6</ele>
        <time>2023-03-05T13:28:45Z</time>
      </trkpt>
      <trkpt lat="48.18526" lon="6.52325">
        <ele>405.7</ele>
        <time>2023-03-05T13:28:52Z</time>
      </trkpt>
      <trkpt lat="48.18522" lon="6.52313">
        <ele>406.1</ele>
        <time>2023-03-05T13:29:05Z</time>
      </trkpt>
      <trkpt lat="48.1852" lon="6.52298">
        <ele>406.7</ele>
        <time>2023-03-05T13:29:17Z</time>
      </trkpt>
      <trkpt lat="48.18513" lon="6.5229">
        <ele>407.5</ele>
        <time>2023-03-05T13:29:21Z</time>
      </trkpt>
      <trkpt lat="48.18512" lon="6.52275">
        <ele>408.3</ele>
        <time>2023-03-05T13:29:31Z</time>
      </trkpt>
      <trkpt lat="48.1851" lon="6.5226">
        <ele>409.1</ele>
        <time>2023-03-05T13:29:39Z</time>
      </trkpt>
      <trkpt lat="48.18503" lon="6.5225">
        <ele>409.9</ele>
        <time>2023-03-05T13:29:45Z</time>
      </trkpt>
      <trkpt lat="48.18501" lon="6.52236">
        <ele>410.6</ele>
        <time>2023-03-05T13:29:50Z</time>
      </trkpt>
      <trkpt lat="48.18506" lon="6.52224">
        <ele>411.3</ele>
        <time>2023-03-05T13:29:58Z</time>
      </trkpt>
      <trkpt lat="48.1851" lon="6.52212">
        <ele>412</ele>
        <time>2023-03-05T13:30:04Z</time>
      </trkpt>
      <trkpt lat="48.1851" lon="6.52197">
        <ele>412.7</ele>
        <time>2023-03-05T13:30:12Z</time>
      </trkpt>
      <trkpt lat="48.18506" lon="6.52183">
        <ele>413.6</ele>
        <time>2023-03-05T13:30:18Z</time>
      </trkpt>
      <trkpt lat="48.18507" lon="6.52169">
        <ele>414.3</ele>
        <time>2023-03-05T13:30:26Z</time>
      </trkpt>
      <trkpt lat="48.18502" lon="6.52156">
        <ele>415.1</ele>
        <time>2023-03-05T13:30:33Z</time>
      </trkpt>
      <trkpt lat="48.18507" lon="6.52144">
        <ele>415.8</ele>
        <time>2023-03-05T13:30:39Z</time>
      </trkpt>
      <trkpt lat="48.1851" lon="6.52132">
        <ele>416.5</ele>
        <time>2023-03-05T13:30:45Z</time>
      </trkpt>
      <trkpt lat="48.18517" lon="6.52123">
        <ele>417.2</ele>
        <time>2023-03-05T13:30:51Z</time>
      </trkpt>
      <trkpt lat="48.18524" lon="6.52112">
        <ele>418</ele>
        <time>2023-03-05T13:31:01Z</time>
      </trkpt>
      <trkpt lat="48.18522" lon="6.52099">
        <ele>418.6</ele>
        <time>2023-03-05T13:31:13Z</time>
      </trkpt>
      <trkpt lat="48.18529" lon="6.52087">
        <ele>419.2</ele>
        <time>2023-03-05T13:31:20Z</time>
      </trkpt>
      <trkpt lat="48.18535" lon="6.52077">
        <ele>419.6</ele>
        <time>2023-03-05T13:31:25Z</time>
      </trkpt>
      <trkpt lat="48.18541" lon="6.52067">
        <ele>420</ele>
        <time>2023-03-05T13:31:33Z</time>
      </trkpt>
      <trkpt lat="48.18532" lon="6.52068">
        <ele>419.7</ele>
        <time>2023-03-05T13:31:40Z</time>
      </trkpt>
      <trkpt lat="48.18522" lon="6.52068">
        <ele>419.3</ele>
        <time>2023-03-05T13:31:47Z</time>
      </trkpt>
      <trkpt lat="48.18513" lon="6.52072">
        <ele>418.9</ele>
        <time>2023-03-05T13:31:55Z</time>
      </trkpt>
      <trkpt lat="48.18503" lon="6.52072">
        <ele>418.5</ele>
        <time>2023-03-05T13:32:03Z</time>
      </trkpt>
      <trkpt lat="48.18494" lon="6.5207">
        <ele>418.2</ele>
        <time>2023-03-05T13:32:10Z</time>
      </trkpt>
      <trkpt lat="48.18484" lon="6.5207">
        <ele>417.8</ele>
        <time>2023-03-05T13:32:17Z</time>
      </trkpt>
      <trkpt lat="48.18474" lon="6.52068">
        <ele>417.4</ele>
        <time>2023-03-05T13:32:25Z</time>
      </trkpt>
      <trkpt lat="48.18464" lon="6.52074">
        <ele>417.1</ele>
        <time>2023-03-05T13:32:34Z</time>
      </trkpt>
      <trkpt lat="48.18457" lon="6.52083">
        <ele>416.9</ele>
        <time>2023-03-05T13:32:44Z</time>
      </trkpt>
      <trkpt lat="48.18448" lon="6.52089">
        <ele>416.6</ele>
        <time>2023-03-05T13:32:52Z</time>
      </trkpt>
      <trkpt lat="48.18441" lon="6.52099">
        <ele>416.4</ele>
        <time>2023-03-05T13:33:01Z</time>
      </trkpt>
      <trkpt lat="48.18432" lon="6.52103">
        <ele>416.2</ele>
        <time>2023-03-05T13:33:12Z</time>
      </trkpt>
      <trkpt lat="48.18423" lon="6.52108">
        <ele>416</ele>
        <time>2023-03-05T13:33:19Z</time>
      </trkpt>
      <trkpt lat="48.18415" lon="6.52116">
        <ele>415.8</ele>
        <time>2023-03-05T13:33:28Z</time>
      </trkpt>
      <trkpt lat="48.18407" lon="6.52125">
        <ele>415.6</ele>
        <time>2023-03-05T13:33:36Z</time>
      </trkpt>
      <trkpt lat="48.18398" lon="6.52132">
        <ele>415.4</ele>
        <time>2023-03-05T13:33:44Z</time>
      </trkpt>
      <trkpt lat="48.1839" lon="6.52139">
        <ele>415.2</ele>
        <time>2023-03-05T13:33:54Z</time>
      </trkpt>
      <trkpt lat="48.18382" lon="6.52148">
        <ele>414.9</ele>
        <time>2023-03-05T13:34:02Z</time>
      </trkpt>
      <trkpt lat="48.18375" lon="6.52158">
        <ele>414.7</ele>
        <time>2023-03-05T13:34:11Z</time>
      </trkpt>
      <trkpt lat="48.18367" lon="6.52166">
        <ele>414.4</ele>
        <time>2023-03-05T13:34:18Z</time>
      </trkpt>
      <trkpt lat="48.18359" lon="6.5216">
        <ele>414.2</ele>
        <time>2023-03-05T13:34:28Z</time>
      </trkpt>
      <trkpt lat="48.18349" lon="6.5216">
        <ele>414</ele>
        <time>2023-03-05T13:34:41Z</time>
      </trkpt>
      <trkpt lat="48.18343" lon="6.52171">
        <ele>413.7</ele>
        <time>2023-03-05T13:34:48Z</time>
      </trkpt>
      <trkpt lat="48.18336" lon="6.52182">
        <ele>413.5</ele>
        <time>2023-03-05T13:34:56Z</time>
      </trkpt>
      <trkpt lat="48.1833" lon="6.52191">
        <ele>413.2</ele>
        <time>2023-03-05T13:35:04Z</time>
      </trkpt>
      <trkpt lat="48.18325" lon="6.52203">
        <ele>413</ele>
        <time>2023-03-05T13:35:10Z</time>
      </trkpt>
      <trkpt lat="48.18319" lon="6.52214">
        <ele>412.8</ele>
        <time>2023-03-05T13:35:18Z</time>
      </trkpt>
      <trkpt lat="48.18319" lon="6.52228">
        <ele>412.5</ele>
        <time>2023-03-05T13:35:30Z</time>
      </trkpt>
      <trkpt lat="48.18314" lon="6.52241">
        <ele>412.3</ele>
        <time>2023-03-05T13:35:38Z</time>
      </trkpt>
      <trkpt lat="48.18306" lon="6.5225">
        <ele>412.2</ele>
        <time>2023-03-05T13:35:47Z</time>
      </trkpt>
      <trkpt lat="48.18299" lon="6.52261">
        <ele>412.1</ele>
        <time>2023-03-05T13:35:54Z</time>
      </trkpt>
      <trkpt lat="48.18291" lon="6.52269">
        <ele>412</ele>
        <time>2023-03-05T13:36:02Z</time>
      </trkpt>
      <trkpt lat="48.18289" lon="6.52284">
        <ele>412</ele>
        <time>2023-03-05T13:36:11Z</time>
      </trkpt>
      <trkpt lat="48.18287" lon="6.52299">
        <ele>412</ele>
        <time>2023-03-05T13:36:19Z</time>
      </trkpt>
      <trkpt lat="48.18281" lon="6.52311">
        <ele>412.1</ele>
        <time>2023-03-05T13:36:28Z</time>
      </trkpt>
      <trkpt lat="48.18273" lon="6.52318">
        <ele>412.2</ele>
        <time>2023-03-05T13:36:36Z</time>
      </trkpt>
      <trkpt lat="48.18271" lon="6.52332">
        <ele>412.3</ele>
        <time>2023-03-05T13:36:44Z</time>
      </trkpt>
      <trkpt lat="48.18271" lon="6.52345">
        <ele>412.5</ele>
        <time>2023-03-05T13:36:52Z</time>
      </trkpt>
      <trkpt lat="48.18271" lon="6.52359">
        <ele>412.6</ele>
        <time>2023-03-05T13:37:02Z</time>
      </trkpt>
      <trkpt lat="48.18266" lon="6.5237">
        <ele>412.7</ele>
        <time>2023-03-05T13:37:10Z</time>
      </trkpt>
      <trkpt lat="48.1826" lon="6.52381">
        <ele>412.8</ele>
        <time>2023-03-05T13:37:19Z</time>
      </trkpt>
      <trkpt lat="48.18259" lon="6.52395">
        <ele>412.9</ele>
        <time>2023-03-05T13:37:28Z</time>
      </trkpt>
      <trkpt lat="48.18259" lon="6.5241">
        <ele>413</ele>
        <time>2023-03-05T13:37:36Z</time>
      </trkpt>
      <trkpt lat="48.18261" lon="6.52425">
        <ele>413.2</ele>
        <time>2023-03-05T13:37:42Z</time>
      </trkpt>
      <trkpt lat="48.18264" lon="6.52439">
        <ele>413.3</ele>
        <time>2023-03-05T13:37:50Z</time>
      </trkpt>
      <trkpt lat="48.18257" lon="6.52451">
        <ele>413.3</ele>
        <time>2023-03-05T13:38:00Z</time>
      </trkpt>
      <trkpt lat="48.18249" lon="6.52459">
        <ele>413.2</ele>
        <time>2023-03-05T13:38:06Z</time>
      </trkpt>
      <trkpt lat="48.1824" lon="6.52467">
        <ele>413.1</ele>
        <time>2023-03-05T13:38:12Z</time>
      </trkpt>
      <trkpt lat="48.18236" lon="6.5248">
        <ele>413.1</ele>
        <time>2023-03-05T13:38:20Z</time>
      </trkpt>
      <trkpt lat="48.18232" lon="6.52494">
        <ele>413.1</ele>
        <time>2023-03-05T13:38:28Z</time>
      </trkpt>
      <trkpt lat="48.18222" lon="6.52496">
        <ele>413.1</ele>
        <time>2023-03-05T13:38:36Z</time>
      </trkpt>
      <trkpt lat="48.18214" lon="6.52504">
        <ele>413.2</ele>
        <time>2023-03-05T13:38:41Z</time>
      </trkpt>
      <trkpt lat="48.18214" lon="6.52517">
        <ele>413.5</ele>
        <time>2023-03-05T13:38:50Z</time>
      </trkpt>
      <trkpt lat="48.18215" lon="6.52533">
        <ele>413.8</ele>
        <time>2023-03-05T13:38:57Z</time>
      </trkpt>
      <trkpt lat="48.18209" lon="6.52545">
        <ele>414.1</ele>
        <time>2023-03-05T13:39:03Z</time>
      </trkpt>
      <trkpt lat="48.18207" lon="6.52559">
        <ele>414.3</ele>
        <time>2023-03-05T13:39:09Z</time>
      </trkpt>
      <trkpt lat="48.18204" lon="6.52573">
        <ele>414.4</ele>
        <time>2023-03-05T13:39:17Z</time>
      </trkpt>
      <trkpt lat="48.18199" lon="6.52586">
        <ele>414.5</ele>
        <time>2023-03-05T13:39:23Z</time>
      </trkpt>
      <trkpt lat="48.18197" lon="6.52596">
        <ele>414.5</ele>
        <time>2023-03-05T13:39:31Z</time>
      </trkpt>
      <trkpt lat="48.18198" lon="6.52596">
        <ele>414.5</ele>
        <time>2023-03-05T13:39:32Z</time>
      </trkpt>
      <trkpt lat="48.18207" lon="6.52604">
        <ele>414.6</ele>
        <time>2023-03-05T13:39:41Z</time>
      </trkpt>
      <trkpt lat="48.18207" lon="6.52602">
        <ele>414.6</ele>
        <time>2023-03-05T13:39:45Z</time>
      </trkpt>
      <trkpt lat="48.18207" lon="6.52602">
        <ele>414.6</ele>
        <time>2023-03-05T13:39:46Z</time>
      </trkpt>
      <trkpt lat="48.18199" lon="6.52611">
        <ele>414.7</ele>
        <time>2023-03-05T13:39:59Z</time>
      </trkpt>
      <trkpt lat="48.18199" lon="6.52625">
        <ele>414.8</ele>
        <time>2023-03-05T13:40:08Z</time>
      </trkpt>
      <trkpt lat="48.18196" lon="6.52638">
        <ele>415</ele>
        <time>2023-03-05T13:40:15Z</time>
      </trkpt>
      <trkpt lat="48.18192" lon="6.52651">
        <ele>415.1</ele>
        <time>2023-03-05T13:40:23Z</time>
      </trkpt>
      <trkpt lat="48.18185" lon="6.52664">
        <ele>415.3</ele>
        <time>2023-03-05T13:40:32Z</time>
      </trkpt>
      <trkpt lat="48.1818" lon="6.52677">
        <ele>415.5</ele>
        <time>2023-03-05T13:40:40Z</time>
      </trkpt>
      <trkpt lat="48.18176" lon="6.5269">
        <ele>415.7</ele>
        <time>2023-03-05T13:40:48Z</time>
      </trkpt>
      <trkpt lat="48.18174" lon="6.52704">
        <ele>415.9</ele>
        <time>2023-03-05T13:40:57Z</time>
      </trkpt>
      <trkpt lat="48.18169" lon="6.52717">
        <ele>416.1</ele>
        <time>2023-03-05T13:41:06Z</time>
      </trkpt>
      <trkpt lat="48.18164" lon="6.5273">
        <ele>416.2</ele>
        <time>2023-03-05T13:41:14Z</time>
      </trkpt>
      <trkpt lat="48.1816" lon="6.52742">
        <ele>416.3</ele>
        <time>2023-03-05T13:41:25Z</time>
      </trkpt>
      <trkpt lat="48.18157" lon="6.52755">
        <ele>416.4</ele>
        <time>2023-03-05T13:41:32Z</time>
      </trkpt>
      <trkpt lat="48.18149" lon="6.52766">
        <ele>416.3</ele>
        <time>2023-03-05T13:41:39Z</time>
      </trkpt>
      <trkpt lat="48.18142" lon="6.52777">
        <ele>416.2</ele>
        <time>2023-03-05T13:41:47Z</time>
      </trkpt>
      <trkpt lat="48.18138" lon="6.52791">
        <ele>415.9</ele>
        <time>2023-03-05T13:41:57Z</time>
      </trkpt>
      <trkpt lat="48.18133" lon="6.52803">
        <ele>415.7</ele>
        <time>2023-03-05T13:42:05Z</time>
      </trkpt>
      <trkpt lat="48.1813" lon="6.52817">
        <ele>415.5</ele>
        <time>2023-03-05T13:42:15Z</time>
      </trkpt>
      <trkpt lat="48.18122" lon="6.52822">
        <ele>415.2</ele>
        <time>2023-03-05T13:42:23Z</time>
      </trkpt>
      <trkpt lat="48.18114" lon="6.52831">
        <ele>414.9</ele>
        <time>2023-03-05T13:42:32Z</time>
      </trkpt>
      <trkpt lat="48.18109" lon="6.52845">
        <ele>414.6</ele>
        <time>2023-03-05T13:42:43Z</time>
      </trkpt>
      <trkpt lat="48.18102" lon="6.52855">
        <ele>414.2</ele>
        <time>2023-03-05T13:42:51Z</time>
      </trkpt>
      <trkpt lat="48.18097" lon="6.52867">
        <ele>413.8</ele>
        <time>2023-03-05T13:42:59Z</time>
      </trkpt>
      <trkpt lat="48.18094" lon="6.52882">
        <ele>413.3</ele>
        <time>2023-03-05T13:43:06Z</time>
      </trkpt>
      <trkpt lat="48.18089" lon="6.52895">
        <ele>412.8</ele>
        <time>2023-03-05T13:43:16Z</time>
      </trkpt>
      <trkpt lat="48.18087" lon="6.52908">
        <ele>412.2</ele>
        <time>2023-03-05T13:43:26Z</time>
      </trkpt>
      <trkpt lat="48.1808" lon="6.52918">
        <ele>411.6</ele>
        <time>2023-03-05T13:43:34Z</time>
      </trkpt>
      <trkpt lat="48.18074" lon="6.52928">
        <ele>411</ele>
        <time>2023-03-05T13:43:42Z</time>
      </trkpt>
      <trkpt lat="48.18067" lon="6.52938">
        <ele>410.5</ele>
        <time>2023-03-05T13:43:51Z</time>
      </trkpt>
      <trkpt lat="48.18063" lon="6.52951">
        <ele>409.9</ele>
        <time>2023-03-05T13:43:59Z</time>
      </trkpt>
      <trkpt lat="48.1806" lon="6.52966">
        <ele>409.3</ele>
        <time>2023-03-05T13:44:08Z</time>
      </trkpt>
      <trkpt lat="48.18058" lon="6.5298">
        <ele>408.8</ele>
        <time>2023-03-05T13:44:19Z</time>
      </trkpt>
      <trkpt lat="48.18052" lon="6.52991">
        <ele>408.2</ele>
        <time>2023-03-05T13:44:28Z</time>
      </trkpt>
      <trkpt lat="48.18052" lon="6.53004">
        <ele>407.7</ele>
        <time>2023-03-05T13:44:34Z</time>
      </trkpt>
      <trkpt lat="48.18055" lon="6.53019">
        <ele>407.1</ele>
        <time>2023-03-05T13:44:44Z</time>
      </trkpt>
      <trkpt lat="48.1805" lon="6.53031">
        <ele>406.5</ele>
        <time>2023-03-05T13:44:54Z</time>
      </trkpt>
      <trkpt lat="48.18045" lon="6.53043">
        <ele>406</ele>
        <time>2023-03-05T13:45:03Z</time>
      </trkpt>
      <trkpt lat="48.18045" lon="6.53058">
        <ele>405.3</ele>
        <time>2023-03-05T13:45:12Z</time>
      </trkpt>
      <trkpt lat="48.18046" lon="6.53073">
        <ele>404.7</ele>
        <time>2023-03-05T13:45:21Z</time>
      </trkpt>
      <trkpt lat="48.18044" lon="6.53087">
        <ele>404</ele>
        <time>2023-03-05T13:45:28Z</time>
      </trkpt>
      <trkpt lat="48.18046" lon="6.53103">
        <ele>403.4</ele>
        <time>2023-03-05T13:45:39Z</time>
      </trkpt>
      <trkpt lat="48.18048" lon="6.53117">
        <ele>402.8</ele>
        <time>2023-03-05T13:45:46Z</time>
      </trkpt>
      <trkpt lat="48.1805" lon="6.53133">
        <ele>402.2</ele>
        <time>2023-03-05T13:45:53Z</time>
      </trkpt>
      <trkpt lat="48.1805" lon="6.53147">
        <ele>401.5</ele>
        <time>2023-03-05T13:46:02Z</time>
      </trkpt>
      <trkpt lat="48.18045" lon="6.5316">
        <ele>400.8</ele>
        <time>2023-03-05T13:46:08Z</time>
      </trkpt>
      <trkpt lat="48.18045" lon="6.53174">
        <ele>400.1</ele>
        <time>2023-03-05T13:46:16Z</time>
      </trkpt>
      <trkpt lat="48.18042" lon="6.53189">
        <ele>399.3</ele>
        <time>2023-03-05T13:46:26Z</time>
      </trkpt>
      <trkpt lat="48.18045" lon="6.53202">
        <ele>398.5</ele>
        <time>2023-03-05T13:46:33Z</time>
      </trkpt>
      <trkpt lat="48.18049" lon="6.53215">
        <ele>397.7</ele>
        <time>2023-03-05T13:46:41Z</time>
      </trkpt>
      <trkpt lat="48.18054" lon="6.53227">
        <ele>396.9</ele>
        <time>2023-03-05T13:46:48Z</time>
      </trkpt>
      <trkpt lat="48.18058" lon="6.53241">
        <ele>396</ele>
        <time>2023-03-05T13:46:55Z</time>
      </trkpt>
      <trkpt lat="48.18059" lon="6.53256">
        <ele>395.2</ele>
        <time>2023-03-05T13:47:03Z</time>
      </trkpt>
      <trkpt lat="48.18057" lon="6.53269">
        <ele>394</ele>
        <time>2023-03-05T13:47:12Z</time>
      </trkpt>
      <trkpt lat="48.18056" lon="6.53284">
        <ele>392.7</ele>
        <time>2023-03-05T13:47:20Z</time>
      </trkpt>
      <trkpt lat="48.18056" lon="6.53298">
        <ele>391.8</ele>
        <time>2023-03-05T13:47:25Z</time>
      </trkpt>
      <trkpt lat="48.18062" lon="6.5331">
        <ele>390.6</ele>
        <time>2023-03-05T13:47:31Z</time>
      </trkpt>
      <trkpt lat="48.18063" lon="6.53324">
        <ele>389.4</ele>
        <time>2023-03-05T13:47:41Z</time>
      </trkpt>
      <trkpt lat="48.18063" lon="6.53338">
        <ele>388.2</ele>
        <time>2023-03-05T13:47:49Z</time>
      </trkpt>
      <trkpt lat="48.18064" lon="6.53353">
        <ele>386.6</ele>
        <time>2023-03-05T13:47:55Z</time>
      </trkpt>
      <trkpt lat="48.18066" lon="6.53368">
        <ele>385.1</ele>
        <time>2023-03-05T13:48:03Z</time>
      </trkpt>
      <trkpt lat="48.18068" lon="6.53381">
        <ele>383.9</ele>
        <time>2023-03-05T13:48:12Z</time>
      </trkpt>
      <trkpt lat="48.18071" lon="6.53395">
        <ele>382.5</ele>
        <time>2023-03-05T13:48:20Z</time>
      </trkpt>
      <trkpt lat="48.18076" lon="6.53408">
        <ele>381.2</ele>
        <time>2023-03-05T13:48:26Z</time>
      </trkpt>
      <trkpt lat="48.18081" lon="6.53422">
        <ele>380</ele>
        <time>2023-03-05T13:48:35Z</time>
      </trkpt>
      <trkpt lat="48.18082" lon="6.53437">
        <ele>379</ele>
        <time>2023-03-05T13:48:43Z</time>
      </trkpt>
      <trkpt lat="48.18086" lon="6.53452">
        <ele>378.5</ele>
        <time>2023-03-05T13:48:51Z</time>
      </trkpt>
      <trkpt lat="48.18094" lon="6.53459">
        <ele>378</ele>
        <time>2023-03-05T13:48:55Z</time>
      </trkpt>
      <trkpt lat="48.18103" lon="6.53462">
        <ele>377.6</ele>
        <time>2023-03-05T13:49:00Z</time>
      </trkpt>
      <trkpt lat="48.1811" lon="6.53471">
        <ele>377.3</ele>
        <time>2023-03-05T13:49:07Z</time>
      </trkpt>
      <trkpt lat="48.18115" lon="6.53484">
        <ele>377</ele>
        <time>2023-03-05T13:49:16Z</time>
      </trkpt>
      <trkpt lat="48.18113" lon="6.53498">
        <ele>377.5</ele>
        <time>2023-03-05T13:49:26Z</time>
      </trkpt>
      <trkpt lat="48.18103" lon="6.53499">
        <ele>377.8</ele>
        <time>2023-03-05T13:49:36Z</time>
      </trkpt>
      <trkpt lat="48.18094" lon="6.53501">
        <ele>378.2</ele>
        <time>2023-03-05T13:49:42Z</time>
      </trkpt>
      <trkpt lat="48.1809" lon="6.53513">
        <ele>378.6</ele>
        <time>2023-03-05T13:49:51Z</time>
      </trkpt>
      <trkpt lat="48.18081" lon="6.53514">
        <ele>379</ele>
        <time>2023-03-05T13:49:58Z</time>
      </trkpt>
      <trkpt lat="48.18077" lon="6.53527">
        <ele>379.4</ele>
        <time>2023-03-05T13:50:06Z</time>
      </trkpt>
      <trkpt lat="48.18073" lon="6.53541">
        <ele>379.9</ele>
        <time>2023-03-05T13:50:15Z</time>
      </trkpt>
      <trkpt lat="48.18065" lon="6.53548">
        <ele>380.4</ele>
        <time>2023-03-05T13:50:29Z</time>
      </trkpt>
      <trkpt lat="48.18057" lon="6.53556">
        <ele>380.9</ele>
        <time>2023-03-05T13:50:38Z</time>
      </trkpt>
      <trkpt lat="48.18058" lon="6.53571">
        <ele>382.3</ele>
        <time>2023-03-05T13:50:48Z</time>
      </trkpt>
      <trkpt lat="48.18056" lon="6.53586">
        <ele>383.8</ele>
        <time>2023-03-05T13:51:00Z</time>
      </trkpt>
      <trkpt lat="48.18054" lon="6.53601">
        <ele>385.4</ele>
        <time>2023-03-05T13:51:09Z</time>
      </trkpt>
      <trkpt lat="48.18046" lon="6.5361">
        <ele>387</ele>
        <time>2023-03-05T13:51:18Z</time>
      </trkpt>
      <trkpt lat="48.1796" lon="6.53749">
        <ele>393.2</ele>
        <time>2023-03-05T13:53:16Z</time>
      </trkpt>
      <trkpt lat="48.1795" lon="6.53725">
        <ele>393.8</ele>
        <time>2023-03-05T13:53:18Z</time>
      </trkpt>
      <trkpt lat="48.17941" lon="6.53722">
        <ele>394.2</ele>
        <time>2023-03-05T13:53:21Z</time>
      </trkpt>
      <trkpt lat="48.17935" lon="6.53712">
        <ele>394.6</ele>
        <time>2023-03-05T13:53:24Z</time>
      </trkpt>
      <trkpt lat="48.17925" lon="6.53706">
        <ele>394.9</ele>
        <time>2023-03-05T13:53:28Z</time>
      </trkpt>
      <trkpt lat="48.1792" lon="6.53718">
        <ele>395</ele>
        <time>2023-03-05T13:53:36Z</time>
      </trkpt>
      <trkpt lat="48.17911" lon="6.53718">
        <ele>395</ele>
        <time>2023-03-05T13:53:41Z</time>
      </trkpt>
      <trkpt lat="48.17907" lon="6.53706">
        <ele>394.8</ele>
        <time>2023-03-05T13:53:52Z</time>
      </trkpt>
      <trkpt lat="48.17908" lon="6.5372">
        <ele>394.6</ele>
        <time>2023-03-05T13:54:03Z</time>
      </trkpt>
      <trkpt lat="48.179" lon="6.53728">
        <ele>394.4</ele>
        <time>2023-03-05T13:54:09Z</time>
      </trkpt>
      <trkpt lat="48.17892" lon="6.53734">
        <ele>394.3</ele>
        <time>2023-03-05T13:54:18Z</time>
      </trkpt>
      <trkpt lat="48.17886" lon="6.53746">
        <ele>394.5</ele>
        <time>2023-03-05T13:54:28Z</time>
      </trkpt>
      <trkpt lat="48.17875" lon="6.53745">
        <ele>395.2</ele>
        <time>2023-03-05T13:54:34Z</time>
      </trkpt>
      <trkpt lat="48.17865" lon="6.53741">
        <ele>395.9</ele>
        <time>2023-03-05T13:54:38Z</time>
      </trkpt>
      <trkpt lat="48.17862" lon="6.53757">
        <ele>396.6</ele>
        <time>2023-03-05T13:54:45Z</time>
      </trkpt>
      <trkpt lat="48.17861" lon="6.53771">
        <ele>397.2</ele>
        <time>2023-03-05T13:54:51Z</time>
      </trkpt>
      <trkpt lat="48.17852" lon="6.53776">
        <ele>397.8</ele>
        <time>2023-03-05T13:55:02Z</time>
      </trkpt>
      <trkpt lat="48.17852" lon="6.53776">
        <ele>397.8</ele>
        <time>2023-03-05T13:55:03Z</time>
      </trkpt>
      <trkpt lat="48.17852" lon="6.53778">
        <ele>397.9</ele>
        <time>2023-03-05T13:55:04Z</time>
      </trkpt>
      <trkpt lat="48.17845" lon="6.53787">
        <ele>398.6</ele>
        <time>2023-03-05T13:55:10Z</time>
      </trkpt>
      <trkpt lat="48.17838" lon="6.53796">
        <ele>399.4</ele>
        <time>2023-03-05T13:55:19Z</time>
      </trkpt>
      <trkpt lat="48.17832" lon="6.53807">
        <ele>400.2</ele>
        <time>2023-03-05T13:55:26Z</time>
      </trkpt>
      <trkpt lat="48.17827" lon="6.53819">
        <ele>400.9</ele>
        <time>2023-03-05T13:55:34Z</time>
      </trkpt>
      <trkpt lat="48.17827" lon="6.53834">
        <ele>401.5</ele>
        <time>2023-03-05T13:55:41Z</time>
      </trkpt>
      <trkpt lat="48.17824" lon="6.53847">
        <ele>401.9</ele>
        <time>2023-03-05T13:55:48Z</time>
      </trkpt>
      <trkpt lat="48.17817" lon="6.5386">
        <ele>402.5</ele>
        <time>2023-03-05T13:55:58Z</time>
      </trkpt>
      <trkpt lat="48.17807" lon="6.53864">
        <ele>403.4</ele>
        <time>2023-03-05T13:56:06Z</time>
      </trkpt>
      <trkpt lat="48.17798" lon="6.53864">
        <ele>404.5</ele>
        <time>2023-03-05T13:56:10Z</time>
      </trkpt>
      <trkpt lat="48.17792" lon="6.53874">
        <ele>405.8</ele>
        <time>2023-03-05T13:56:23Z</time>
      </trkpt>
      <trkpt lat="48.17789" lon="6.5389">
        <ele>407.3</ele>
        <time>2023-03-05T13:56:32Z</time>
      </trkpt>
      <trkpt lat="48.17789" lon="6.53904">
        <ele>408.5</ele>
        <time>2023-03-05T13:56:39Z</time>
      </trkpt>
      <trkpt lat="48.17789" lon="6.53919">
        <ele>409.8</ele>
        <time>2023-03-05T13:56:47Z</time>
      </trkpt>
      <trkpt lat="48.17786" lon="6.53933">
        <ele>411.2</ele>
        <time>2023-03-05T13:56:58Z</time>
      </trkpt>
      <trkpt lat="48.1778" lon="6.53945">
        <ele>412.4</ele>
        <time>2023-03-05T13:57:06Z</time>
      </trkpt>
      <trkpt lat="48.17779" lon="6.53959">
        <ele>413.4</ele>
        <time>2023-03-05T13:57:15Z</time>
      </trkpt>
      <trkpt lat="48.17781" lon="6.53975">
        <ele>414.4</ele>
        <time>2023-03-05T13:57:23Z</time>
      </trkpt>
      <trkpt lat="48.17783" lon="6.53988">
        <ele>415</ele>
        <time>2023-03-05T13:57:32Z</time>
      </trkpt>
      <trkpt lat="48.1778" lon="6.54001">
        <ele>415.4</ele>
        <time>2023-03-05T13:57:44Z</time>
      </trkpt>
      <trkpt lat="48.1779" lon="6.54007">
        <ele>416</ele>
        <time>2023-03-05T13:57:53Z</time>
      </trkpt>
      <trkpt lat="48.17785" lon="6.54019">
        <ele>416.4</ele>
        <time>2023-03-05T13:58:11Z</time>
      </trkpt>
      <trkpt lat="48.17782" lon="6.54033">
        <ele>416.9</ele>
        <time>2023-03-05T13:58:18Z</time>
      </trkpt>
      <trkpt lat="48.17781" lon="6.54047">
        <ele>417.3</ele>
        <time>2023-03-05T13:58:27Z</time>
      </trkpt>
      <trkpt lat="48.17785" lon="6.54061">
        <ele>417.4</ele>
        <time>2023-03-05T13:58:34Z</time>
      </trkpt>
      <trkpt lat="48.17786" lon="6.54074">
        <ele>417.2</ele>
        <time>2023-03-05T13:58:40Z</time>
      </trkpt>
      <trkpt lat="48.17785" lon="6.54089">
        <ele>416.7</ele>
        <time>2023-03-05T13:58:48Z</time>
      </trkpt>
      <trkpt lat="48.17784" lon="6.54103">
        <ele>416</ele>
        <time>2023-03-05T13:58:58Z</time>
      </trkpt>
      <trkpt lat="48.17783" lon="6.54117">
        <ele>415.2</ele>
        <time>2023-03-05T13:59:07Z</time>
      </trkpt>
      <trkpt lat="48.17781" lon="6.54131">
        <ele>414.8</ele>
        <time>2023-03-05T13:59:18Z</time>
      </trkpt>
      <trkpt lat="48.17772" lon="6.54132">
        <ele>414.9</ele>
        <time>2023-03-05T13:59:25Z</time>
      </trkpt>
      <trkpt lat="48.17763" lon="6.54135">
        <ele>415.5</ele>
        <time>2023-03-05T13:59:33Z</time>
      </trkpt>
      <trkpt lat="48.17757" lon="6.54146">
        <ele>416.4</ele>
        <time>2023-03-05T13:59:41Z</time>
      </trkpt>
      <trkpt lat="48.1775" lon="6.54158">
        <ele>417.4</ele>
        <time>2023-03-05T13:59:51Z</time>
      </trkpt>
      <trkpt lat="48.17742" lon="6.54164">
        <ele>418.4</ele>
        <time>2023-03-05T14:00:00Z</time>
      </trkpt>
      <trkpt lat="48.17736" lon="6.54175">
        <ele>419.2</ele>
        <time>2023-03-05T14:00:11Z</time>
      </trkpt>
      <trkpt lat="48.17735" lon="6.5419">
        <ele>419.7</ele>
        <time>2023-03-05T14:00:21Z</time>
      </trkpt>
      <trkpt lat="48.17734" lon="6.54205">
        <ele>420</ele>
        <time>2023-03-05T14:00:26Z</time>
      </trkpt>
      <trkpt lat="48.17734" lon="6.5422">
        <ele>420</ele>
        <time>2023-03-05T14:00:33Z</time>
      </trkpt>
      <trkpt lat="48.17729" lon="6.54232">
        <ele>399.1</ele>
        <time>2023-03-05T14:00:43Z</time>
      </trkpt>
      <trkpt lat="48.17725" lon="6.54245">
        <ele>399.7</ele>
        <time>2023-03-05T14:00:54Z</time>
      </trkpt>
      <trkpt lat="48.1772" lon="6.54258">
        <ele>400.3</ele>
        <time>2023-03-05T14:01:04Z</time>
      </trkpt>
      <trkpt lat="48.17711" lon="6.54262">
        <ele>401</ele>
        <time>2023-03-05T14:01:15Z</time>
      </trkpt>
      <trkpt lat="48.17702" lon="6.54265">
        <ele>401.8</ele>
        <time>2023-03-05T14:01:25Z</time>
      </trkpt>
      <trkpt lat="48.17692" lon="6.54263">
        <ele>402.7</ele>
        <time>2023-03-05T14:01:32Z</time>
      </trkpt>
      <trkpt lat="48.17682" lon="6.54263">
        <ele>403.5</ele>
        <time>2023-03-05T14:01:40Z</time>
      </trkpt>
      <trkpt lat="48.17673" lon="6.54261">
        <ele>404.4</ele>
        <time>2023-03-05T14:01:49Z</time>
      </trkpt>
      <trkpt lat="48.17664" lon="6.54257">
        <ele>405.1</ele>
        <time>2023-03-05T14:01:57Z</time>
      </trkpt>
      <trkpt lat="48.17655" lon="6.5426">
        <ele>405.7</ele>
        <time>2023-03-05T14:02:07Z</time>
      </trkpt>
      <trkpt lat="48.17645" lon="6.5426">
        <ele>406.3</ele>
        <time>2023-03-05T14:02:17Z</time>
      </trkpt>
      <trkpt lat="48.17636" lon="6.54259">
        <ele>406.7</ele>
        <time>2023-03-05T14:02:24Z</time>
      </trkpt>
      <trkpt lat="48.17627" lon="6.54261">
        <ele>407</ele>
        <time>2023-03-05T14:02:33Z</time>
      </trkpt>
      <trkpt lat="48.17617" lon="6.54261">
        <ele>407.3</ele>
        <time>2023-03-05T14:02:42Z</time>
      </trkpt>
      <trkpt lat="48.17608" lon="6.54259">
        <ele>407.5</ele>
        <time>2023-03-05T14:02:51Z</time>
      </trkpt>
      <trkpt lat="48.17599" lon="6.54255">
        <ele>407.9</ele>
        <time>2023-03-05T14:03:00Z</time>
      </trkpt>
      <trkpt lat="48.17589" lon="6.54256">
        <ele>408.3</ele>
        <time>2023-03-05T14:03:07Z</time>
      </trkpt>
      <trkpt lat="48.17581" lon="6.54262">
        <ele>408.8</ele>
        <time>2023-03-05T14:03:16Z</time>
      </trkpt>
      <trkpt lat="48.17571" lon="6.54266">
        <ele>409.3</ele>
        <time>2023-03-05T14:03:29Z</time>
      </trkpt>
      <trkpt lat="48.17562" lon="6.54269">
        <ele>409.9</ele>
        <time>2023-03-05T14:03:35Z</time>
      </trkpt>
      <trkpt lat="48.17554" lon="6.54266">
        <ele>410.5</ele>
        <time>2023-03-05T14:03:42Z</time>
      </trkpt>
      <trkpt lat="48.17544" lon="6.54267">
        <ele>411.1</ele>
        <time>2023-03-05T14:03:50Z</time>
      </trkpt>
      <trkpt lat="48.17535" lon="6.54269">
        <ele>411.8</ele>
        <time>2023-03-05T14:04:00Z</time>
      </trkpt>
      <trkpt lat="48.17526" lon="6.54276">
        <ele>412.7</ele>
        <time>2023-03-05T14:04:09Z</time>
      </trkpt>
      <trkpt lat="48.17516" lon="6.54275">
        <ele>413.6</ele>
        <time>2023-03-05T14:04:16Z</time>
      </trkpt>
      <trkpt lat="48.17506" lon="6.54274">
        <ele>414.4</ele>
        <time>2023-03-05T14:04:23Z</time>
      </trkpt>
      <trkpt lat="48.17496" lon="6.54276">
        <ele>415.2</ele>
        <time>2023-03-05T14:04:31Z</time>
      </trkpt>
      <trkpt lat="48.17487" lon="6.54281">
        <ele>415.9</ele>
        <time>2023-03-05T14:04:40Z</time>
      </trkpt>
      <trkpt lat="48.17479" lon="6.54287">
        <ele>416.5</ele>
        <time>2023-03-05T14:04:51Z</time>
      </trkpt>
      <trkpt lat="48.1747" lon="6.54289">
        <ele>417.2</ele>
        <time>2023-03-05T14:04:58Z</time>
      </trkpt>
      <trkpt lat="48.1746" lon="6.54292">
        <ele>417.9</ele>
        <time>2023-03-05T14:05:08Z</time>
      </trkpt>
      <trkpt lat="48.17451" lon="6.54294">
        <ele>418.8</ele>
        <time>2023-03-05T14:05:17Z</time>
      </trkpt>
      <trkpt lat="48.17441" lon="6.5429">
        <ele>419.8</ele>
        <time>2023-03-05T14:05:26Z</time>
      </trkpt>
      <trkpt lat="48.17431" lon="6.54289">
        <ele>420.8</ele>
        <time>2023-03-05T14:05:33Z</time>
      </trkpt>
      <trkpt lat="48.17422" lon="6.54293">
        <ele>421.8</ele>
        <time>2023-03-05T14:05:40Z</time>
      </trkpt>
      <trkpt lat="48.17413" lon="6.54297">
        <ele>422.8</ele>
        <time>2023-03-05T14:05:48Z</time>
      </trkpt>
      <trkpt lat="48.17404" lon="6.54298">
        <ele>423.8</ele>
        <time>2023-03-05T14:05:54Z</time>
      </trkpt>
      <trkpt lat="48.17395" lon="6.54305">
        <ele>424.8</ele>
        <time>2023-03-05T14:06:02Z</time>
      </trkpt>
      <trkpt lat="48.17386" lon="6.54314">
        <ele>425.5</ele>
        <time>2023-03-05T14:06:09Z</time>
      </trkpt>
      <trkpt lat="48.17378" lon="6.54323">
        <ele>426.1</ele>
        <time>2023-03-05T14:06:16Z</time>
      </trkpt>
      <trkpt lat="48.17368" lon="6.54325">
        <ele>426.8</ele>
        <time>2023-03-05T14:06:25Z</time>
      </trkpt>
      <trkpt lat="48.17358" lon="6.54325">
        <ele>427.3</ele>
        <time>2023-03-05T14:06:33Z</time>
      </trkpt>
      <trkpt lat="48.17349" lon="6.54328">
        <ele>427.8</ele>
        <time>2023-03-05T14:06:42Z</time>
      </trkpt>
      <trkpt lat="48.17339" lon="6.54331">
        <ele>428.4</ele>
        <time>2023-03-05T14:06:51Z</time>
      </trkpt>
      <trkpt lat="48.1733" lon="6.54333">
        <ele>429</ele>
        <time>2023-03-05T14:06:58Z</time>
      </trkpt>
      <trkpt lat="48.17321" lon="6.54333">
        <ele>429.7</ele>
        <time>2023-03-05T14:07:07Z</time>
      </trkpt>
      <trkpt lat="48.17311" lon="6.54334">
        <ele>430.5</ele>
        <time>2023-03-05T14:07:21Z</time>
      </trkpt>
      <trkpt lat="48.17302" lon="6.54338">
        <ele>431.4</ele>
        <time>2023-03-05T14:07:28Z</time>
      </trkpt>
      <trkpt lat="48.17293" lon="6.54339">
        <ele>431.7</ele>
        <time>2023-03-05T14:07:38Z</time>
      </trkpt>
      <trkpt lat="48.17284" lon="6.54335">
        <ele>432.2</ele>
        <time>2023-03-05T14:07:49Z</time>
      </trkpt>
      <trkpt lat="48.17275" lon="6.54332">
        <ele>432.7</ele>
        <time>2023-03-05T14:08:00Z</time>
      </trkpt>
      <trkpt lat="48.17265" lon="6.5433">
        <ele>433.2</ele>
        <time>2023-03-05T14:08:11Z</time>
      </trkpt>
      <trkpt lat="48.17258" lon="6.54322">
        <ele>433.8</ele>
        <time>2023-03-05T14:08:18Z</time>
      </trkpt>
      <trkpt lat="48.17247" lon="6.5432">
        <ele>434.5</ele>
        <time>2023-03-05T14:08:26Z</time>
      </trkpt>
      <trkpt lat="48.17238" lon="6.54318">
        <ele>435.3</ele>
        <time>2023-03-05T14:08:34Z</time>
      </trkpt>
      <trkpt lat="48.1723" lon="6.5431">
        <ele>435.6</ele>
        <time>2023-03-05T14:08:45Z</time>
      </trkpt>
      <trkpt lat="48.17221" lon="6.54302">
        <ele>436.2</ele>
        <time>2023-03-05T14:08:55Z</time>
      </trkpt>
      <trkpt lat="48.17212" lon="6.54296">
        <ele>436.5</ele>
        <time>2023-03-05T14:09:02Z</time>
      </trkpt>
      <trkpt lat="48.17203" lon="6.54291">
        <ele>436.9</ele>
        <time>2023-03-05T14:09:08Z</time>
      </trkpt>
      <trkpt lat="48.17195" lon="6.54285">
        <ele>437.4</ele>
        <time>2023-03-05T14:09:14Z</time>
      </trkpt>
      <trkpt lat="48.17186" lon="6.54283">
        <ele>438</ele>
        <time>2023-03-05T14:09:21Z</time>
      </trkpt>
      <trkpt lat="48.17177" lon="6.54277">
        <ele>438.4</ele>
        <time>2023-03-05T14:09:27Z</time>
      </trkpt>
      <trkpt lat="48.17168" lon="6.54271">
        <ele>438.8</ele>
        <time>2023-03-05T14:09:36Z</time>
      </trkpt>
      <trkpt lat="48.17159" lon="6.5427">
        <ele>439</ele>
        <time>2023-03-05T14:09:46Z</time>
      </trkpt>
      <trkpt lat="48.17149" lon="6.54271">
        <ele>439.1</ele>
        <time>2023-03-05T14:09:53Z</time>
      </trkpt>
      <trkpt lat="48.17138" lon="6.54268">
        <ele>439.1</ele>
        <time>2023-03-05T14:09:59Z</time>
      </trkpt>
      <trkpt lat="48.1713" lon="6.54262">
        <ele>439</ele>
        <time>2023-03-05T14:10:06Z</time>
      </trkpt>
      <trkpt lat="48.17122" lon="6.54256">
        <ele>438.7</ele>
        <time>2023-03-05T14:10:12Z</time>
      </trkpt>
      <trkpt lat="48.17114" lon="6.5425">
        <ele>438.3</ele>
        <time>2023-03-05T14:10:23Z</time>
      </trkpt>
      <trkpt lat="48.17106" lon="6.54242">
        <ele>437.9</ele>
        <time>2023-03-05T14:10:29Z</time>
      </trkpt>
      <trkpt lat="48.17098" lon="6.54235">
        <ele>437.6</ele>
        <time>2023-03-05T14:10:37Z</time>
      </trkpt>
      <trkpt lat="48.17096" lon="6.54232">
        <ele>437.5</ele>
        <time>2023-03-05T14:10:41Z</time>
      </trkpt>
      <trkpt lat="48.17096" lon="6.54232">
        <ele>437.5</ele>
        <time>2023-03-05T14:10:42Z</time>
      </trkpt>
      <trkpt lat="48.17088" lon="6.54225">
        <ele>437.2</ele>
        <time>2023-03-05T14:10:57Z</time>
      </trkpt>
      <trkpt lat="48.17078" lon="6.5422">
        <ele>437.1</ele>
        <time>2023-03-05T14:11:03Z</time>
      </trkpt>
      <trkpt lat="48.17067" lon="6.54215">
        <ele>437</ele>
        <time>2023-03-05T14:11:11Z</time>
      </trkpt>
      <trkpt lat="48.17057" lon="6.54213">
        <ele>437</ele>
        <time>2023-03-05T14:11:18Z</time>
      </trkpt>
      <trkpt lat="48.17049" lon="6.54206">
        <ele>436.9</ele>
        <time>2023-03-05T14:11:24Z</time>
      </trkpt>
      <trkpt lat="48.1704" lon="6.54202">
        <ele>437</ele>
        <time>2023-03-05T14:11:32Z</time>
      </trkpt>
      <trkpt lat="48.17031" lon="6.54201">
        <ele>437</ele>
        <time>2023-03-05T14:11:40Z</time>
      </trkpt>
      <trkpt lat="48.17022" lon="6.542">
        <ele>437.1</ele>
        <time>2023-03-05T14:11:48Z</time>
      </trkpt>
      <trkpt lat="48.17013" lon="6.54194">
        <ele>437</ele>
        <time>2023-03-05T14:11:56Z</time>
      </trkpt>
      <trkpt lat="48.17003" lon="6.54193">
        <ele>436.9</ele>
        <time>2023-03-05T14:12:03Z</time>
      </trkpt>
      <trkpt lat="48.16994" lon="6.54188">
        <ele>436.7</ele>
        <time>2023-03-05T14:12:11Z</time>
      </trkpt>
      <trkpt lat="48.16985" lon="6.54186">
        <ele>436.8</ele>
        <time>2023-03-05T14:12:20Z</time>
      </trkpt>
      <trkpt lat="48.16979" lon="6.54181">
        <ele>436.6</ele>
        <time>2023-03-05T14:12:30Z</time>
      </trkpt>
      <trkpt lat="48.16979" lon="6.54182">
        <ele>436.7</ele>
        <time>2023-03-05T14:12:31Z</time>
      </trkpt>
      <trkpt lat="48.1697" lon="6.54179">
        <ele>436.6</ele>
        <time>2023-03-05T14:12:40Z</time>
      </trkpt>
      <trkpt lat="48.1696" lon="6.54171">
        <ele>436.6</ele>
        <time>2023-03-05T14:12:48Z</time>
      </trkpt>
      <trkpt lat="48.16952" lon="6.54164">
        <ele>436.7</ele>
        <time>2023-03-05T14:12:57Z</time>
      </trkpt>
      <trkpt lat="48.16944" lon="6.54158">
        <ele>436.8</ele>
        <time>2023-03-05T14:13:10Z</time>
      </trkpt>
      <trkpt lat="48.16949" lon="6.54146">
        <ele>436.5</ele>
        <time>2023-03-05T14:13:21Z</time>
      </trkpt>
      <trkpt lat="48.16954" lon="6.54132">
        <ele>436.1</ele>
        <time>2023-03-05T14:13:32Z</time>
      </trkpt>
      <trkpt lat="48.16958" lon="6.54118">
        <ele>435.7</ele>
        <time>2023-03-05T14:13:39Z</time>
      </trkpt>
      <trkpt lat="48.16962" lon="6.54105">
        <ele>435.4</ele>
        <time>2023-03-05T14:13:50Z</time>
      </trkpt>
      <trkpt lat="48.16965" lon="6.54093">
        <ele>435</ele>
        <time>2023-03-05T14:14:02Z</time>
      </trkpt>
      <trkpt lat="48.16967" lon="6.54078">
        <ele>434.6</ele>
        <time>2023-03-05T14:14:12Z</time>
      </trkpt>
      <trkpt lat="48.16972" lon="6.54064">
        <ele>434.2</ele>
        <time>2023-03-05T14:14:21Z</time>
      </trkpt>
      <trkpt lat="48.16975" lon="6.54051">
        <ele>433.9</ele>
        <time>2023-03-05T14:14:32Z</time>
      </trkpt>
      <trkpt lat="48.16975" lon="6.54036">
        <ele>433.5</ele>
        <time>2023-03-05T14:14:38Z</time>
      </trkpt>
      <trkpt lat="48.16975" lon="6.54021">
        <ele>433.1</ele>
        <time>2023-03-05T14:14:43Z</time>
      </trkpt>
      <trkpt lat="48.16977" lon="6.54007">
        <ele>432.6</ele>
        <time>2023-03-05T14:14:52Z</time>
      </trkpt>
      <trkpt lat="48.16982" lon="6.53995">
        <ele>432.2</ele>
        <time>2023-03-05T14:14:59Z</time>
      </trkpt>
      <trkpt lat="48.16982" lon="6.5398">
        <ele>431.8</ele>
        <time>2023-03-05T14:15:09Z</time>
      </trkpt>
      <trkpt lat="48.16983" lon="6.53966">
        <ele>431.4</ele>
        <time>2023-03-05T14:15:18Z</time>
      </trkpt>
      <trkpt lat="48.16981" lon="6.53951">
        <ele>431</ele>
        <time>2023-03-05T14:15:28Z</time>
      </trkpt>
      <trkpt lat="48.16981" lon="6.53943">
        <ele>430.9</ele>
        <time>2023-03-05T14:15:35Z</time>
      </trkpt>
      <trkpt lat="48.16981" lon="6.53942">
        <ele>430.9</ele>
        <time>2023-03-05T14:15:36Z</time>
      </trkpt>
      <trkpt lat="48.16979" lon="6.53928">
        <ele>430.7</ele>
        <time>2023-03-05T14:15:45Z</time>
      </trkpt>
      <trkpt lat="48.16979" lon="6.53913">
        <ele>430.5</ele>
        <time>2023-03-05T14:15:53Z</time>
      </trkpt>
      <trkpt lat="48.16974" lon="6.53901">
        <ele>430.4</ele>
        <time>2023-03-05T14:16:00Z</time>
      </trkpt>
      <trkpt lat="48.16969" lon="6.5389">
        <ele>430.3</ele>
        <time>2023-03-05T14:16:05Z</time>
      </trkpt>
      <trkpt lat="48.16965" lon="6.53876">
        <ele>430.2</ele>
        <time>2023-03-05T14:16:13Z</time>
      </trkpt>
      <trkpt lat="48.1696" lon="6.53863">
        <ele>430.2</ele>
        <time>2023-03-05T14:16:20Z</time>
      </trkpt>
      <trkpt lat="48.16961" lon="6.53849">
        <ele>430.2</ele>
        <time>2023-03-05T14:16:26Z</time>
      </trkpt>
      <trkpt lat="48.16959" lon="6.53835">
        <ele>430.1</ele>
        <time>2023-03-05T14:16:35Z</time>
      </trkpt>
      <trkpt lat="48.16957" lon="6.53819">
        <ele>430.1</ele>
        <time>2023-03-05T14:16:44Z</time>
      </trkpt>
      <trkpt lat="48.16957" lon="6.53804">
        <ele>430</ele>
        <time>2023-03-05T14:16:51Z</time>
      </trkpt>
      <trkpt lat="48.16954" lon="6.5379">
        <ele>430</ele>
        <time>2023-03-05T14:17:01Z</time>
      </trkpt>
      <trkpt lat="48.16954" lon="6.53775">
        <ele>429.9</ele>
        <time>2023-03-05T14:17:14Z</time>
      </trkpt>
      <trkpt lat="48.16951" lon="6.53762">
        <ele>429.8</ele>
        <time>2023-03-05T14:17:22Z</time>
      </trkpt>
      <trkpt lat="48.16948" lon="6.53749">
        <ele>429.7</ele>
        <time>2023-03-05T14:17:31Z</time>
      </trkpt>
      <trkpt lat="48.16945" lon="6.53735">
        <ele>429.7</ele>
        <time>2023-03-05T14:17:37Z</time>
      </trkpt>
      <trkpt lat="48.16942" lon="6.53722">
        <ele>429.6</ele>
        <time>2023-03-05T14:17:44Z</time>
      </trkpt>
      <trkpt lat="48.16939" lon="6.53708">
        <ele>429.6</ele>
        <time>2023-03-05T14:17:52Z</time>
      </trkpt>
      <trkpt lat="48.16935" lon="6.53696">
        <ele>429.5</ele>
        <time>2023-03-05T14:18:03Z</time>
      </trkpt>
      <trkpt lat="48.16938" lon="6.53696">
        <ele>429.5</ele>
        <time>2023-03-05T14:18:17Z</time>
      </trkpt>
      <trkpt lat="48.16938" lon="6.53696">
        <ele>429.5</ele>
        <time>2023-03-05T14:18:18Z</time>
      </trkpt>
      <trkpt lat="48.16937" lon="6.53682">
        <ele>429.5</ele>
        <time>2023-03-05T14:18:29Z</time>
      </trkpt>
      <trkpt lat="48.16935" lon="6.53668">
        <ele>429.4</ele>
        <time>2023-03-05T14:18:37Z</time>
      </trkpt>
      <trkpt lat="48.16934" lon="6.53656">
        <ele>429.3</ele>
        <time>2023-03-05T14:18:45Z</time>
      </trkpt>
      <trkpt lat="48.16934" lon="6.53655">
        <ele>429.3</ele>
        <time>2023-03-05T14:18:46Z</time>
      </trkpt>
      <trkpt lat="48.1693" lon="6.53641">
        <ele>429.1</ele>
        <time>2023-03-05T14:19:14Z</time>
      </trkpt>
      <trkpt lat="48.16927" lon="6.53626">
        <ele>429</ele>
        <time>2023-03-05T14:19:22Z</time>
      </trkpt>
      <trkpt lat="48.16926" lon="6.53611">
        <ele>428.8</ele>
        <time>2023-03-05T14:19:32Z</time>
      </trkpt>
      <trkpt lat="48.16923" lon="6.53597">
        <ele>428.6</ele>
        <time>2023-03-05T14:19:40Z</time>
      </trkpt>
      <trkpt lat="48.16917" lon="6.53586">
        <ele>428.5</ele>
        <time>2023-03-05T14:19:47Z</time>
      </trkpt>
      <trkpt lat="48.16915" lon="6.53572">
        <ele>428.3</ele>
        <time>2023-03-05T14:19:57Z</time>
      </trkpt>
      <trkpt lat="48.1691" lon="6.53558">
        <ele>428.1</ele>
        <time>2023-03-05T14:20:05Z</time>
      </trkpt>
      <trkpt lat="48.16909" lon="6.53543">
        <ele>427.9</ele>
        <time>2023-03-05T14:20:12Z</time>
      </trkpt>
      <trkpt lat="48.16903" lon="6.53532">
        <ele>427.7</ele>
        <time>2023-03-05T14:20:20Z</time>
      </trkpt>
      <trkpt lat="48.16904" lon="6.53518">
        <ele>427.5</ele>
        <time>2023-03-05T14:20:34Z</time>
      </trkpt>
      <trkpt lat="48.16912" lon="6.5351">
        <ele>427.2</ele>
        <time>2023-03-05T14:20:41Z</time>
      </trkpt>
      <trkpt lat="48.16915" lon="6.53498">
        <ele>427</ele>
        <time>2023-03-05T14:20:56Z</time>
      </trkpt>
      <trkpt lat="48.16915" lon="6.53498">
        <ele>427</ele>
        <time>2023-03-05T14:20:57Z</time>
      </trkpt>
      <trkpt lat="48.16921" lon="6.53486">
        <ele>426.8</ele>
        <time>2023-03-05T14:21:29Z</time>
      </trkpt>
      <trkpt lat="48.16923" lon="6.53473">
        <ele>426.6</ele>
        <time>2023-03-05T14:21:40Z</time>
      </trkpt>
      <trkpt lat="48.16923" lon="6.53461">
        <ele>426.4</ele>
        <time>2023-03-05T14:21:55Z</time>
      </trkpt>
      <trkpt lat="48.16923" lon="6.53461">
        <ele>426.4</ele>
        <time>2023-03-05T14:21:56Z</time>
      </trkpt>
      <trkpt lat="48.16922" lon="6.53456">
        <ele>426.3</ele>
        <time>2023-03-05T14:22:06Z</time>
      </trkpt>
      <trkpt lat="48.16922" lon="6.53456">
        <ele>426.3</ele>
        <time>2023-03-05T14:22:07Z</time>
      </trkpt>
      <trkpt lat="48.16922" lon="6.53455">
        <ele>426.2</ele>
        <time>2023-03-05T14:22:12Z</time>
      </trkpt>
      <trkpt lat="48.16923" lon="6.53456">
        <ele>426.2</ele>
        <time>2023-03-05T14:22:13Z</time>
      </trkpt>
      <trkpt lat="48.16923" lon="6.53455">
        <ele>426.2</ele>
        <time>2023-03-05T14:22:15Z</time>
      </trkpt>
      <trkpt lat="48.16923" lon="6.53454">
        <ele>426.2</ele>
        <time>2023-03-05T14:22:17Z</time>
      </trkpt>
      <trkpt lat="48.16923" lon="6.53453">
        <ele>426.2</ele>
        <time>2023-03-05T14:22:22Z</time>
      </trkpt>
      <trkpt lat="48.16924" lon="6.53453">
        <ele>426.2</ele>
        <time>2023-03-05T14:22:23Z</time>
      </trkpt>
      <trkpt lat="48.16924" lon="6.53453">
        <ele>426.2</ele>
        <time>2023-03-05T14:22:25Z</time>
      </trkpt>
      <trkpt lat="48.16924" lon="6.53453">
        <ele>426.1</ele>
        <time>2023-03-05T14:22:26Z</time>
      </trkpt>
      <trkpt lat="48.16923" lon="6.53455">
        <ele>426.1</ele>
        <time>2023-03-05T14:22:31Z</time>
      </trkpt>
      <trkpt lat="48.16924" lon="6.53455">
        <ele>426.1</ele>
        <time>2023-03-05T14:22:32Z</time>
      </trkpt>
      <trkpt lat="48.16924" lon="6.53449">
        <ele>426</ele>
        <time>2023-03-05T14:22:53Z</time>
      </trkpt>
      <trkpt lat="48.16924" lon="6.53449">
        <ele>426</ele>
        <time>2023-03-05T14:22:54Z</time>
      </trkpt>
      <trkpt lat="48.16924" lon="6.53448">
        <ele>426</ele>
        <time>2023-03-05T14:22:56Z</time>
      </trkpt>
      <trkpt lat="48.16924" lon="6.53449">
        <ele>426</ele>
        <time>2023-03-05T14:22:57Z</time>
      </trkpt>
      <trkpt lat="48.16926" lon="6.53452">
        <ele>425.9</ele>
        <time>2023-03-05T14:23:07Z</time>
      </trkpt>
      <trkpt lat="48.16926" lon="6.53452">
        <ele>425.8</ele>
        <time>2023-03-05T14:23:08Z</time>
      </trkpt>
      <trkpt lat="48.16926" lon="6.53452">
        <ele>425.8</ele>
        <time>2023-03-05T14:23:12Z</time>
      </trkpt>
      <trkpt lat="48.16926" lon="6.53452">
        <ele>425.8</ele>
        <time>2023-03-05T14:23:13Z</time>
      </trkpt>
      <trkpt lat="48.16924" lon="6.53456">
        <ele>425.7</ele>
        <time>2023-03-05T14:23:32Z</time>
      </trkpt>
      <trkpt lat="48.16924" lon="6.53455">
        <ele>425.7</ele>
        <time>2023-03-05T14:23:33Z</time>
      </trkpt>
      <trkpt lat="48.16925" lon="6.53455">
        <ele>425.7</ele>
        <time>2023-03-05T14:23:38Z</time>
      </trkpt>
      <trkpt lat="48.16925" lon="6.53455">
        <ele>425.7</ele>
        <time>2023-03-05T14:23:39Z</time>
      </trkpt>
      <trkpt lat="48.16927" lon="6.53456">
        <ele>425.6</ele>
        <time>2023-03-05T14:23:51Z</time>
      </trkpt>
      <trkpt lat="48.16927" lon="6.53457">
        <ele>425.6</ele>
        <time>2023-03-05T14:23:52Z</time>
      </trkpt>
      <trkpt lat="48.16923" lon="6.5346">
        <ele>425.4</ele>
        <time>2023-03-05T14:24:02Z</time>
      </trkpt>
      <trkpt lat="48.16923" lon="6.5346">
        <ele>425.4</ele>
        <time>2023-03-05T14:24:04Z</time>
      </trkpt>
      <trkpt lat="48.16923" lon="6.53459">
        <ele>425.4</ele>
        <time>2023-03-05T14:24:07Z</time>
      </trkpt>
      <trkpt lat="48.16923" lon="6.5346">
        <ele>425.4</ele>
        <time>2023-03-05T14:24:08Z</time>
      </trkpt>
      <trkpt lat="48.16923" lon="6.53461">
        <ele>425.4</ele>
        <time>2023-03-05T14:24:11Z</time>
      </trkpt>
      <trkpt lat="48.16923" lon="6.53461">
        <ele>425.4</ele>
        <time>2023-03-05T14:24:13Z</time>
      </trkpt>
      <trkpt lat="48.16923" lon="6.53461">
        <ele>425.4</ele>
        <time>2023-03-05T14:24:14Z</time>
      </trkpt>
      <trkpt lat="48.16923" lon="6.53461">
        <ele>425.4</ele>
        <time>2023-03-05T14:24:16Z</time>
      </trkpt>
      <trkpt lat="48.16923" lon="6.53461">
        <ele>425.4</ele>
        <time>2023-03-05T14:24:17Z</time>
      </trkpt>
      <trkpt lat="48.16923" lon="6.5346">
        <ele>425.3</ele>
        <time>2023-03-05T14:24:21Z</time>
      </trkpt>
      <trkpt lat="48.16923" lon="6.5346">
        <ele>425.3</ele>
        <time>2023-03-05T14:24:22Z</time>
      </trkpt>
      <trkpt lat="48.16923" lon="6.5346">
        <ele>425.3</ele>
        <time>2023-03-05T14:24:24Z</time>
      </trkpt>
      <trkpt lat="48.16923" lon="6.5346">
        <ele>425.3</ele>
        <time>2023-03-05T14:24:25Z</time>
      </trkpt>
      <trkpt lat="48.16923" lon="6.5346">
        <ele>425.3</ele>
        <time>2023-03-05T14:24:26Z</time>
      </trkpt>
      <trkpt lat="48.16924" lon="6.53462">
        <ele>425.3</ele>
        <time>2023-03-05T14:24:36Z</time>
      </trkpt>
      <trkpt lat="48.16923" lon="6.53462">
        <ele>425.3</ele>
        <time>2023-03-05T14:24:37Z</time>
      </trkpt>
      <trkpt lat="48.16916" lon="6.53471">
        <ele>424.9</ele>
        <time>2023-03-05T14:24:53Z</time>
      </trkpt>
      <trkpt lat="48.16912" lon="6.53483">
        <ele>424.5</ele>
        <time>2023-03-05T14:25:06Z</time>
      </trkpt>
      <trkpt lat="48.16904" lon="6.53489">
        <ele>424.1</ele>
        <time>2023-03-05T14:25:16Z</time>
      </trkpt>
      <trkpt lat="48.16898" lon="6.53477">
        <ele>423.7</ele>
        <time>2023-03-05T14:25:27Z</time>
      </trkpt>
      <trkpt lat="48.16892" lon="6.53466">
        <ele>423.2</ele>
        <time>2023-03-05T14:25:39Z</time>
      </trkpt>
      <trkpt lat="48.1689" lon="6.53451">
        <ele>422.8</ele>
        <time>2023-03-05T14:25:51Z</time>
      </trkpt>
      <trkpt lat="48.16892" lon="6.53437">
        <ele>422.3</ele>
        <time>2023-03-05T14:26:02Z</time>
      </trkpt>
      <trkpt lat="48.16897" lon="6.53425">
        <ele>421.9</ele>
        <time>2023-03-05T14:26:11Z</time>
      </trkpt>
      <trkpt lat="48.16904" lon="6.53415">
        <ele>421.4</ele>
        <time>2023-03-05T14:26:25Z</time>
      </trkpt>
      <trkpt lat="48.16912" lon="6.53406">
        <ele>421.1</ele>
        <time>2023-03-05T14:26:32Z</time>
      </trkpt>
      <trkpt lat="48.16908" lon="6.53405">
        <ele>420.9</ele>
        <time>2023-03-05T14:26:44Z</time>
      </trkpt>
      <trkpt lat="48.16907" lon="6.53405">
        <ele>420.9</ele>
        <time>2023-03-05T14:26:45Z</time>
      </trkpt>
      <trkpt lat="48.16905" lon="6.53405">
        <ele>420.8</ele>
        <time>2023-03-05T14:26:52Z</time>
      </trkpt>
      <trkpt lat="48.16906" lon="6.53405">
        <ele>420.8</ele>
        <time>2023-03-05T14:26:53Z</time>
      </trkpt>
      <trkpt lat="48.16913" lon="6.53396">
        <ele>420.4</ele>
        <time>2023-03-05T14:27:02Z</time>
      </trkpt>
      <trkpt lat="48.16922" lon="6.53392">
        <ele>420.1</ele>
        <time>2023-03-05T14:27:13Z</time>
      </trkpt>
      <trkpt lat="48.1693" lon="6.53382">
        <ele>419.7</ele>
        <time>2023-03-05T14:27:24Z</time>
      </trkpt>
      <trkpt lat="48.16939" lon="6.53377">
        <ele>419.4</ele>
        <time>2023-03-05T14:27:31Z</time>
      </trkpt>
      <trkpt lat="48.16947" lon="6.53368">
        <ele>418.9</ele>
        <time>2023-03-05T14:27:42Z</time>
      </trkpt>
      <trkpt lat="48.16954" lon="6.53357">
        <ele>418.5</ele>
        <time>2023-03-05T14:27:52Z</time>
      </trkpt>
      <trkpt lat="48.16963" lon="6.5335">
        <ele>418</ele>
        <time>2023-03-05T14:27:57Z</time>
      </trkpt>
      <trkpt lat="48.16972" lon="6.53341">
        <ele>417.5</ele>
        <time>2023-03-05T14:28:02Z</time>
      </trkpt>
      <trkpt lat="48.16981" lon="6.53338">
        <ele>417</ele>
        <time>2023-03-05T14:28:07Z</time>
      </trkpt>
      <trkpt lat="48.16983" lon="6.53334">
        <ele>416.9</ele>
        <time>2023-03-05T14:28:20Z</time>
      </trkpt>
      <trkpt lat="48.16982" lon="6.53333">
        <ele>416.8</ele>
        <time>2023-03-05T14:28:21Z</time>
      </trkpt>
      <trkpt lat="48.16991" lon="6.53328">
        <ele>416.4</ele>
        <time>2023-03-05T14:28:28Z</time>
      </trkpt>
      <trkpt lat="48.17003" lon="6.53326">
        <ele>415.8</ele>
        <time>2023-03-05T14:28:32Z</time>
      </trkpt>
      <trkpt lat="48.17013" lon="6.53326">
        <ele>415.3</ele>
        <time>2023-03-05T14:28:37Z</time>
      </trkpt>
      <trkpt lat="48.17024" lon="6.53327">
        <ele>414.9</ele>
        <time>2023-03-05T14:28:51Z</time>
      </trkpt>
      <trkpt lat="48.17033" lon="6.53327">
        <ele>414.4</ele>
        <time>2023-03-05T14:28:56Z</time>
      </trkpt>
      <trkpt lat="48.17043" lon="6.53321">
        <ele>414</ele>
        <time>2023-03-05T14:29:06Z</time>
      </trkpt>
      <trkpt lat="48.17053" lon="6.53315">
        <ele>413.4</ele>
        <time>2023-03-05T14:29:13Z</time>
      </trkpt>
      <trkpt lat="48.17063" lon="6.53315">
        <ele>412.9</ele>
        <time>2023-03-05T14:29:20Z</time>
      </trkpt>
      <trkpt lat="48.17068" lon="6.53326">
        <ele>412.5</ele>
        <time>2023-03-05T14:29:34Z</time>
      </trkpt>
      <trkpt lat="48.17077" lon="6.53326">
        <ele>412.1</ele>
        <time>2023-03-05T14:29:44Z</time>
      </trkpt>
      <trkpt lat="48.17088" lon="6.53324">
        <ele>411.6</ele>
        <time>2023-03-05T14:29:53Z</time>
      </trkpt>
      <trkpt lat="48.17097" lon="6.53319">
        <ele>411.2</ele>
        <time>2023-03-05T14:29:59Z</time>
      </trkpt>
      <trkpt lat="48.17107" lon="6.53319">
        <ele>410.8</ele>
        <time>2023-03-05T14:30:08Z</time>
      </trkpt>
      <trkpt lat="48.17117" lon="6.53313">
        <ele>410.5</ele>
        <time>2023-03-05T14:30:13Z</time>
      </trkpt>
      <trkpt lat="48.17128" lon="6.53314">
        <ele>410.3</ele>
        <time>2023-03-05T14:30:20Z</time>
      </trkpt>
      <trkpt lat="48.17134" lon="6.53302">
        <ele>410.1</ele>
        <time>2023-03-05T14:30:26Z</time>
      </trkpt>
      <trkpt lat="48.17141" lon="6.53291">
        <ele>410</ele>
        <time>2023-03-05T14:30:31Z</time>
      </trkpt>
      <trkpt lat="48.17145" lon="6.53278">
        <ele>409.9</ele>
        <time>2023-03-05T14:30:38Z</time>
      </trkpt>
      <trkpt lat="48.17147" lon="6.53263">
        <ele>409.8</ele>
        <time>2023-03-05T14:30:49Z</time>
      </trkpt>
      <trkpt lat="48.17149" lon="6.53249">
        <ele>409.7</ele>
        <time>2023-03-05T14:30:56Z</time>
      </trkpt>
      <trkpt lat="48.17143" lon="6.53237">
        <ele>409.7</ele>
        <time>2023-03-05T14:31:02Z</time>
      </trkpt>
      <trkpt lat="48.17134" lon="6.53229">
        <ele>409.7</ele>
        <time>2023-03-05T14:31:08Z</time>
      </trkpt>
      <trkpt lat="48.17125" lon="6.5322">
        <ele>409.5</ele>
        <time>2023-03-05T14:31:15Z</time>
      </trkpt>
      <trkpt lat="48.17115" lon="6.53216">
        <ele>409.5</ele>
        <time>2023-03-05T14:31:20Z</time>
      </trkpt>
      <trkpt lat="48.17108" lon="6.53208">
        <ele>409.4</ele>
        <time>2023-03-05T14:31:26Z</time>
      </trkpt>
      <trkpt lat="48.17099" lon="6.53202">
        <ele>409.5</ele>
        <time>2023-03-05T14:31:32Z</time>
      </trkpt>
      <trkpt lat="48.17089" lon="6.53195">
        <ele>409.5</ele>
        <time>2023-03-05T14:31:49Z</time>
      </trkpt>
      <trkpt lat="48.17081" lon="6.53188">
        <ele>409.6</ele>
        <time>2023-03-05T14:31:54Z</time>
      </trkpt>
      <trkpt lat="48.17074" lon="6.53178">
        <ele>409.7</ele>
        <time>2023-03-05T14:32:00Z</time>
      </trkpt>
      <trkpt lat="48.17064" lon="6.53178">
        <ele>409.8</ele>
        <time>2023-03-05T14:32:09Z</time>
      </trkpt>
      <trkpt lat="48.17055" lon="6.5317">
        <ele>410</ele>
        <time>2023-03-05T14:32:14Z</time>
      </trkpt>
      <trkpt lat="48.17049" lon="6.5316">
        <ele>410</ele>
        <time>2023-03-05T14:32:18Z</time>
      </trkpt>
      <trkpt lat="48.17044" lon="6.53147">
        <ele>410.1</ele>
        <time>2023-03-05T14:32:23Z</time>
      </trkpt>
      <trkpt lat="48.17037" lon="6.53137">
        <ele>410.1</ele>
        <time>2023-03-05T14:32:33Z</time>
      </trkpt>
      <trkpt lat="48.17029" lon="6.53132">
        <ele>410.2</ele>
        <time>2023-03-05T14:32:42Z</time>
      </trkpt>
      <trkpt lat="48.17024" lon="6.5312">
        <ele>410.3</ele>
        <time>2023-03-05T14:32:51Z</time>
      </trkpt>
      <trkpt lat="48.17021" lon="6.53105">
        <ele>410.4</ele>
        <time>2023-03-05T14:33:01Z</time>
      </trkpt>
      <trkpt lat="48.17015" lon="6.53094">
        <ele>410.5</ele>
        <time>2023-03-05T14:33:10Z</time>
      </trkpt>
      <trkpt lat="48.17012" lon="6.5308">
        <ele>410.7</ele>
        <time>2023-03-05T14:33:25Z</time>
      </trkpt>
      <trkpt lat="48.17004" lon="6.53071">
        <ele>410.8</ele>
        <time>2023-03-05T14:33:34Z</time>
      </trkpt>
      <trkpt lat="48.16995" lon="6.53066">
        <ele>410.9</ele>
        <time>2023-03-05T14:33:41Z</time>
      </trkpt>
      <trkpt lat="48.1699" lon="6.53053">
        <ele>411.1</ele>
        <time>2023-03-05T14:33:51Z</time>
      </trkpt>
      <trkpt lat="48.16982" lon="6.53046">
        <ele>411.2</ele>
        <time>2023-03-05T14:33:57Z</time>
      </trkpt>
      <trkpt lat="48.16975" lon="6.53037">
        <ele>411.2</ele>
        <time>2023-03-05T14:34:04Z</time>
      </trkpt>
      <trkpt lat="48.16965" lon="6.53032">
        <ele>411.2</ele>
        <time>2023-03-05T14:34:12Z</time>
      </trkpt>
      <trkpt lat="48.16964" lon="6.53018">
        <ele>410.7</ele>
        <time>2023-03-05T14:34:17Z</time>
      </trkpt>
      <trkpt lat="48.16963" lon="6.53012">
        <ele>409.9</ele>
        <time>2023-03-05T14:34:33Z</time>
      </trkpt>
      <trkpt lat="48.16963" lon="6.53012">
        <ele>410</ele>
        <time>2023-03-05T14:34:39Z</time>
      </trkpt>
      <trkpt lat="48.16963" lon="6.53012">
        <ele>410.1</ele>
        <time>2023-03-05T14:34:41Z</time>
      </trkpt>
      <trkpt lat="48.16963" lon="6.53011">
        <ele>410.1</ele>
        <time>2023-03-05T14:34:42Z</time>
      </trkpt>
      <trkpt lat="48.16962" lon="6.52997">
        <ele>409.1</ele>
        <time>2023-03-05T14:34:53Z</time>
      </trkpt>
      <trkpt lat="48.16969" lon="6.52986">
        <ele>409.2</ele>
        <time>2023-03-05T14:35:03Z</time>
      </trkpt>
      <trkpt lat="48.16976" lon="6.52974">
        <ele>409.4</ele>
        <time>2023-03-05T14:35:11Z</time>
      </trkpt>
      <trkpt lat="48.1698" lon="6.52962">
        <ele>409.4</ele>
        <time>2023-03-05T14:35:20Z</time>
      </trkpt>
      <trkpt lat="48.16984" lon="6.52949">
        <ele>409.2</ele>
        <time>2023-03-05T14:35:31Z</time>
      </trkpt>
      <trkpt lat="48.16986" lon="6.52936">
        <ele>408.4</ele>
        <time>2023-03-05T14:35:40Z</time>
      </trkpt>
      <trkpt lat="48.16989" lon="6.52922">
        <ele>408</ele>
        <time>2023-03-05T14:35:48Z</time>
      </trkpt>
      <trkpt lat="48.16994" lon="6.5291">
        <ele>407.7</ele>
        <time>2023-03-05T14:35:55Z</time>
      </trkpt>
      <trkpt lat="48.17" lon="6.52899">
        <ele>407.6</ele>
        <time>2023-03-05T14:36:04Z</time>
      </trkpt>
      <trkpt lat="48.17006" lon="6.52886">
        <ele>407</ele>
        <time>2023-03-05T14:36:12Z</time>
      </trkpt>
      <trkpt lat="48.17013" lon="6.52876">
        <ele>406.7</ele>
        <time>2023-03-05T14:36:21Z</time>
      </trkpt>
      <trkpt lat="48.17018" lon="6.52864">
        <ele>406.3</ele>
        <time>2023-03-05T14:36:28Z</time>
      </trkpt>
      <trkpt lat="48.17022" lon="6.52851">
        <ele>406.1</ele>
        <time>2023-03-05T14:36:35Z</time>
      </trkpt>
      <trkpt lat="48.17028" lon="6.52838">
        <ele>405.7</ele>
        <time>2023-03-05T14:36:43Z</time>
      </trkpt>
      <trkpt lat="48.17034" lon="6.52827">
        <ele>405.7</ele>
        <time>2023-03-05T14:36:50Z</time>
      </trkpt>
      <trkpt lat="48.17038" lon="6.52814">
        <ele>406.1</ele>
        <time>2023-03-05T14:36:58Z</time>
      </trkpt>
      <trkpt lat="48.17044" lon="6.52802">
        <ele>407.2</ele>
        <time>2023-03-05T14:37:07Z</time>
      </trkpt>
      <trkpt lat="48.1705" lon="6.52789">
        <ele>407.8</ele>
        <time>2023-03-05T14:37:16Z</time>
      </trkpt>
      <trkpt lat="48.17054" lon="6.52777">
        <ele>408.4</ele>
        <time>2023-03-05T14:37:22Z</time>
      </trkpt>
      <trkpt lat="48.17059" lon="6.52766">
        <ele>409.5</ele>
        <time>2023-03-05T14:37:30Z</time>
      </trkpt>
      <trkpt lat="48.17061" lon="6.52751">
        <ele>410.3</ele>
        <time>2023-03-05T14:37:40Z</time>
      </trkpt>
      <trkpt lat="48.17064" lon="6.52738">
        <ele>411</ele>
        <time>2023-03-05T14:37:47Z</time>
      </trkpt>
      <trkpt lat="48.17066" lon="6.52724">
        <ele>411.7</ele>
        <time>2023-03-05T14:37:55Z</time>
      </trkpt>
      <trkpt lat="48.17067" lon="6.52709">
        <ele>412.9</ele>
        <time>2023-03-05T14:38:03Z</time>
      </trkpt>
      <trkpt lat="48.17068" lon="6.52694">
        <ele>413.8</ele>
        <time>2023-03-05T14:38:10Z</time>
      </trkpt>
      <trkpt lat="48.1707" lon="6.52681">
        <ele>414.9</ele>
        <time>2023-03-05T14:38:19Z</time>
      </trkpt>
      <trkpt lat="48.17074" lon="6.52667">
        <ele>415.8</ele>
        <time>2023-03-05T14:38:27Z</time>
      </trkpt>
      <trkpt lat="48.17076" lon="6.52652">
        <ele>416.5</ele>
        <time>2023-03-05T14:38:35Z</time>
      </trkpt>
      <trkpt lat="48.17081" lon="6.5264">
        <ele>417.2</ele>
        <time>2023-03-05T14:38:42Z</time>
      </trkpt>
      <trkpt lat="48.1708" lon="6.52626">
        <ele>417.5</ele>
        <time>2023-03-05T14:38:50Z</time>
      </trkpt>
      <trkpt lat="48.17081" lon="6.52611">
        <ele>417.9</ele>
        <time>2023-03-05T14:38:59Z</time>
      </trkpt>
      <trkpt lat="48.1708" lon="6.52596">
        <ele>418.3</ele>
        <time>2023-03-05T14:39:07Z</time>
      </trkpt>
      <trkpt lat="48.17078" lon="6.52583">
        <ele>417.5</ele>
        <time>2023-03-05T14:39:14Z</time>
      </trkpt>
      <trkpt lat="48.17079" lon="6.52568">
        <ele>418</ele>
        <time>2023-03-05T14:39:21Z</time>
      </trkpt>
      <trkpt lat="48.17086" lon="6.5256">
        <ele>419.4</ele>
        <time>2023-03-05T14:39:33Z</time>
      </trkpt>
      <trkpt lat="48.17096" lon="6.5256">
        <ele>422.5</ele>
        <time>2023-03-05T14:39:43Z</time>
      </trkpt>
      <trkpt lat="48.17104" lon="6.52552">
        <ele>423.7</ele>
        <time>2023-03-05T14:39:54Z</time>
      </trkpt>
      <trkpt lat="48.1711" lon="6.52541">
        <ele>425.7</ele>
        <time>2023-03-05T14:40:00Z</time>
      </trkpt>
      <trkpt lat="48.17112" lon="6.52528">
        <ele>424.7</ele>
        <time>2023-03-05T14:40:13Z</time>
      </trkpt>
      <trkpt lat="48.17113" lon="6.52527">
        <ele>425.5</ele>
        <time>2023-03-05T14:40:17Z</time>
      </trkpt>
      <trkpt lat="48.17113" lon="6.52527">
        <ele>425.6</ele>
        <time>2023-03-05T14:40:19Z</time>
      </trkpt>
      <trkpt lat="48.17112" lon="6.52523">
        <ele>424.7</ele>
        <time>2023-03-05T14:40:24Z</time>
      </trkpt>
      <trkpt lat="48.17112" lon="6.52522">
        <ele>424.8</ele>
        <time>2023-03-05T14:40:25Z</time>
      </trkpt>
      <trkpt lat="48.17113" lon="6.52509">
        <ele>425.1</ele>
        <time>2023-03-05T14:40:36Z</time>
      </trkpt>
      <trkpt lat="48.17109" lon="6.52493">
        <ele>423.7</ele>
        <time>2023-03-05T14:40:44Z</time>
      </trkpt>
      <trkpt lat="48.17104" lon="6.52482">
        <ele>422.4</ele>
        <time>2023-03-05T14:40:54Z</time>
      </trkpt>
      <trkpt lat="48.17101" lon="6.52473">
        <ele>421.4</ele>
        <time>2023-03-05T14:41:03Z</time>
      </trkpt>
      <trkpt lat="48.17101" lon="6.52472">
        <ele>421.7</ele>
        <time>2023-03-05T14:41:04Z</time>
      </trkpt>
      <trkpt lat="48.17104" lon="6.52458">
        <ele>421.1</ele>
        <time>2023-03-05T14:41:18Z</time>
      </trkpt>
      <trkpt lat="48.17112" lon="6.5245">
        <ele>421.6</ele>
        <time>2023-03-05T14:41:29Z</time>
      </trkpt>
      <trkpt lat="48.1712" lon="6.52445">
        <ele>423</ele>
        <time>2023-03-05T14:41:39Z</time>
      </trkpt>
      <trkpt lat="48.17128" lon="6.52438">
        <ele>424.1</ele>
        <time>2023-03-05T14:41:58Z</time>
      </trkpt>
      <trkpt lat="48.17135" lon="6.52429">
        <ele>424.5</ele>
        <time>2023-03-05T14:42:05Z</time>
      </trkpt>
      <trkpt lat="48.1714" lon="6.52417">
        <ele>424.4</ele>
        <time>2023-03-05T14:42:12Z</time>
      </trkpt>
      <trkpt lat="48.17144" lon="6.52403">
        <ele>423.8</ele>
        <time>2023-03-05T14:42:20Z</time>
      </trkpt>
      <trkpt lat="48.17146" lon="6.52395">
        <ele>423.5</ele>
        <time>2023-03-05T14:42:39Z</time>
      </trkpt>
      <trkpt lat="48.17146" lon="6.52395">
        <ele>423.6</ele>
        <time>2023-03-05T14:42:40Z</time>
      </trkpt>
      <trkpt lat="48.17144" lon="6.52382">
        <ele>421.8</ele>
        <time>2023-03-05T14:42:54Z</time>
      </trkpt>
      <trkpt lat="48.17143" lon="6.52367">
        <ele>420.9</ele>
        <time>2023-03-05T14:43:02Z</time>
      </trkpt>
      <trkpt lat="48.17138" lon="6.52355">
        <ele>419.8</ele>
        <time>2023-03-05T14:43:13Z</time>
      </trkpt>
      <trkpt lat="48.17143" lon="6.52343">
        <ele>419.5</ele>
        <time>2023-03-05T14:43:23Z</time>
      </trkpt>
      <trkpt lat="48.17148" lon="6.52331">
        <ele>419</ele>
        <time>2023-03-05T14:43:31Z</time>
      </trkpt>
      <trkpt lat="48.17149" lon="6.52317">
        <ele>417.5</ele>
        <time>2023-03-05T14:43:36Z</time>
      </trkpt>
      <trkpt lat="48.17152" lon="6.52302">
        <ele>416.9</ele>
        <time>2023-03-05T14:43:43Z</time>
      </trkpt>
      <trkpt lat="48.17157" lon="6.52289">
        <ele>416.7</ele>
        <time>2023-03-05T14:43:49Z</time>
      </trkpt>
      <trkpt lat="48.17157" lon="6.52274">
        <ele>416.5</ele>
        <time>2023-03-05T14:43:58Z</time>
      </trkpt>
      <trkpt lat="48.17159" lon="6.5226">
        <ele>416.5</ele>
        <time>2023-03-05T14:44:05Z</time>
      </trkpt>
      <trkpt lat="48.17161" lon="6.52245">
        <ele>416</ele>
        <time>2023-03-05T14:44:12Z</time>
      </trkpt>
      <trkpt lat="48.17168" lon="6.52237">
        <ele>416.2</ele>
        <time>2023-03-05T14:44:16Z</time>
      </trkpt>
      <trkpt lat="48.17172" lon="6.52223">
        <ele>416.1</ele>
        <time>2023-03-05T14:44:22Z</time>
      </trkpt>
      <trkpt lat="48.17175" lon="6.5221">
        <ele>416.3</ele>
        <time>2023-03-05T14:44:30Z</time>
      </trkpt>
      <trkpt lat="48.17176" lon="6.52195">
        <ele>416.4</ele>
        <time>2023-03-05T14:44:36Z</time>
      </trkpt>
      <trkpt lat="48.17179" lon="6.52182">
        <ele>416.3</ele>
        <time>2023-03-05T14:44:45Z</time>
      </trkpt>
      <trkpt lat="48.17187" lon="6.52174">
        <ele>416.6</ele>
        <time>2023-03-05T14:44:56Z</time>
      </trkpt>
      <trkpt lat="48.17178" lon="6.52176">
        <ele>416.2</ele>
        <time>2023-03-05T14:45:08Z</time>
      </trkpt>
      <trkpt lat="48.17186" lon="6.52162">
        <ele>416.2</ele>
        <time>2023-03-05T14:45:14Z</time>
      </trkpt>
      <trkpt lat="48.17195" lon="6.52149">
        <ele>416.5</ele>
        <time>2023-03-05T14:45:18Z</time>
      </trkpt>
      <trkpt lat="48.17202" lon="6.52137">
        <ele>416.9</ele>
        <time>2023-03-05T14:45:21Z</time>
      </trkpt>
      <trkpt lat="48.1721" lon="6.5213">
        <ele>417.3</ele>
        <time>2023-03-05T14:45:25Z</time>
      </trkpt>
      <trkpt lat="48.17219" lon="6.52121">
        <ele>417.7</ele>
        <time>2023-03-05T14:45:30Z</time>
      </trkpt>
      <trkpt lat="48.17228" lon="6.52115">
        <ele>417.9</ele>
        <time>2023-03-05T14:45:35Z</time>
      </trkpt>
      <trkpt lat="48.17238" lon="6.52108">
        <ele>418</ele>
        <time>2023-03-05T14:45:39Z</time>
      </trkpt>
      <trkpt lat="48.17239" lon="6.52094">
        <ele>418.1</ele>
        <time>2023-03-05T14:45:51Z</time>
      </trkpt>
      <trkpt lat="48.17246" lon="6.52085">
        <ele>418.5</ele>
        <time>2023-03-05T14:45:55Z</time>
      </trkpt>
      <trkpt lat="48.17238" lon="6.52077">
        <ele>418.6</ele>
        <time>2023-03-05T14:46:06Z</time>
      </trkpt>
      <trkpt lat="48.17235" lon="6.52064">
        <ele>418.6</ele>
        <time>2023-03-05T14:46:12Z</time>
      </trkpt>
      <trkpt lat="48.17235" lon="6.5205">
        <ele>418.6</ele>
        <time>2023-03-05T14:46:17Z</time>
      </trkpt>
      <trkpt lat="48.17235" lon="6.52035">
        <ele>418.9</ele>
        <time>2023-03-05T14:46:23Z</time>
      </trkpt>
      <trkpt lat="48.1724" lon="6.5202">
        <ele>419.7</ele>
        <time>2023-03-05T14:46:37Z</time>
      </trkpt>
      <trkpt lat="48.17245" lon="6.52008">
        <ele>420.3</ele>
        <time>2023-03-05T14:46:43Z</time>
      </trkpt>
      <trkpt lat="48.1725" lon="6.51996">
        <ele>420.5</ele>
        <time>2023-03-05T14:46:51Z</time>
      </trkpt>
      <trkpt lat="48.17252" lon="6.51983">
        <ele>420.7</ele>
        <time>2023-03-05T14:47:04Z</time>
      </trkpt>
      <trkpt lat="48.17254" lon="6.51969">
        <ele>420.5</ele>
        <time>2023-03-05T14:47:12Z</time>
      </trkpt>
      <trkpt lat="48.17257" lon="6.51954">
        <ele>420.6</ele>
        <time>2023-03-05T14:47:21Z</time>
      </trkpt>
      <trkpt lat="48.17261" lon="6.51942">
        <ele>420.9</ele>
        <time>2023-03-05T14:47:30Z</time>
      </trkpt>
      <trkpt lat="48.17264" lon="6.51928">
        <ele>421</ele>
        <time>2023-03-05T14:47:38Z</time>
      </trkpt>
      <trkpt lat="48.17267" lon="6.51914">
        <ele>420.5</ele>
        <time>2023-03-05T14:47:47Z</time>
      </trkpt>
      <trkpt lat="48.17274" lon="6.51901">
        <ele>420.3</ele>
        <time>2023-03-05T14:47:52Z</time>
      </trkpt>
      <trkpt lat="48.17278" lon="6.51888">
        <ele>420.5</ele>
        <time>2023-03-05T14:48:01Z</time>
      </trkpt>
      <trkpt lat="48.17282" lon="6.51874">
        <ele>421.2</ele>
        <time>2023-03-05T14:48:09Z</time>
      </trkpt>
      <trkpt lat="48.17285" lon="6.5186">
        <ele>421.7</ele>
        <time>2023-03-05T14:48:19Z</time>
      </trkpt>
      <trkpt lat="48.17292" lon="6.51851">
        <ele>422.2</ele>
        <time>2023-03-05T14:48:29Z</time>
      </trkpt>
      <trkpt lat="48.17301" lon="6.51857">
        <ele>422.5</ele>
        <time>2023-03-05T14:48:37Z</time>
      </trkpt>
      <trkpt lat="48.1731" lon="6.51862">
        <ele>423.1</ele>
        <time>2023-03-05T14:48:48Z</time>
      </trkpt>
      <trkpt lat="48.17319" lon="6.51866">
        <ele>423.5</ele>
        <time>2023-03-05T14:48:56Z</time>
      </trkpt>
      <trkpt lat="48.17328" lon="6.51871">
        <ele>423.9</ele>
        <time>2023-03-05T14:49:06Z</time>
      </trkpt>
      <trkpt lat="48.17337" lon="6.51875">
        <ele>424.1</ele>
        <time>2023-03-05T14:49:17Z</time>
      </trkpt>
      <trkpt lat="48.17346" lon="6.51872">
        <ele>424.3</ele>
        <time>2023-03-05T14:49:24Z</time>
      </trkpt>
      <trkpt lat="48.17355" lon="6.51872">
        <ele>424.4</ele>
        <time>2023-03-05T14:49:31Z</time>
      </trkpt>
      <trkpt lat="48.17364" lon="6.51868">
        <ele>424.6</ele>
        <time>2023-03-05T14:49:38Z</time>
      </trkpt>
      <trkpt lat="48.17373" lon="6.51864">
        <ele>424.8</ele>
        <time>2023-03-05T14:49:47Z</time>
      </trkpt>
      <trkpt lat="48.17384" lon="6.51862">
        <ele>424.9</ele>
        <time>2023-03-05T14:49:56Z</time>
      </trkpt>
      <trkpt lat="48.17393" lon="6.5186">
        <ele>425</ele>
        <time>2023-03-05T14:50:04Z</time>
      </trkpt>
      <trkpt lat="48.174" lon="6.51847">
        <ele>425</ele>
        <time>2023-03-05T14:50:11Z</time>
      </trkpt>
      <trkpt lat="48.17408" lon="6.51838">
        <ele>425</ele>
        <time>2023-03-05T14:50:15Z</time>
      </trkpt>
      <trkpt lat="48.17415" lon="6.51829">
        <ele>425</ele>
        <time>2023-03-05T14:50:22Z</time>
      </trkpt>
      <trkpt lat="48.17418" lon="6.51815">
        <ele>424.9</ele>
        <time>2023-03-05T14:50:31Z</time>
      </trkpt>
      <trkpt lat="48.17415" lon="6.51801">
        <ele>424.9</ele>
        <time>2023-03-05T14:50:40Z</time>
      </trkpt>
      <trkpt lat="48.1741" lon="6.51787">
        <ele>424.9</ele>
        <time>2023-03-05T14:50:50Z</time>
      </trkpt>
      <trkpt lat="48.17413" lon="6.51774">
        <ele>424.9</ele>
        <time>2023-03-05T14:51:02Z</time>
      </trkpt>
      <trkpt lat="48.17414" lon="6.5176">
        <ele>424.9</ele>
        <time>2023-03-05T14:51:10Z</time>
      </trkpt>
      <trkpt lat="48.17413" lon="6.51746">
        <ele>424.9</ele>
        <time>2023-03-05T14:51:17Z</time>
      </trkpt>
      <trkpt lat="48.17415" lon="6.51732">
        <ele>424.9</ele>
        <time>2023-03-05T14:51:26Z</time>
      </trkpt>
      <trkpt lat="48.17417" lon="6.51719">
        <ele>424.9</ele>
        <time>2023-03-05T14:51:33Z</time>
      </trkpt>
      <trkpt lat="48.17417" lon="6.51704">
        <ele>424.8</ele>
        <time>2023-03-05T14:51:40Z</time>
      </trkpt>
      <trkpt lat="48.17413" lon="6.51689">
        <ele>424.7</ele>
        <time>2023-03-05T14:51:46Z</time>
      </trkpt>
      <trkpt lat="48.17404" lon="6.51683">
        <ele>424.6</ele>
        <time>2023-03-05T14:51:51Z</time>
      </trkpt>
      <trkpt lat="48.17395" lon="6.51682">
        <ele>424.7</ele>
        <time>2023-03-05T14:51:56Z</time>
      </trkpt>
      <trkpt lat="48.17384" lon="6.51679">
        <ele>424.8</ele>
        <time>2023-03-05T14:52:02Z</time>
      </trkpt>
      <trkpt lat="48.17375" lon="6.51674">
        <ele>425</ele>
        <time>2023-03-05T14:52:10Z</time>
      </trkpt>
      <trkpt lat="48.1737" lon="6.51662">
        <ele>425</ele>
        <time>2023-03-05T14:52:19Z</time>
      </trkpt>
      <trkpt lat="48.17376" lon="6.51649">
        <ele>425</ele>
        <time>2023-03-05T14:52:26Z</time>
      </trkpt>
      <trkpt lat="48.17384" lon="6.51639">
        <ele>424.9</ele>
        <time>2023-03-05T14:52:34Z</time>
      </trkpt>
      <trkpt lat="48.1739" lon="6.51629">
        <ele>424.7</ele>
        <time>2023-03-05T14:52:41Z</time>
      </trkpt>
      <trkpt lat="48.17396" lon="6.51618">
        <ele>424.6</ele>
        <time>2023-03-05T14:52:48Z</time>
      </trkpt>
      <trkpt lat="48.17403" lon="6.51607">
        <ele>424.5</ele>
        <time>2023-03-05T14:52:55Z</time>
      </trkpt>
      <trkpt lat="48.17408" lon="6.51596">
        <ele>424.2</ele>
        <time>2023-03-05T14:53:05Z</time>
      </trkpt>
      <trkpt lat="48.17415" lon="6.51587">
        <ele>423.9</ele>
        <time>2023-03-05T14:53:12Z</time>
      </trkpt>
      <trkpt lat="48.17421" lon="6.51573">
        <ele>423.5</ele>
        <time>2023-03-05T14:53:18Z</time>
      </trkpt>
      <trkpt lat="48.17425" lon="6.51561">
        <ele>423</ele>
        <time>2023-03-05T14:53:23Z</time>
      </trkpt>
      <trkpt lat="48.1743" lon="6.51548">
        <ele>422.4</ele>
        <time>2023-03-05T14:53:32Z</time>
      </trkpt>
      <trkpt lat="48.17437" lon="6.51538">
        <ele>421.6</ele>
        <time>2023-03-05T14:53:41Z</time>
      </trkpt>
      <trkpt lat="48.17443" lon="6.51527">
        <ele>420.7</ele>
        <time>2023-03-05T14:53:51Z</time>
      </trkpt>
      <trkpt lat="48.17451" lon="6.51517">
        <ele>419.3</ele>
        <time>2023-03-05T14:54:01Z</time>
      </trkpt>
      <trkpt lat="48.17456" lon="6.51504">
        <ele>417.4</ele>
        <time>2023-03-05T14:54:13Z</time>
      </trkpt>
      <trkpt lat="48.17458" lon="6.51497">
        <ele>416.2</ele>
        <time>2023-03-05T14:54:22Z</time>
      </trkpt>
      <trkpt lat="48.17458" lon="6.51497">
        <ele>416.1</ele>
        <time>2023-03-05T14:54:23Z</time>
      </trkpt>
      <trkpt lat="48.17461" lon="6.51483">
        <ele>413.6</ele>
        <time>2023-03-05T14:54:32Z</time>
      </trkpt>
      <trkpt lat="48.17465" lon="6.5147">
        <ele>410.8</ele>
        <time>2023-03-05T14:54:43Z</time>
      </trkpt>
      <trkpt lat="48.17468" lon="6.51456">
        <ele>408.1</ele>
        <time>2023-03-05T14:54:53Z</time>
      </trkpt>
      <trkpt lat="48.1746" lon="6.5145">
        <ele>405.8</ele>
        <time>2023-03-05T14:54:58Z</time>
      </trkpt>
      <trkpt lat="48.17452" lon="6.5144">
        <ele>403.5</ele>
        <time>2023-03-05T14:55:07Z</time>
      </trkpt>
      <trkpt lat="48.17443" lon="6.51435">
        <ele>401.2</ele>
        <time>2023-03-05T14:55:14Z</time>
      </trkpt>
      <trkpt lat="48.17433" lon="6.51433">
        <ele>399.6</ele>
        <time>2023-03-05T14:55:21Z</time>
      </trkpt>
      <trkpt lat="48.1743" lon="6.5142">
        <ele>398.3</ele>
        <time>2023-03-05T14:55:30Z</time>
      </trkpt>
      <trkpt lat="48.17434" lon="6.51414">
        <ele>397.8</ele>
        <time>2023-03-05T14:55:38Z</time>
      </trkpt>
      <trkpt lat="48.17434" lon="6.51414">
        <ele>397.7</ele>
        <time>2023-03-05T14:55:39Z</time>
      </trkpt>
      <trkpt lat="48.17438" lon="6.51402">
        <ele>397.2</ele>
        <time>2023-03-05T14:55:54Z</time>
      </trkpt>
      <trkpt lat="48.17446" lon="6.51392">
        <ele>397.5</ele>
        <time>2023-03-05T14:56:04Z</time>
      </trkpt>
      <trkpt lat="48.17453" lon="6.5138">
        <ele>398.6</ele>
        <time>2023-03-05T14:56:12Z</time>
      </trkpt>
      <trkpt lat="48.17458" lon="6.51368">
        <ele>400</ele>
        <time>2023-03-05T14:56:18Z</time>
      </trkpt>
      <trkpt lat="48.17461" lon="6.51354">
        <ele>401.5</ele>
        <time>2023-03-05T14:56:30Z</time>
      </trkpt>
      <trkpt lat="48.17465" lon="6.51342">
        <ele>402.7</ele>
        <time>2023-03-05T14:56:37Z</time>
      </trkpt>
      <trkpt lat="48.17471" lon="6.51331">
        <ele>403.6</ele>
        <time>2023-03-05T14:56:48Z</time>
      </trkpt>
      <trkpt lat="48.17478" lon="6.51322">
        <ele>404.4</ele>
        <time>2023-03-05T14:57:01Z</time>
      </trkpt>
      <trkpt lat="48.17482" lon="6.51309">
        <ele>405.1</ele>
        <time>2023-03-05T14:57:13Z</time>
      </trkpt>
      <trkpt lat="48.17489" lon="6.51297">
        <ele>405.8</ele>
        <time>2023-03-05T14:57:24Z</time>
      </trkpt>
      <trkpt lat="48.17493" lon="6.51285">
        <ele>406.2</ele>
        <time>2023-03-05T14:57:30Z</time>
      </trkpt>
      <trkpt lat="48.17499" lon="6.51272">
        <ele>406.4</ele>
        <time>2023-03-05T14:57:39Z</time>
      </trkpt>
      <trkpt lat="48.17505" lon="6.51262">
        <ele>406.4</ele>
        <time>2023-03-05T14:57:49Z</time>
      </trkpt>
      <trkpt lat="48.1751" lon="6.51251">
        <ele>406.4</ele>
        <time>2023-03-05T14:57:56Z</time>
      </trkpt>
      <trkpt lat="48.17511" lon="6.5124">
        <ele>406.2</ele>
        <time>2023-03-05T14:58:11Z</time>
      </trkpt>
      <trkpt lat="48.17511" lon="6.51241">
        <ele>406.2</ele>
        <time>2023-03-05T14:58:12Z</time>
      </trkpt>
      <trkpt lat="48.17511" lon="6.51241">
        <ele>406.2</ele>
        <time>2023-03-05T14:58:14Z</time>
      </trkpt>
      <trkpt lat="48.17511" lon="6.51242">
        <ele>406.2</ele>
        <time>2023-03-05T14:58:15Z</time>
      </trkpt>
      <trkpt lat="48.17514" lon="6.51228">
        <ele>405.8</ele>
        <time>2023-03-05T14:58:48Z</time>
      </trkpt>
      <trkpt lat="48.1752" lon="6.51216">
        <ele>405.1</ele>
        <time>2023-03-05T14:58:56Z</time>
      </trkpt>
      <trkpt lat="48.17526" lon="6.51206">
        <ele>404.3</ele>
        <time>2023-03-05T14:59:05Z</time>
      </trkpt>
      <trkpt lat="48.17532" lon="6.51195">
        <ele>405.3</ele>
        <time>2023-03-05T14:59:13Z</time>
      </trkpt>
      <trkpt lat="48.17535" lon="6.51181">
        <ele>405.7</ele>
        <time>2023-03-05T14:59:22Z</time>
      </trkpt>
      <trkpt lat="48.17537" lon="6.51168">
        <ele>406.2</ele>
        <time>2023-03-05T14:59:31Z</time>
      </trkpt>
      <trkpt lat="48.17541" lon="6.51156">
        <ele>406.8</ele>
        <time>2023-03-05T14:59:37Z</time>
      </trkpt>
      <trkpt lat="48.17546" lon="6.51144">
        <ele>407.5</ele>
        <time>2023-03-05T14:59:43Z</time>
      </trkpt>
      <trkpt lat="48.17548" lon="6.51131">
        <ele>408.4</ele>
        <time>2023-03-05T15:00:02Z</time>
      </trkpt>
      <trkpt lat="48.17548" lon="6.51131">
        <ele>408.4</ele>
        <time>2023-03-05T15:00:03Z</time>
      </trkpt>
      <trkpt lat="48.17556" lon="6.51126">
        <ele>409.4</ele>
        <time>2023-03-05T15:00:24Z</time>
      </trkpt>
      <trkpt lat="48.17565" lon="6.51117">
        <ele>410.7</ele>
        <time>2023-03-05T15:00:34Z</time>
      </trkpt>
      <trkpt lat="48.17572" lon="6.51107">
        <ele>412</ele>
        <time>2023-03-05T15:00:43Z</time>
      </trkpt>
      <trkpt lat="48.1758" lon="6.511">
        <ele>413.3</ele>
        <time>2023-03-05T15:00:52Z</time>
      </trkpt>
      <trkpt lat="48.17589" lon="6.51098">
        <ele>414.6</ele>
        <time>2023-03-05T15:01:02Z</time>
      </trkpt>
      <trkpt lat="48.17598" lon="6.51106">
        <ele>416.5</ele>
        <time>2023-03-05T15:01:10Z</time>
      </trkpt>
      <trkpt lat="48.17604" lon="6.51118">
        <ele>416.7</ele>
        <time>2023-03-05T15:01:18Z</time>
      </trkpt>
      <trkpt lat="48.17609" lon="6.51131">
        <ele>416.9</ele>
        <time>2023-03-05T15:01:27Z</time>
      </trkpt>
      <trkpt lat="48.17613" lon="6.51144">
        <ele>417.1</ele>
        <time>2023-03-05T15:01:35Z</time>
      </trkpt>
      <trkpt lat="48.17615" lon="6.51157">
        <ele>417.4</ele>
        <time>2023-03-05T15:01:42Z</time>
      </trkpt>
      <trkpt lat="48.17617" lon="6.51171">
        <ele>417.8</ele>
        <time>2023-03-05T15:01:51Z</time>
      </trkpt>
      <trkpt lat="48.17622" lon="6.51184">
        <ele>418.3</ele>
        <time>2023-03-05T15:01:59Z</time>
      </trkpt>
      <trkpt lat="48.17625" lon="6.51196">
        <ele>418.8</ele>
        <time>2023-03-05T15:02:06Z</time>
      </trkpt>
      <trkpt lat="48.1763" lon="6.5121">
        <ele>419.4</ele>
        <time>2023-03-05T15:02:16Z</time>
      </trkpt>
      <trkpt lat="48.17635" lon="6.51223">
        <ele>420</ele>
        <time>2023-03-05T15:02:23Z</time>
      </trkpt>
      <trkpt lat="48.17642" lon="6.51235">
        <ele>420.5</ele>
        <time>2023-03-05T15:02:32Z</time>
      </trkpt>
      <trkpt lat="48.17648" lon="6.51246">
        <ele>420.9</ele>
        <time>2023-03-05T15:02:39Z</time>
      </trkpt>
      <trkpt lat="48.17655" lon="6.51254">
        <ele>421.1</ele>
        <time>2023-03-05T15:02:46Z</time>
      </trkpt>
      <trkpt lat="48.17664" lon="6.51264">
        <ele>421.4</ele>
        <time>2023-03-05T15:02:53Z</time>
      </trkpt>
      <trkpt lat="48.17672" lon="6.51269">
        <ele>421.5</ele>
        <time>2023-03-05T15:03:00Z</time>
      </trkpt>
      <trkpt lat="48.1768" lon="6.5128">
        <ele>421.5</ele>
        <time>2023-03-05T15:03:06Z</time>
      </trkpt>
      <trkpt lat="48.1769" lon="6.51285">
        <ele>421.5</ele>
        <time>2023-03-05T15:03:12Z</time>
      </trkpt>
      <trkpt lat="48.17699" lon="6.5129">
        <ele>421.4</ele>
        <time>2023-03-05T15:03:20Z</time>
      </trkpt>
      <trkpt lat="48.17706" lon="6.513">
        <ele>421.4</ele>
        <time>2023-03-05T15:03:28Z</time>
      </trkpt>
      <trkpt lat="48.17716" lon="6.51301">
        <ele>421.3</ele>
        <time>2023-03-05T15:03:36Z</time>
      </trkpt>
      <trkpt lat="48.17726" lon="6.51302">
        <ele>421.2</ele>
        <time>2023-03-05T15:03:42Z</time>
      </trkpt>
      <trkpt lat="48.17735" lon="6.51307">
        <ele>421.2</ele>
        <time>2023-03-05T15:03:53Z</time>
      </trkpt>
      <trkpt lat="48.17743" lon="6.51312">
        <ele>421.1</ele>
        <time>2023-03-05T15:04:02Z</time>
      </trkpt>
      <trkpt lat="48.17751" lon="6.51319">
        <ele>421</ele>
        <time>2023-03-05T15:04:08Z</time>
      </trkpt>
      <trkpt lat="48.17759" lon="6.51328">
        <ele>420.9</ele>
        <time>2023-03-05T15:04:14Z</time>
      </trkpt>
      <trkpt lat="48.17768" lon="6.51335">
        <ele>420.7</ele>
        <time>2023-03-05T15:04:22Z</time>
      </trkpt>
      <trkpt lat="48.17775" lon="6.51345">
        <ele>420.6</ele>
        <time>2023-03-05T15:04:31Z</time>
      </trkpt>
      <trkpt lat="48.17784" lon="6.51351">
        <ele>420.4</ele>
        <time>2023-03-05T15:04:40Z</time>
      </trkpt>
      <trkpt lat="48.17792" lon="6.5136">
        <ele>420.2</ele>
        <time>2023-03-05T15:04:48Z</time>
      </trkpt>
      <trkpt lat="48.17799" lon="6.51369">
        <ele>420</ele>
        <time>2023-03-05T15:04:56Z</time>
      </trkpt>
      <trkpt lat="48.17808" lon="6.51376">
        <ele>419.7</ele>
        <time>2023-03-05T15:05:05Z</time>
      </trkpt>
      <trkpt lat="48.17817" lon="6.5138">
        <ele>419.5</ele>
        <time>2023-03-05T15:05:13Z</time>
      </trkpt>
      <trkpt lat="48.17826" lon="6.51386">
        <ele>419.3</ele>
        <time>2023-03-05T15:05:20Z</time>
      </trkpt>
      <trkpt lat="48.17834" lon="6.51393">
        <ele>419.1</ele>
        <time>2023-03-05T15:05:29Z</time>
      </trkpt>
      <trkpt lat="48.17844" lon="6.51393">
        <ele>418.8</ele>
        <time>2023-03-05T15:05:36Z</time>
      </trkpt>
      <trkpt lat="48.17853" lon="6.51395">
        <ele>418.5</ele>
        <time>2023-03-05T15:05:45Z</time>
      </trkpt>
      <trkpt lat="48.17862" lon="6.51399">
        <ele>418.2</ele>
        <time>2023-03-05T15:05:54Z</time>
      </trkpt>
      <trkpt lat="48.17868" lon="6.5141">
        <ele>418</ele>
        <time>2023-03-05T15:06:00Z</time>
      </trkpt>
      <trkpt lat="48.17875" lon="6.51419">
        <ele>417.7</ele>
        <time>2023-03-05T15:06:08Z</time>
      </trkpt>
      <trkpt lat="48.17883" lon="6.51427">
        <ele>417.5</ele>
        <time>2023-03-05T15:06:16Z</time>
      </trkpt>
      <trkpt lat="48.17891" lon="6.51433">
        <ele>417.4</ele>
        <time>2023-03-05T15:06:24Z</time>
      </trkpt>
      <trkpt lat="48.17897" lon="6.51445">
        <ele>417.2</ele>
        <time>2023-03-05T15:06:31Z</time>
      </trkpt>
      <trkpt lat="48.17906" lon="6.5145">
        <ele>417.2</ele>
        <time>2023-03-05T15:06:38Z</time>
      </trkpt>
      <trkpt lat="48.17914" lon="6.51456">
        <ele>417.1</ele>
        <time>2023-03-05T15:06:45Z</time>
      </trkpt>
      <trkpt lat="48.17924" lon="6.51459">
        <ele>416.9</ele>
        <time>2023-03-05T15:06:54Z</time>
      </trkpt>
      <trkpt lat="48.17932" lon="6.51464">
        <ele>416.7</ele>
        <time>2023-03-05T15:07:00Z</time>
      </trkpt>
      <trkpt lat="48.17939" lon="6.51473">
        <ele>416.5</ele>
        <time>2023-03-05T15:07:07Z</time>
      </trkpt>
      <trkpt lat="48.17945" lon="6.51484">
        <ele>416.3</ele>
        <time>2023-03-05T15:07:14Z</time>
      </trkpt>
      <trkpt lat="48.17954" lon="6.51491">
        <ele>416</ele>
        <time>2023-03-05T15:07:23Z</time>
      </trkpt>
      <trkpt lat="48.17961" lon="6.51501">
        <ele>415.8</ele>
        <time>2023-03-05T15:07:37Z</time>
      </trkpt>
      <trkpt lat="48.17967" lon="6.51511">
        <ele>415.6</ele>
        <time>2023-03-05T15:07:46Z</time>
      </trkpt>
      <trkpt lat="48.17976" lon="6.51512">
        <ele>415.3</ele>
        <time>2023-03-05T15:07:52Z</time>
      </trkpt>
      <trkpt lat="48.18066" lon="6.51618">
        <ele>411.3</ele>
        <time>2023-03-05T15:09:25Z</time>
      </trkpt>
      <trkpt lat="48.18073" lon="6.51629">
        <ele>411.1</ele>
        <time>2023-03-05T15:09:27Z</time>
      </trkpt>
      <trkpt lat="48.18089" lon="6.51631">
        <ele>410.8</ele>
        <time>2023-03-05T15:09:33Z</time>
      </trkpt>
      <trkpt lat="48.18102" lon="6.51636">
        <ele>410.5</ele>
        <time>2023-03-05T15:09:36Z</time>
      </trkpt>
      <trkpt lat="48.18113" lon="6.51643">
        <ele>410.3</ele>
        <time>2023-03-05T15:09:40Z</time>
      </trkpt>
      <trkpt lat="48.18105" lon="6.5165">
        <ele>410.2</ele>
        <time>2023-03-05T15:09:44Z</time>
      </trkpt>
      <trkpt lat="48.18119" lon="6.51657">
        <ele>410</ele>
        <time>2023-03-05T15:09:48Z</time>
      </trkpt>
      <trkpt lat="48.18123" lon="6.5167">
        <ele>409.8</ele>
        <time>2023-03-05T15:09:53Z</time>
      </trkpt>
      <trkpt lat="48.18111" lon="6.51669">
        <ele>409.8</ele>
        <time>2023-03-05T15:09:59Z</time>
      </trkpt>
      <trkpt lat="48.18112" lon="6.51687">
        <ele>409.7</ele>
        <time>2023-03-05T15:10:08Z</time>
      </trkpt>
      <trkpt lat="48.18109" lon="6.51704">
        <ele>409.5</ele>
        <time>2023-03-05T15:10:11Z</time>
      </trkpt>
      <trkpt lat="48.18116" lon="6.51692">
        <ele>409.4</ele>
        <time>2023-03-05T15:10:16Z</time>
      </trkpt>
      <trkpt lat="48.18124" lon="6.51684">
        <ele>409.3</ele>
        <time>2023-03-05T15:10:22Z</time>
      </trkpt>
      <trkpt lat="48.18137" lon="6.51679">
        <ele>409.2</ele>
        <time>2023-03-05T15:10:25Z</time>
      </trkpt>
      <trkpt lat="48.18151" lon="6.51676">
        <ele>409.3</ele>
        <time>2023-03-05T15:10:28Z</time>
      </trkpt>
      <trkpt lat="48.18187" lon="6.51666">
        <ele>410</ele>
        <time>2023-03-05T15:10:43Z</time>
      </trkpt>
      <trkpt lat="48.18196" lon="6.51667">
        <ele>410.3</ele>
        <time>2023-03-05T15:10:45Z</time>
      </trkpt>
      <trkpt lat="48.1818" lon="6.5166">
        <ele>410.9</ele>
        <time>2023-03-05T15:10:48Z</time>
      </trkpt>
      <trkpt lat="48.18187" lon="6.51648">
        <ele>411.2</ele>
        <time>2023-03-05T15:10:53Z</time>
      </trkpt>
      <trkpt lat="48.18195" lon="6.51642">
        <ele>411.5</ele>
        <time>2023-03-05T15:11:21Z</time>
      </trkpt>
      <trkpt lat="48.18204" lon="6.51634">
        <ele>411.8</ele>
        <time>2023-03-05T15:11:29Z</time>
      </trkpt>
      <trkpt lat="48.18213" lon="6.5163">
        <ele>412</ele>
        <time>2023-03-05T15:11:36Z</time>
      </trkpt>
      <trkpt lat="48.18222" lon="6.51628">
        <ele>412.2</ele>
        <time>2023-03-05T15:11:45Z</time>
      </trkpt>
      <trkpt lat="48.18232" lon="6.51621">
        <ele>412.5</ele>
        <time>2023-03-05T15:11:52Z</time>
      </trkpt>
      <trkpt lat="48.18241" lon="6.51618">
        <ele>412.6</ele>
        <time>2023-03-05T15:11:58Z</time>
      </trkpt>
      <trkpt lat="48.1825" lon="6.51613">
        <ele>412.8</ele>
        <time>2023-03-05T15:12:05Z</time>
      </trkpt>
      <trkpt lat="48.18259" lon="6.51608">
        <ele>412.9</ele>
        <time>2023-03-05T15:12:12Z</time>
      </trkpt>
      <trkpt lat="48.18268" lon="6.51606">
        <ele>413.1</ele>
        <time>2023-03-05T15:12:20Z</time>
      </trkpt>
      <trkpt lat="48.18277" lon="6.516">
        <ele>413.2</ele>
        <time>2023-03-05T15:12:26Z</time>
      </trkpt>
      <trkpt lat="48.18286" lon="6.51594">
        <ele>413.4</ele>
        <time>2023-03-05T15:12:33Z</time>
      </trkpt>
      <trkpt lat="48.18295" lon="6.51586">
        <ele>413.5</ele>
        <time>2023-03-05T15:12:43Z</time>
      </trkpt>
      <trkpt lat="48.18304" lon="6.5158">
        <ele>413.4</ele>
        <time>2023-03-05T15:12:50Z</time>
      </trkpt>
      <trkpt lat="48.18314" lon="6.51575">
        <ele>413.3</ele>
        <time>2023-03-05T15:12:59Z</time>
      </trkpt>
      <trkpt lat="48.18324" lon="6.51571">
        <ele>413.2</ele>
        <time>2023-03-05T15:13:09Z</time>
      </trkpt>
      <trkpt lat="48.18325" lon="6.51556">
        <ele>413.2</ele>
        <time>2023-03-05T15:13:17Z</time>
      </trkpt>
      <trkpt lat="48.18323" lon="6.51542">
        <ele>413.1</ele>
        <time>2023-03-05T15:13:24Z</time>
      </trkpt>
      <trkpt lat="48.1832" lon="6.51528">
        <ele>413.1</ele>
        <time>2023-03-05T15:13:30Z</time>
      </trkpt>
      <trkpt lat="48.18317" lon="6.51513">
        <ele>413.1</ele>
        <time>2023-03-05T15:13:37Z</time>
      </trkpt>
      <trkpt lat="48.18313" lon="6.515">
        <ele>413.2</ele>
        <time>2023-03-05T15:13:46Z</time>
      </trkpt>
      <trkpt lat="48.18309" lon="6.51486">
        <ele>413.3</ele>
        <time>2023-03-05T15:13:55Z</time>
      </trkpt>
      <trkpt lat="48.18305" lon="6.51473">
        <ele>413.4</ele>
        <time>2023-03-05T15:14:03Z</time>
      </trkpt>
      <trkpt lat="48.18301" lon="6.5146">
        <ele>413.5</ele>
        <time>2023-03-05T15:14:10Z</time>
      </trkpt>
      <trkpt lat="48.18297" lon="6.51447">
        <ele>413.6</ele>
        <time>2023-03-05T15:14:20Z</time>
      </trkpt>
      <trkpt lat="48.18294" lon="6.51432">
        <ele>413.7</ele>
        <time>2023-03-05T15:14:27Z</time>
      </trkpt>
      <trkpt lat="48.1829" lon="6.51418">
        <ele>413.9</ele>
        <time>2023-03-05T15:14:34Z</time>
      </trkpt>
      <trkpt lat="48.18284" lon="6.51408">
        <ele>414</ele>
        <time>2023-03-05T15:14:42Z</time>
      </trkpt>
      <trkpt lat="48.18278" lon="6.51397">
        <ele>414.1</ele>
        <time>2023-03-05T15:14:49Z</time>
      </trkpt>
      <trkpt lat="48.18275" lon="6.51383">
        <ele>414.2</ele>
        <time>2023-03-05T15:14:58Z</time>
      </trkpt>
      <trkpt lat="48.18274" lon="6.51368">
        <ele>414.3</ele>
        <time>2023-03-05T15:15:06Z</time>
      </trkpt>
      <trkpt lat="48.18272" lon="6.51353">
        <ele>414.5</ele>
        <time>2023-03-05T15:15:14Z</time>
      </trkpt>
      <trkpt lat="48.1827" lon="6.51339">
        <ele>414.6</ele>
        <time>2023-03-05T15:15:21Z</time>
      </trkpt>
      <trkpt lat="48.18265" lon="6.51326">
        <ele>414.8</ele>
        <time>2023-03-05T15:15:29Z</time>
      </trkpt>
      <trkpt lat="48.18262" lon="6.5131">
        <ele>415.1</ele>
        <time>2023-03-05T15:15:35Z</time>
      </trkpt>
      <trkpt lat="48.1826" lon="6.51297">
        <ele>415.3</ele>
        <time>2023-03-05T15:15:41Z</time>
      </trkpt>
      <trkpt lat="48.18258" lon="6.51282">
        <ele>415.7</ele>
        <time>2023-03-05T15:15:49Z</time>
      </trkpt>
      <trkpt lat="48.18255" lon="6.51269">
        <ele>416</ele>
        <time>2023-03-05T15:15:56Z</time>
      </trkpt>
      <trkpt lat="48.18254" lon="6.51254">
        <ele>416.3</ele>
        <time>2023-03-05T15:16:05Z</time>
      </trkpt>
      <trkpt lat="48.18253" lon="6.51239">
        <ele>416.7</ele>
        <time>2023-03-05T15:16:12Z</time>
      </trkpt>
      <trkpt lat="48.18253" lon="6.51225">
        <ele>417.1</ele>
        <time>2023-03-05T15:16:19Z</time>
      </trkpt>
      <trkpt lat="48.18252" lon="6.51211">
        <ele>417.6</ele>
        <time>2023-03-05T15:16:28Z</time>
      </trkpt>
      <trkpt lat="48.18247" lon="6.51203">
        <ele>417.9</ele>
        <time>2023-03-05T15:16:46Z</time>
      </trkpt>
      <trkpt lat="48.18247" lon="6.51203">
        <ele>418</ele>
        <time>2023-03-05T15:16:47Z</time>
      </trkpt>
      <trkpt lat="48.18246" lon="6.51203">
        <ele>418</ele>
        <time>2023-03-05T15:16:51Z</time>
      </trkpt>
      <trkpt lat="48.18246" lon="6.51203">
        <ele>418</ele>
        <time>2023-03-05T15:16:52Z</time>
      </trkpt>
      <trkpt lat="48.18246" lon="6.51205">
        <ele>418.1</ele>
        <time>2023-03-05T15:16:56Z</time>
      </trkpt>
      <trkpt lat="48.18246" lon="6.51205">
        <ele>418.1</ele>
        <time>2023-03-05T15:17:01Z</time>
      </trkpt>
      <trkpt lat="48.18244" lon="6.5119">
        <ele>418.5</ele>
        <time>2023-03-05T15:17:09Z</time>
      </trkpt>
      <trkpt lat="48.18238" lon="6.51178">
        <ele>418.8</ele>
        <time>2023-03-05T15:17:15Z</time>
      </trkpt>
      <trkpt lat="48.18236" lon="6.51165">
        <ele>419.2</ele>
        <time>2023-03-05T15:17:24Z</time>
      </trkpt>
      <trkpt lat="48.18231" lon="6.51151">
        <ele>419.6</ele>
        <time>2023-03-05T15:17:31Z</time>
      </trkpt>
      <trkpt lat="48.18227" lon="6.51137">
        <ele>420.5</ele>
        <time>2023-03-05T15:17:38Z</time>
      </trkpt>
      <trkpt lat="48.18228" lon="6.51136">
        <ele>420.6</ele>
        <time>2023-03-05T15:17:46Z</time>
      </trkpt>
      <trkpt lat="48.18229" lon="6.51136">
        <ele>420.6</ele>
        <time>2023-03-05T15:17:47Z</time>
      </trkpt>
      <trkpt lat="48.18237" lon="6.51129">
        <ele>421.1</ele>
        <time>2023-03-05T15:17:56Z</time>
      </trkpt>
      <trkpt lat="48.18242" lon="6.51117">
        <ele>421.5</ele>
        <time>2023-03-05T15:18:00Z</time>
      </trkpt>
      <trkpt lat="48.18246" lon="6.51105">
        <ele>422</ele>
        <time>2023-03-05T15:18:06Z</time>
      </trkpt>
      <trkpt lat="48.18252" lon="6.51091">
        <ele>422.5</ele>
        <time>2023-03-05T15:18:14Z</time>
      </trkpt>
      <trkpt lat="48.18256" lon="6.51077">
        <ele>423.1</ele>
        <time>2023-03-05T15:18:21Z</time>
      </trkpt>
      <trkpt lat="48.18258" lon="6.51063">
        <ele>423.7</ele>
        <time>2023-03-05T15:18:32Z</time>
      </trkpt>
      <trkpt lat="48.18263" lon="6.51051">
        <ele>424.4</ele>
        <time>2023-03-05T15:18:40Z</time>
      </trkpt>
      <trkpt lat="48.18269" lon="6.51039">
        <ele>425</ele>
        <time>2023-03-05T15:18:47Z</time>
      </trkpt>
      <trkpt lat="48.18275" lon="6.51029">
        <ele>425.6</ele>
        <time>2023-03-05T15:18:55Z</time>
      </trkpt>
      <trkpt lat="48.18282" lon="6.51017">
        <ele>426.3</ele>
        <time>2023-03-05T15:19:03Z</time>
      </trkpt>
      <trkpt lat="48.18288" lon="6.51007">
        <ele>426.8</ele>
        <time>2023-03-05T15:19:09Z</time>
      </trkpt>
      <trkpt lat="48.18294" lon="6.50994">
        <ele>427.3</ele>
        <time>2023-03-05T15:19:17Z</time>
      </trkpt>
      <trkpt lat="48.18299" lon="6.50982">
        <ele>427.6</ele>
        <time>2023-03-05T15:19:24Z</time>
      </trkpt>
      <trkpt lat="48.18302" lon="6.50968">
        <ele>427.8</ele>
        <time>2023-03-05T15:19:31Z</time>
      </trkpt>
      <trkpt lat="48.18311" lon="6.50965">
        <ele>427.8</ele>
        <time>2023-03-05T15:19:53Z</time>
      </trkpt>
      <trkpt lat="48.18311" lon="6.50966">
        <ele>427.8</ele>
        <time>2023-03-05T15:20:04Z</time>
      </trkpt>
      <trkpt lat="48.18311" lon="6.50966">
        <ele>427.7</ele>
        <time>2023-03-05T15:20:06Z</time>
      </trkpt>
      <trkpt lat="48.18311" lon="6.50965">
        <ele>427.7</ele>
        <time>2023-03-05T15:20:17Z</time>
      </trkpt>
      <trkpt lat="48.18311" lon="6.50966">
        <ele>427.7</ele>
        <time>2023-03-05T15:20:18Z</time>
      </trkpt>
      <trkpt lat="48.1831" lon="6.50967">
        <ele>427.7</ele>
        <time>2023-03-05T15:20:22Z</time>
      </trkpt>
      <trkpt lat="48.18309" lon="6.50968">
        <ele>427.7</ele>
        <time>2023-03-05T15:20:23Z</time>
      </trkpt>
      <trkpt lat="48.18309" lon="6.50968">
        <ele>427.7</ele>
        <time>2023-03-05T15:20:28Z</time>
      </trkpt>
      <trkpt lat="48.18309" lon="6.50969">
        <ele>427.7</ele>
        <time>2023-03-05T15:20:29Z</time>
      </trkpt>
      <trkpt lat="48.18308" lon="6.50969">
        <ele>427.7</ele>
        <time>2023-03-05T15:20:42Z</time>
      </trkpt>
      <trkpt lat="48.18308" lon="6.50969">
        <ele>427.7</ele>
        <time>2023-03-05T15:20:44Z</time>
      </trkpt>
      <trkpt lat="48.1831" lon="6.50969">
        <ele>427.6</ele>
        <time>2023-03-05T15:21:01Z</time>
      </trkpt>
      <trkpt lat="48.18311" lon="6.50969">
        <ele>427.6</ele>
        <time>2023-03-05T15:21:02Z</time>
      </trkpt>
      <trkpt lat="48.18315" lon="6.50956">
        <ele>427.2</ele>
        <time>2023-03-05T15:21:17Z</time>
      </trkpt>
      <trkpt lat="48.18318" lon="6.50943">
        <ele>426.7</ele>
        <time>2023-03-05T15:21:25Z</time>
      </trkpt>
      <trkpt lat="48.18323" lon="6.50931">
        <ele>426</ele>
        <time>2023-03-05T15:21:32Z</time>
      </trkpt>
      <trkpt lat="48.18328" lon="6.50918">
        <ele>425</ele>
        <time>2023-03-05T15:21:40Z</time>
      </trkpt>
      <trkpt lat="48.18335" lon="6.50908">
        <ele>424</ele>
        <time>2023-03-05T15:21:47Z</time>
      </trkpt>
      <trkpt lat="48.18341" lon="6.50896">
        <ele>423</ele>
        <time>2023-03-05T15:21:55Z</time>
      </trkpt>
      <trkpt lat="48.18344" lon="6.50882">
        <ele>422</ele>
        <time>2023-03-05T15:22:07Z</time>
      </trkpt>
      <trkpt lat="48.18349" lon="6.50868">
        <ele>421.1</ele>
        <time>2023-03-05T15:22:15Z</time>
      </trkpt>
      <trkpt lat="48.18346" lon="6.50853">
        <ele>420.2</ele>
        <time>2023-03-05T15:22:24Z</time>
      </trkpt>
      <trkpt lat="48.18337" lon="6.50845">
        <ele>419.5</ele>
        <time>2023-03-05T15:22:29Z</time>
      </trkpt>
      <trkpt lat="48.18329" lon="6.50836">
        <ele>418.9</ele>
        <time>2023-03-05T15:22:36Z</time>
      </trkpt>
      <trkpt lat="48.18322" lon="6.50826">
        <ele>418.5</ele>
        <time>2023-03-05T15:22:44Z</time>
      </trkpt>
      <trkpt lat="48.18314" lon="6.50816">
        <ele>418.2</ele>
        <time>2023-03-05T15:22:53Z</time>
      </trkpt>
      <trkpt lat="48.18307" lon="6.50808">
        <ele>418</ele>
        <time>2023-03-05T15:22:59Z</time>
      </trkpt>
      <trkpt lat="48.183" lon="6.50798">
        <ele>417.8</ele>
        <time>2023-03-05T15:23:06Z</time>
      </trkpt>
      <trkpt lat="48.18296" lon="6.50786">
        <ele>417.7</ele>
        <time>2023-03-05T15:23:14Z</time>
      </trkpt>
      <trkpt lat="48.18291" lon="6.50772">
        <ele>417.6</ele>
        <time>2023-03-05T15:23:23Z</time>
      </trkpt>
      <trkpt lat="48.18291" lon="6.50769">
        <ele>417.6</ele>
        <time>2023-03-05T15:23:27Z</time>
      </trkpt>
      <trkpt lat="48.18291" lon="6.50769">
        <ele>417.6</ele>
        <time>2023-03-05T15:23:29Z</time>
      </trkpt>
      <trkpt lat="48.18291" lon="6.50769">
        <ele>417.6</ele>
        <time>2023-03-05T15:23:30Z</time>
      </trkpt>
      <trkpt lat="48.18291" lon="6.50769">
        <ele>417.6</ele>
        <time>2023-03-05T15:23:42Z</time>
      </trkpt>
      <trkpt lat="48.18285" lon="6.50757">
        <ele>417.5</ele>
        <time>2023-03-05T15:23:57Z</time>
      </trkpt>
      <trkpt lat="48.18279" lon="6.50745">
        <ele>417.3</ele>
        <time>2023-03-05T15:24:03Z</time>
      </trkpt>
      <trkpt lat="48.18278" lon="6.50731">
        <ele>417.2</ele>
        <time>2023-03-05T15:24:10Z</time>
      </trkpt>
      <trkpt lat="48.18277" lon="6.50715">
        <ele>417.1</ele>
        <time>2023-03-05T15:24:20Z</time>
      </trkpt>
      <trkpt lat="48.18273" lon="6.50702">
        <ele>417.1</ele>
        <time>2023-03-05T15:24:27Z</time>
      </trkpt>
      <trkpt lat="48.18267" lon="6.50693">
        <ele>417.2</ele>
        <time>2023-03-05T15:24:35Z</time>
      </trkpt>
      <trkpt lat="48.18261" lon="6.50682">
        <ele>417.2</ele>
        <time>2023-03-05T15:24:42Z</time>
      </trkpt>
      <trkpt lat="48.18254" lon="6.50672">
        <ele>417.3</ele>
        <time>2023-03-05T15:24:50Z</time>
      </trkpt>
      <trkpt lat="48.18247" lon="6.50661">
        <ele>417.4</ele>
        <time>2023-03-05T15:25:01Z</time>
      </trkpt>
      <trkpt lat="48.18241" lon="6.50652">
        <ele>417.5</ele>
        <time>2023-03-05T15:25:09Z</time>
      </trkpt>
      <trkpt lat="48.18234" lon="6.50641">
        <ele>417.6</ele>
        <time>2023-03-05T15:25:19Z</time>
      </trkpt>
      <trkpt lat="48.18228" lon="6.50629">
        <ele>417.6</ele>
        <time>2023-03-05T15:25:26Z</time>
      </trkpt>
      <trkpt lat="48.18221" lon="6.5062">
        <ele>417.6</ele>
        <time>2023-03-05T15:25:34Z</time>
      </trkpt>
      <trkpt lat="48.18213" lon="6.50612">
        <ele>417.7</ele>
        <time>2023-03-05T15:25:42Z</time>
      </trkpt>
      <trkpt lat="48.18205" lon="6.50603">
        <ele>417.7</ele>
        <time>2023-03-05T15:25:52Z</time>
      </trkpt>
      <trkpt lat="48.18198" lon="6.50592">
        <ele>417.9</ele>
        <time>2023-03-05T15:26:01Z</time>
      </trkpt>
      <trkpt lat="48.1819" lon="6.50601">
        <ele>418.2</ele>
        <time>2023-03-05T15:26:26Z</time>
      </trkpt>
      <trkpt lat="48.18182" lon="6.50608">
        <ele>418.4</ele>
        <time>2023-03-05T15:26:37Z</time>
      </trkpt>
      <trkpt lat="48.18174" lon="6.50602">
        <ele>418.5</ele>
        <time>2023-03-05T15:26:44Z</time>
      </trkpt>
      <trkpt lat="48.18166" lon="6.50595">
        <ele>418.6</ele>
        <time>2023-03-05T15:26:49Z</time>
      </trkpt>
      <trkpt lat="48.18157" lon="6.5059">
        <ele>418.6</ele>
        <time>2023-03-05T15:26:56Z</time>
      </trkpt>
      <trkpt lat="48.18149" lon="6.50581">
        <ele>418.6</ele>
        <time>2023-03-05T15:27:03Z</time>
      </trkpt>
      <trkpt lat="48.18141" lon="6.50573">
        <ele>418.5</ele>
        <time>2023-03-05T15:27:12Z</time>
      </trkpt>
      <trkpt lat="48.18134" lon="6.50561">
        <ele>418.4</ele>
        <time>2023-03-05T15:27:19Z</time>
      </trkpt>
      <trkpt lat="48.18127" lon="6.50552">
        <ele>418.2</ele>
        <time>2023-03-05T15:27:27Z</time>
      </trkpt>
      <trkpt lat="48.18125" lon="6.50541">
        <ele>418.1</ele>
        <time>2023-03-05T15:27:37Z</time>
      </trkpt>
      <trkpt lat="48.18125" lon="6.50541">
        <ele>418.1</ele>
        <time>2023-03-05T15:27:42Z</time>
      </trkpt>
      <trkpt lat="48.18125" lon="6.50541">
        <ele>418.1</ele>
        <time>2023-03-05T15:27:43Z</time>
      </trkpt>
      <trkpt lat="48.18125" lon="6.50541">
        <ele>418.1</ele>
        <time>2023-03-05T15:27:44Z</time>
      </trkpt>
      <trkpt lat="48.18124" lon="6.50538">
        <ele>418.1</ele>
        <time>2023-03-05T15:27:55Z</time>
      </trkpt>
      <trkpt lat="48.18124" lon="6.50537">
        <ele>418.1</ele>
        <time>2023-03-05T15:27:56Z</time>
      </trkpt>
      <trkpt lat="48.18124" lon="6.50537">
        <ele>418.1</ele>
        <time>2023-03-05T15:27:58Z</time>
      </trkpt>
      <trkpt lat="48.18124" lon="6.50537">
        <ele>418.1</ele>
        <time>2023-03-05T15:27:59Z</time>
      </trkpt>
      <trkpt lat="48.18116" lon="6.50529">
        <ele>417.9</ele>
        <time>2023-03-05T15:28:16Z</time>
      </trkpt>
      <trkpt lat="48.18109" lon="6.5052">
        <ele>417.8</ele>
        <time>2023-03-05T15:28:24Z</time>
      </trkpt>
      <trkpt lat="48.18102" lon="6.5051">
        <ele>417.7</ele>
        <time>2023-03-05T15:28:33Z</time>
      </trkpt>
      <trkpt lat="48.18096" lon="6.50497">
        <ele>417.5</ele>
        <time>2023-03-05T15:28:42Z</time>
      </trkpt>
      <trkpt lat="48.18096" lon="6.50497">
        <ele>417.5</ele>
        <time>2023-03-05T15:28:43Z</time>
      </trkpt>
      <trkpt lat="48.18095" lon="6.50495">
        <ele>417.5</ele>
        <time>2023-03-05T15:28:44Z</time>
      </trkpt>
      <trkpt lat="48.18095" lon="6.50495">
        <ele>417.5</ele>
        <time>2023-03-05T15:28:45Z</time>
      </trkpt>
      <trkpt lat="48.18095" lon="6.50495">
        <ele>417.5</ele>
        <time>2023-03-05T15:28:46Z</time>
      </trkpt>
      <trkpt lat="48.18092" lon="6.50482">
        <ele>417.4</ele>
        <time>2023-03-05T15:28:55Z</time>
      </trkpt>
      <trkpt lat="48.18085" lon="6.50473">
        <ele>417.3</ele>
        <time>2023-03-05T15:29:05Z</time>
      </trkpt>
      <trkpt lat="48.18077" lon="6.50466">
        <ele>417.2</ele>
        <time>2023-03-05T15:29:13Z</time>
      </trkpt>
      <trkpt lat="48.18071" lon="6.50455">
        <ele>417.2</ele>
        <time>2023-03-05T15:29:21Z</time>
      </trkpt>
      <trkpt lat="48.18064" lon="6.50442">
        <ele>417.1</ele>
        <time>2023-03-05T15:29:28Z</time>
      </trkpt>
      <trkpt lat="48.18058" lon="6.50432">
        <ele>417.1</ele>
        <time>2023-03-05T15:29:37Z</time>
      </trkpt>
      <trkpt lat="48.18051" lon="6.50421">
        <ele>417</ele>
        <time>2023-03-05T15:29:47Z</time>
      </trkpt>
      <trkpt lat="48.18043" lon="6.50412">
        <ele>417</ele>
        <time>2023-03-05T15:29:58Z</time>
      </trkpt>
      <trkpt lat="48.18041" lon="6.50408">
        <ele>417</ele>
        <time>2023-03-05T15:29:59Z</time>
      </trkpt>
      <trkpt lat="48.1804" lon="6.50405">
        <ele>416.9</ele>
        <time>2023-03-05T15:30:05Z</time>
      </trkpt>
      <trkpt lat="48.18038" lon="6.50401">
        <ele>416.9</ele>
        <time>2023-03-05T15:30:17Z</time>
      </trkpt>
      <trkpt lat="48.18036" lon="6.50397">
        <ele>416.9</ele>
        <time>2023-03-05T15:30:27Z</time>
      </trkpt>
      <trkpt lat="48.18034" lon="6.50394">
        <ele>416.9</ele>
        <time>2023-03-05T15:30:35Z</time>
      </trkpt>
      <trkpt lat="48.18032" lon="6.5039">
        <ele>416.8</ele>
        <time>2023-03-05T15:30:42Z</time>
      </trkpt>
      <trkpt lat="48.1803" lon="6.50386">
        <ele>416.8</ele>
        <time>2023-03-05T15:30:58Z</time>
      </trkpt>
      <trkpt lat="48.18028" lon="6.50383">
        <ele>416.7</ele>
        <time>2023-03-05T15:31:01Z</time>
      </trkpt>
      <trkpt lat="48.18026" lon="6.50379">
        <ele>416.7</ele>
        <time>2023-03-05T15:31:08Z</time>
      </trkpt>
      <trkpt lat="48.18025" lon="6.50375">
        <ele>416.6</ele>
        <time>2023-03-05T15:31:09Z</time>
      </trkpt>
      <trkpt lat="48.18023" lon="6.50371">
        <ele>416.6</ele>
        <time>2023-03-05T15:31:23Z</time>
      </trkpt>
      <trkpt lat="48.18021" lon="6.50368">
        <ele>416.6</ele>
        <time>2023-03-05T15:31:24Z</time>
      </trkpt>
      <trkpt lat="48.18019" lon="6.50364">
        <ele>416.4</ele>
        <time>2023-03-05T15:31:27Z</time>
      </trkpt>
      <trkpt lat="48.18017" lon="6.5036">
        <ele>416.3</ele>
        <time>2023-03-05T15:31:28Z</time>
      </trkpt>
      <trkpt lat="48.18015" lon="6.50357">
        <ele>416.2</ele>
        <time>2023-03-05T15:31:29Z</time>
      </trkpt>
      <trkpt lat="48.18013" lon="6.50353">
        <ele>416.1</ele>
        <time>2023-03-05T15:31:33Z</time>
      </trkpt>
      <trkpt lat="48.18011" lon="6.50349">
        <ele>416</ele>
        <time>2023-03-05T15:31:33Z</time>
      </trkpt>
      <trkpt lat="48.18011" lon="6.50349">
        <ele>416</ele>
        <time>2023-03-05T15:31:33Z</time>
      </trkpt>
      <trkpt lat="48.18011" lon="6.5035">
        <ele>416</ele>
        <time>2023-03-05T15:31:34Z</time>
      </trkpt>
      <trkpt lat="48.18011" lon="6.5035">
        <ele>416</ele>
        <time>2023-03-05T15:31:34Z</time>
      </trkpt>
    </trkseg>
  </trk>
</gpx>